Provisional Data: South Branch Codorus Creek near Leader Heights, PA


Please select a monitoring station.
Please select start date.
Please select start date.

Toggle Unit: C/F Toggle Unit: C/F
Sample Time Temperature (C) Temperature (F) Specific Conductivity (mS/cm) pH   Turbidity (NTU+) DO (mg/L)
12/4/2020 12:00:00 AM 7.13 44.834 0.244 7.63 7.41 11.22
12/4/2020 12:15:00 AM 7.14 44.852 0.244 7.61 7.88 11.19
12/4/2020 12:30:00 AM 7.13 44.834 0.243 7.58 12.32 11.2
12/4/2020 12:45:00 AM 7.16 44.888 0.243 7.58 8.02 11.17
12/4/2020 1:00:00 AM 7.18 44.924 0.243 7.58 10.02 11.16
12/4/2020 1:15:00 AM 7.15 44.87 0.243 7.62 9 11.16
12/4/2020 1:30:00 AM 7.17 44.906 0.244 7.6 8.66 11.15
12/4/2020 1:45:00 AM 7.19 44.942 0.244 7.57 8.58 11.14
12/4/2020 2:00:00 AM 7.11 44.798 0.244 7.57 8.56 11.16
12/4/2020 2:15:00 AM 7.19 44.942 0.244 7.57 10.01 11.14
12/4/2020 2:30:00 AM 7.2 44.96 0.244 7.58 11.1 11.13
12/4/2020 2:45:00 AM 7.2 44.96 0.244 7.57 9.43 11.11
12/4/2020 3:00:00 AM 7.16 44.888 0.244 7.59 13.04 11.12
12/4/2020 3:15:00 AM 7.16 44.888 0.244 7.6 8.28 11.12
12/4/2020 3:30:00 AM 7.21 44.978 0.244 7.59 10.31 11.1
12/4/2020 3:45:00 AM 7.23 45.014 0.244 7.61 8.88 11.09
12/4/2020 4:00:00 AM 7.2 44.96 0.245 7.58 9.81 11.09
12/4/2020 4:15:00 AM 7.16 44.888 0.245 7.57 8.59 11.1
12/4/2020 4:30:00 AM 7.14 44.852 0.245 7.57 9.86 11.09
12/4/2020 4:45:00 AM 7.17 44.906 0.245 7.54 8.19 11.09
12/4/2020 5:00:00 AM 7.15 44.87 0.242 7.55 10.15 11.07
12/4/2020 5:15:00 AM 7.13 44.834 0.245 7.57 8.77 11.08
12/4/2020 5:30:00 AM 7.21 44.978 0.244 7.55 13.07 11.06
12/4/2020 5:45:00 AM 7.22 44.996 0.244 7.55 9.93 11.07
12/4/2020 6:00:00 AM 7.18 44.924 0.244 7.54 8.44 11.07
12/4/2020 6:15:00 AM 7.18 44.924 0.244 7.53 9.52 11.06
12/4/2020 6:30:00 AM 7.17 44.906 0.245 7.54 11.08 11.07
12/4/2020 6:45:00 AM 7.18 44.924 0.245 7.53 11.44 11.05
12/4/2020 7:00:00 AM 7.12 44.816 0.245 7.47 11.39 11.07
12/4/2020 7:15:00 AM 7.13 44.834 0.245 7.52 9.94 11.06
12/4/2020 7:30:00 AM 7.12 44.816 0.245 7.53 10.34 11.08
12/4/2020 7:45:00 AM 7.18 44.924 0.244 7.53 9.59 11.07
12/4/2020 8:00:00 AM 7.14 44.852 0.244 7.52 13.66 11.12
12/4/2020 8:15:00 AM 7 44.6 0.244 7.52 10.13 11.2
12/4/2020 8:30:00 AM 6.93 44.474 0.244 7.52 6.85 11.33
12/4/2020 8:45:00 AM 6.8 44.24 0.245 7.52 9.18 11.48
12/4/2020 9:00:00 AM 6.75 44.15 0.247 7.55 5.88 11.59
12/4/2020 9:15:00 AM 6.77 44.186 0.248 7.56 9.4 11.64
12/4/2020 9:30:00 AM 6.73 44.114 0.248 7.58 5.93 11.74
12/4/2020 9:45:00 AM 6.77 44.186 0.248 7.6 8.78 11.8
12/4/2020 10:00:00 AM 6.79 44.222 0.248 7.61 7.58 11.89
12/4/2020 10:15:00 AM 6.84 44.312 0.248 7.64 6.6 11.95
12/4/2020 10:30:00 AM 6.84 44.312 0.247 7.65 6 12.04
12/4/2020 10:45:00 AM 6.88 44.384 0.247 7.65 4.91 12.1
12/4/2020 11:00:00 AM 6.91 44.438 0.247 7.67 7.63 12.1
12/4/2020 11:15:00 AM 6.91 44.438 0.248 7.64 6.35 12.11
12/4/2020 11:30:00 AM 6.9 44.42 0.249 7.63 5.46 12.16
12/4/2020 11:45:00 AM 6.91 44.438 0.249 7.65 5.35 12.22
12/4/2020 12:00:00 PM 6.96 44.528 0.249 7.66 5.1 12.24
12/4/2020 12:15:00 PM 6.93 44.474 0.248 7.67 7.28 12.25
12/4/2020 12:30:00 PM 6.96 44.528 0.247 7.66 7.41 12.22
12/4/2020 12:45:00 PM 7.01 44.618 0.247 7.66 4.92 12.2
12/4/2020 1:00:00 PM 7 44.6 0.246 7.67 9.15 12.21
12/4/2020 1:15:00 PM 7.04 44.672 0.246 7.67 5.89 12.16
12/4/2020 1:30:00 PM 7.04 44.672 0.246 7.67 5.57 12.15
12/4/2020 1:45:00 PM 7.08 44.744 0.247 7.68 5.93 12.16
12/4/2020 2:00:00 PM 7.05 44.69 0.247 7.67 7.15 12.17
12/4/2020 2:15:00 PM 7.09 44.762 0.247 7.66 4.95 12.14
12/4/2020 2:30:00 PM 7.11 44.798 0.247 7.68 9.81 12.09
12/4/2020 2:45:00 PM 7.11 44.798 0.246 7.69 7.23 12.08
12/4/2020 3:00:00 PM 7.1 44.78 0.245 7.69 5.09 12.12
12/4/2020 3:15:00 PM 7.13 44.834 0.245 7.68 6.6 12.11
12/4/2020 3:30:00 PM 7.15 44.87 0.245 7.67 6.63 12.09
12/4/2020 3:45:00 PM 7.16 44.888 0.245 7.67 4.98 12.01
12/4/2020 4:00:00 PM 7.19 44.942 0.245 7.68 7.26 11.91
12/4/2020 4:15:00 PM 7.19 44.942 0.245 7.65 4.56 11.86
12/4/2020 4:30:00 PM 7.14 44.852 0.246 7.66 6.12 11.8
12/4/2020 4:45:00 PM 7.19 44.942 0.246 7.66 4.68 11.73
12/4/2020 5:00:00 PM 7.16 44.888 0.245 7.65 5.24 11.68
12/4/2020 5:15:00 PM 7.15 44.87 0.24 7.65 6.93 11.62
12/4/2020 5:30:00 PM 7.16 44.888 0.245 7.64 4.96 11.56
12/4/2020 5:45:00 PM 7.15 44.87 0.245 7.64 5.17 11.51
12/4/2020 6:00:00 PM 7.16 44.888 0.245 7.65 7.67 11.47
12/4/2020 6:15:00 PM 7.17 44.906 0.245 7.67 9.34 11.42
12/4/2020 6:30:00 PM 7.15 44.87 0.246 7.66 6.84 11.4
12/4/2020 6:45:00 PM 7.13 44.834 0.246 7.64 9.44 11.39
12/4/2020 7:00:00 PM 7.14 44.852 0.246 7.64 6.29 11.37
12/4/2020 7:15:00 PM 7.14 44.852 0.246 7.62 8.44 11.36
12/4/2020 7:30:00 PM 7.12 44.816 0.245 7.6 6.38 11.35
12/4/2020 7:45:00 PM 7.13 44.834 0.245 7.61 7.93 11.33
12/4/2020 8:00:00 PM 7.13 44.834 0.245 7.6 12.74 11.31
12/4/2020 8:15:00 PM 7.13 44.834 0.245 7.6 6.14 11.3
12/4/2020 8:30:00 PM 7.15 44.87 0.245 7.59 6.11 11.29
12/4/2020 8:45:00 PM 7.16 44.888 0.232 7.59 6.63 11.26
12/4/2020 9:00:00 PM 7.15 44.87 0.242 7.58 7.78 11.28
12/4/2020 9:15:00 PM 7.18 44.924 0.246 7.59 8.03 11.29
12/4/2020 9:30:00 PM 7.14 44.852 0.246 7.59 8.64 11.28
12/4/2020 9:45:00 PM 7.17 44.906 0.246 7.57 6.66 11.26
12/4/2020 10:00:00 PM 7.15 44.87 0.246 7.57 7.41 11.24
12/4/2020 10:15:00 PM 7.17 44.906 0.245 7.57 9.65 11.26
12/4/2020 10:30:00 PM 7.17 44.906 0.245 7.57 7.63 11.26
12/4/2020 10:45:00 PM 7.18 44.924 0.246 7.58 6.54 11.25
12/4/2020 11:00:00 PM 7.18 44.924 0.246 7.54 8.55 11.25
12/4/2020 11:15:00 PM 7.18 44.924 0.247 7.55 8.22 11.25
12/4/2020 11:30:00 PM 7.15 44.87 0.247 7.55 8.99 11.25
12/4/2020 11:45:00 PM 7.18 44.924 0.247 7.55 7.99 11.24
12/5/2020 12:00:00 AM 7.15 44.87 0.246 7.52 6.5 11.24
12/5/2020 12:15:00 AM 7.16 44.888 0.246 7.57 7.49 11.23
12/5/2020 12:30:00 AM 7.17 44.906 0.246 7.57 10.66 11.21
12/5/2020 12:45:00 AM 7.16 44.888 0.246 7.55 8.54 11.21
12/5/2020 1:00:00 AM 7.19 44.942 0.247 7.55 8.07 11.21
12/5/2020 1:15:00 AM 7.17 44.906 0.248 7.56 12.53 11.23
12/5/2020 1:30:00 AM 7.15 44.87 0.248 7.56 12.65 11.22
12/5/2020 1:45:00 AM 7.18 44.924 0.248 7.55 7.05 11.21
12/5/2020 2:00:00 AM 7.16 44.888 0.248 7.54 9.63 11.22
12/5/2020 2:15:00 AM 7.15 44.87 0.247 7.53 9.46 11.21
12/5/2020 2:30:00 AM 7.16 44.888 0.247 7.51 16.51 11.22
12/5/2020 2:45:00 AM 7.19 44.942 0.246 7.54 10.94 11.2
12/5/2020 3:00:00 AM 7.2 44.96 0.245 7.54 10.3 11.19
12/5/2020 3:15:00 AM 7.15 44.87 0.245 7.53 13.23 11.2
12/5/2020 3:30:00 AM 7.16 44.888 0.241 7.52 10.35 11.2
12/5/2020 3:45:00 AM 7.16 44.888 0.243 7.53 12.19 11.21
12/5/2020 4:00:00 AM 7.14 44.852 0.243 7.53 11.49 11.2
12/5/2020 4:15:00 AM 7.12 44.816 0.225 7.53 17.2 11.23
12/5/2020 4:30:00 AM 7.11 44.798 0.24 6.98 14.09 11.22
12/5/2020 4:45:00 AM 7.09 44.762 0.242 7.01 21.19 11.23
12/5/2020 5:00:00 AM 7.1 44.78 0.242 6.97 12.77 11.22
12/5/2020 5:15:00 AM 7.11 44.798 0.241 6.85 14.09 11.22
12/5/2020 5:30:00 AM 7.12 44.816 0.238 6.37 20.74 11.22
12/5/2020 5:45:00 AM 7.1 44.78 0.231 6.26 22.97 11.21
12/5/2020 6:00:00 AM 7.1 44.78 0.235 6.15 16.56 11.22
12/5/2020 6:15:00 AM 7.08 44.744 0.225 5.83 18.71 11.21
12/5/2020 6:30:00 AM 7.09 44.762 0.233 5.97 28.46 11.22
12/5/2020 6:45:00 AM 7.07 44.726 0.242 6.47 15.58 11.23
12/5/2020 7:00:00 AM 7.06 44.708 0.243 6.72 15.95 11.23
12/5/2020 7:15:00 AM 7.04 44.672 0.243 6.83 15.33 11.23
12/5/2020 7:30:00 AM 7.04 44.672 0.243 6.93 15.41 11.23
12/5/2020 7:45:00 AM 7.05 44.69 0.243 7.01 21.13 11.25
12/5/2020 8:00:00 AM 7.04 44.672 0.243 7.08 24.06 11.26
12/5/2020 8:15:00 AM 7.06 44.708 0.243 7.14 17.03 11.32
12/5/2020 8:30:00 AM 7.06 44.708 0.243 7.19 17.51 11.4
12/5/2020 8:45:00 AM 7.07 44.726 0.242 7.24 14.63 11.48
12/5/2020 9:00:00 AM 7.08 44.744 0.242 7.25 15.34 11.55
12/5/2020 9:15:00 AM 7.12 44.816 0.242 7.28 13.77 11.6
12/5/2020 9:30:00 AM 7.15 44.87 0.241 7.29 14.99 11.68
12/5/2020 9:45:00 AM 7.17 44.906 0.241 7.31 14.61 11.75
12/5/2020 10:00:00 AM 7.22 44.996 0.24 7.35 16.51 11.83
12/5/2020 10:15:00 AM 7.25 45.05 0.24 7.38 17.92 11.86
12/5/2020 10:30:00 AM 7.24 45.032 0.24 7.43 11.89 11.85
12/5/2020 10:45:00 AM 7.27 45.086 0.24 7.47 12.47 11.87
12/5/2020 11:00:00 AM 7.31 45.158 0.24 7.5 11.28 11.96
12/5/2020 11:15:00 AM 7.32 45.176 0.239 7.51 12.24 12.02
12/5/2020 11:30:00 AM 7.33 45.194 0.239 7.55 10.28 12.03
12/5/2020 11:45:00 AM 7.36 45.248 0.238 7.56 12 12.03
12/5/2020 12:00:00 PM 7.37 45.266 0.238 7.59 11.66 12.08
12/5/2020 12:15:00 PM 7.38 45.284 0.237 7.65 10.85 12.06
12/5/2020 12:30:00 PM 7.41 45.338 0.237 7.65 10.25 12.12
12/5/2020 12:45:00 PM 7.44 45.392 0.237 7.62 11.62 12.22
12/5/2020 1:00:00 PM 7.5 45.5 0.236 7.64 11.24 12.29
12/5/2020 1:15:00 PM 7.59 45.662 0.236 7.66 10.56 12.34
12/5/2020 1:30:00 PM 7.64 45.752 0.236 7.66 12.58 12.41
12/5/2020 1:45:00 PM 7.63 45.734 0.236 7.68 10.86 12.45
12/5/2020 2:00:00 PM 7.64 45.752 0.235 7.69 11.37 12.43
12/5/2020 2:15:00 PM 7.59 45.662 0.234 7.7 10.22 12.4
12/5/2020 2:30:00 PM 7.58 45.644 0.235 7.72 9.92 12.38
12/5/2020 2:45:00 PM 7.55 45.59 0.234 7.72 10.32 12.35
12/5/2020 3:00:00 PM 7.51 45.518 0.234 7.72 10.31 12.33
12/5/2020 3:15:00 PM 7.5 45.5 0.234 7.72 12.56 12.25
12/5/2020 3:30:00 PM 7.48 45.464 0.235 7.72 16.05 12.15
12/5/2020 3:45:00 PM 7.46 45.428 0.235 7.7 11.68 12.1
12/5/2020 4:00:00 PM 7.44 45.392 0.236 7.68 10.57 12.03
12/5/2020 4:15:00 PM 7.42 45.356 0.236 7.69 11.88 11.91
12/5/2020 4:30:00 PM 7.4 45.32 0.236 7.68 9.71 11.84
12/5/2020 4:45:00 PM 7.37 45.266 0.236 7.67 16.45 11.74
12/5/2020 5:00:00 PM 7.34 45.212 0.235 7.65 9.92 11.69
12/5/2020 5:15:00 PM 7.31 45.158 0.235 7.65 11.06 11.61
12/5/2020 5:30:00 PM 7.3 45.14 0.234 7.64 10.87 11.56
12/5/2020 5:45:00 PM 7.29 45.122 0.234 7.63 12.97 11.51
12/5/2020 6:00:00 PM 7.27 45.086 0.234 7.63 16.27 11.47
12/5/2020 6:15:00 PM 7.26 45.068 0.235 7.63 22.77 11.45
12/5/2020 6:30:00 PM 7.26 45.068 0.235 7.65 14.58 11.41
12/5/2020 6:45:00 PM 7.23 45.014 0.22 7.64 11.14 11.4
12/5/2020 7:00:00 PM 7.22 44.996 0.218 7.65 14.01 11.39
12/5/2020 7:15:00 PM 7.2 44.96 0.236 7.61 10.88 11.39
12/5/2020 7:30:00 PM 7.19 44.942 0.224 7.62 12.54 11.37
12/5/2020 7:45:00 PM 7.17 44.906 0.23 7.61 25.98 11.36
12/5/2020 8:00:00 PM 7.2 44.96 0.234 7.61 26.28 11.34
12/5/2020 8:15:00 PM 7.17 44.906 0.234 7.62 19.2 11.33
12/5/2020 8:30:00 PM 7.16 44.888 0.234 7.64 16.83 11.31
12/5/2020 8:45:00 PM 7.15 44.87 0.234 7.64 17.29 11.32
12/5/2020 9:00:00 PM 7.13 44.834 0.234 7.62 14.52 11.3
12/5/2020 9:15:00 PM 7.13 44.834 0.234 7.63 13.63 11.3
12/5/2020 9:30:00 PM 7.12 44.816 0.234 7.62 13.65 11.3
12/5/2020 9:45:00 PM 7.09 44.762 0.234 7.63 21.72 11.3
12/5/2020 10:00:00 PM 7.07 44.726 0.234 7.62 11.07 11.31
12/5/2020 10:15:00 PM 7.07 44.726 0.233 7.61 18.93 11.29
12/5/2020 10:30:00 PM 7.05 44.69 0.233 7.63 11.15 11.28
12/5/2020 10:45:00 PM 7.04 44.672 0.233 7.65 14.03 11.27
12/5/2020 11:00:00 PM 7.01 44.618 0.233 7.67 15.85 11.28
12/5/2020 11:15:00 PM 6.97 44.546 0.234 7.66 19.72 11.28
12/5/2020 11:30:00 PM 6.92 44.456 0.234 7.65 11.52 11.28
12/5/2020 11:45:00 PM 6.87 44.366 0.234 7.64 9.21 11.29
12/6/2020 12:00:00 AM 6.81 44.258 0.229 7.64 15.67 11.29
12/6/2020 12:15:00 AM 6.78 44.204 0.234 7.64 12.95 11.3
12/6/2020 12:30:00 AM 6.74 44.132 0.234 7.63 10.42 11.3
12/6/2020 12:45:00 AM 6.73 44.114 0.222 7.62 14.12 11.29
12/6/2020 1:00:00 AM 6.72 44.096 0.226 7.63 20.43 11.29
12/6/2020 1:15:00 AM 6.71 44.078 0.234 7.62 14.49 11.28
12/6/2020 1:30:00 AM 6.72 44.096 0.223 7.61 10.8 11.29
12/6/2020 1:45:00 AM 6.68 44.024 0.22 7.62 10.42 11.29
12/6/2020 2:00:00 AM 6.63 43.934 0.233 7.61 9.98 11.29
12/6/2020 2:15:00 AM 6.59 43.862 0.235 7.63 13.92 11.32
12/6/2020 2:30:00 AM 6.55 43.79 0.234 7.62 12.27 11.32
12/6/2020 2:45:00 AM 6.51 43.718 0.234 7.62 40.18 11.33
12/6/2020 3:00:00 AM 6.49 43.682 0.234 7.59 16.14 11.32
12/6/2020 3:15:00 AM 6.45 43.61 0.234 7.58 21.16 11.33
12/6/2020 3:30:00 AM 6.43 43.574 0.234 7.59 19.19 11.32
12/6/2020 3:45:00 AM 6.41 43.538 0.235 7.56 9.98 11.33
12/6/2020 4:00:00 AM 6.37 43.466 0.235 7.56 18.02 11.35
12/6/2020 4:15:00 AM 6.33 43.394 0.235 7.57 11.11 11.34
12/6/2020 4:30:00 AM 6.28 43.304 0.235 7.56 8.17 11.38
12/6/2020 4:45:00 AM 6.25 43.25 0.235 7.55 18.01 11.39
12/6/2020 5:00:00 AM 6.22 43.196 0.235 7.53 13.13 11.4
12/6/2020 5:15:00 AM 6.18 43.124 0.235 7.52 15.08 11.4
12/6/2020 5:30:00 AM 6.16 43.088 0.235 7.52 10.05 11.41
12/6/2020 5:45:00 AM 6.15 43.07 0.235 7.52 13.23 11.4
12/6/2020 6:00:00 AM 6.15 43.07 0.235 7.53 18.42 11.41
12/6/2020 6:15:00 AM 6.16 43.088 0.235 7.51 13.48 11.4
12/6/2020 6:30:00 AM 6.14 43.052 0.236 7.51 11.08 11.43
12/6/2020 6:45:00 AM 6.11 42.998 0.236 7.51 14.63 11.43
12/6/2020 7:00:00 AM 6.08 42.944 0.236 7.53 14.4 11.43
12/6/2020 7:15:00 AM 6.04 42.872 0.236 7.53 8.75 11.45
12/6/2020 7:30:00 AM 6 42.8 0.236 7.54 10.58 11.47
12/6/2020 7:45:00 AM 6.01 42.818 0.236 7.53 8.04 11.49
12/6/2020 8:00:00 AM 5.98 42.764 0.236 7.52 10.32 11.57
12/6/2020 8:15:00 AM 5.98 42.764 0.236 7.54 13.45 11.61
12/6/2020 8:30:00 AM 5.98 42.764 0.236 7.54 10.79 11.7
12/6/2020 8:45:00 AM 5.99 42.782 0.237 7.55 6.85 11.82
12/6/2020 9:00:00 AM 6.01 42.818 0.236 7.57 10.59 11.96
12/6/2020 9:15:00 AM 6.04 42.872 0.237 7.57 8.31 12.1
12/6/2020 9:30:00 AM 6.12 43.016 0.236 7.6 7.59 12.22
12/6/2020 9:45:00 AM 6.17 43.106 0.235 7.65 6.74 12.35
12/6/2020 10:00:00 AM 6.2 43.16 0.228 7.65 14.04 12.47
12/6/2020 10:15:00 AM 6.23 43.214 0.229 7.67 21.76 12.54
12/6/2020 10:30:00 AM 6.32 43.376 0.22 7.67 7.66 12.6
12/6/2020 10:45:00 AM 6.35 43.43 0.22 7.68 13.45 12.63
12/6/2020 11:00:00 AM 6.33 43.394 0.22 7.66 6.22 12.7
12/6/2020 11:15:00 AM 6.41 43.538 0.222 7.65 13.99 12.76
12/6/2020 11:30:00 AM 6.47 43.646 0.222 7.69 7.98 12.84
12/6/2020 11:45:00 AM 6.52 43.736 0.222 7.71 8.66 12.88
12/6/2020 12:00:00 PM 6.62 43.916 0.222 7.72 8.67 12.95
12/6/2020 12:15:00 PM 6.72 44.096 0.223 7.73 10.88 12.99
12/6/2020 12:30:00 PM 6.83 44.294 0.222 7.73 39.99 13.01
12/6/2020 12:45:00 PM 6.87 44.366 0.221 7.74 6.66 13.03
12/6/2020 1:00:00 PM 6.95 44.51 0.221 7.73 6.09 13.01
12/6/2020 1:15:00 PM 6.96 44.528 0.221 7.74 13.71 13.03
12/6/2020 1:30:00 PM 6.95 44.51 0.221 7.76 8.8 13.04
12/6/2020 1:45:00 PM 6.98 44.564 0.221 7.81 5.02 13.05
12/6/2020 2:00:00 PM 6.98 44.564 0.221 7.82 5.65 13.06
12/6/2020 2:15:00 PM 6.94 44.492 0.22 7.84 5.29 13.03
12/6/2020 2:30:00 PM 6.93 44.474 0.221 7.85 6.98 13.03
12/6/2020 2:45:00 PM 6.91 44.438 0.221 7.76 6.62 12.98
12/6/2020 3:00:00 PM 6.87 44.366 0.22 7.85 6.41 12.9
12/6/2020 3:15:00 PM 6.85 44.33 0.221 7.85 5.7 12.84
12/6/2020 3:30:00 PM 6.81 44.258 0.219 7.84 7.9 12.76
12/6/2020 3:45:00 PM 6.74 44.132 0.221 7.87 7.23 12.67
12/6/2020 4:00:00 PM 6.67 44.006 0.222 7.89 5.76 12.56
12/6/2020 4:15:00 PM 6.6 43.88 0.233 7.9 7.68 12.47
12/6/2020 4:30:00 PM 6.55 43.79 0.235 7.91 26.43 12.37
12/6/2020 4:45:00 PM 6.49 43.682 0.238 7.9 7.67 12.28
12/6/2020 5:00:00 PM 6.42 43.556 0.217 7.9 8.91 12.19
12/6/2020 5:15:00 PM 6.35 43.43 0.221 7.87 10.78 12.12
12/6/2020 5:30:00 PM 6.32 43.376 0.217 7.87 5.04 12.06
12/6/2020 5:45:00 PM 6.28 43.304 0.238 7.88 6.29 11.99
12/6/2020 6:00:00 PM 6.21 43.178 0.224 7.87 5.44 11.94
12/6/2020 6:15:00 PM 6.16 43.088 0.236 7.88 27.51 11.9
12/6/2020 6:30:00 PM 6.11 42.998 0.236 7.87 6.14 11.86
12/6/2020 6:45:00 PM 6.04 42.872 0.239 7.8 6.22 11.87
12/6/2020 7:00:00 PM 6 42.8 0.24 7.77 5.85 11.84
12/6/2020 7:15:00 PM 5.94 42.692 0.24 7.71 34.62 11.85
12/6/2020 7:30:00 PM 5.91 42.638 0.241 7.72 6.16 11.83
12/6/2020 7:45:00 PM 5.85 42.53 0.24 7.64 7.64 11.83
12/6/2020 8:00:00 PM 5.82 42.476 0.24 7.6 6.19 11.82
12/6/2020 8:15:00 PM 5.78 42.404 0.24 7.58 6.66 11.8
12/6/2020 8:30:00 PM 5.74 42.332 0.24 7.63 6.7 11.8
12/6/2020 8:45:00 PM 5.71 42.278 0.241 7.68 6.65 11.82
12/6/2020 9:00:00 PM 5.67 42.206 0.242 7.72 5.67 11.82
12/6/2020 9:15:00 PM 5.63 42.134 0.242 7.76 6.91 11.82
12/6/2020 9:30:00 PM 5.59 42.062 0.243 7.78 5.43 11.8
12/6/2020 9:45:00 PM 5.54 41.972 0.243 7.79 7.49 11.82
12/6/2020 10:00:00 PM 5.54 41.972 0.243 7.78 6.79 11.83
12/6/2020 10:15:00 PM 5.52 41.936 0.243 7.76 17.71 11.82
12/6/2020 10:30:00 PM 5.5 41.9 0.243 7.75 7.44 11.81
12/6/2020 10:45:00 PM 5.48 41.864 0.243 7.79 10.76 11.8
12/6/2020 11:00:00 PM 5.46 41.828 0.243 7.8 38.89 11.8
12/6/2020 11:15:00 PM 5.43 41.774 0.244 7.81 8.18 11.82
12/6/2020 11:30:00 PM 5.41 41.738 0.244 7.82 20.67 11.82
12/6/2020 11:45:00 PM 5.39 41.702 0.245 7.82 6.39 11.84
12/7/2020 12:00:00 AM 5.34 41.612 0.245 7.81 9.35 11.83
12/7/2020 12:15:00 AM 5.31 41.558 0.244 7.82 10.1 11.83
12/7/2020 12:30:00 AM 5.26 41.468 0.244 7.82 30.54 11.85
12/7/2020 12:45:00 AM 5.26 41.468 0.244 7.81 9.51 11.85
12/7/2020 1:00:00 AM 5.25 41.45 0.243 7.8 7.08 11.84
12/7/2020 1:15:00 AM 5.21 41.378 0.243 7.82 6.27 11.84
12/7/2020 1:30:00 AM 5.17 41.306 0.244 7.83 7.91 11.86
12/7/2020 1:45:00 AM 5.14 41.252 0.245 7.83 7.77 11.86
12/7/2020 2:00:00 AM 5.07 41.126 0.245 7.82 7.81 11.88
12/7/2020 2:15:00 AM 5.05 41.09 0.245 7.82 17.29 11.86
12/7/2020 2:30:00 AM 5 41 0.245 7.78 8.95 11.91
12/7/2020 2:45:00 AM 5.01 41.018 0.246 7.79 6.26 11.89
12/7/2020 3:00:00 AM 4.95 40.91 0.245 7.79 6.23 11.91
12/7/2020 3:15:00 AM 4.91 40.838 0.245 7.75 6.05 11.93
12/7/2020 3:30:00 AM 4.91 40.838 0.245 7.76 17.93 11.91
12/7/2020 3:45:00 AM 4.9 40.82 0.244 7.77 7.25 11.89
12/7/2020 4:00:00 AM 4.83 40.694 0.245 7.74 15.89 11.93
12/7/2020 4:15:00 AM 4.82 40.676 0.246 7.77 7.93 11.94
12/7/2020 4:30:00 AM 4.78 40.604 0.246 7.77 33.1 11.94
12/7/2020 4:45:00 AM 4.75 40.55 0.246 7.76 51.92 11.95
12/7/2020 5:00:00 AM 4.73 40.514 0.246 7.75 7.13 11.96
12/7/2020 5:15:00 AM 4.67 40.406 0.246 7.75 6.22 11.95
12/7/2020 5:30:00 AM 4.64 40.352 0.245 7.76 6.73 11.96
12/7/2020 5:45:00 AM 4.63 40.334 0.245 7.77 8.72 11.96
12/7/2020 6:00:00 AM 4.63 40.334 0.245 7.76 8.29 11.95
12/7/2020 6:15:00 AM 4.63 40.334 0.245 7.74 6.65 11.96
12/7/2020 6:30:00 AM 4.58 40.244 0.245 7.73 5.23 11.99
12/7/2020 6:45:00 AM 4.52 40.136 0.246 7.71 6.41 12.01
12/7/2020 7:00:00 AM 4.51 40.118 0.246 7.7 7.5 12.02
12/7/2020 7:15:00 AM 4.49 40.082 0.245 7.71 13.26 12.04
12/7/2020 7:30:00 AM 4.5 40.1 0.245 7.7 44.73 12.04
12/7/2020 7:45:00 AM 4.55 40.19 0.245 7.72 12.7 12.08
12/7/2020 8:00:00 AM 4.56 40.208 0.244 7.66 6.1 12.12
12/7/2020 8:15:00 AM 4.53 40.154 0.244 7.71 15.38 12.19
12/7/2020 8:30:00 AM 4.57 40.226 0.244 7.71 23.71 12.29
12/7/2020 8:45:00 AM 4.61 40.298 0.244 7.72 4.69 12.41
12/7/2020 9:00:00 AM 4.66 40.388 0.245 7.72 21.18 12.56
12/7/2020 9:15:00 AM 4.66 40.388 0.245 7.73 11.31 12.68
12/7/2020 9:30:00 AM 4.73 40.514 0.244 7.73 9.14 12.77
12/7/2020 9:45:00 AM 4.74 40.532 0.243 7.74 5.08 12.9
12/7/2020 10:00:00 AM 4.83 40.694 0.243 7.76 17.74 13.02
12/7/2020 10:15:00 AM 4.9 40.82 0.243 7.77 6.01 13.12
12/7/2020 10:30:00 AM 4.95 40.91 0.242 7.78 5.14 13.21
12/7/2020 10:45:00 AM 5.04 41.072 0.243 7.8 6.45 13.26
12/7/2020 11:00:00 AM 5.15 41.27 0.243 7.83 8.42 13.31
12/7/2020 11:15:00 AM 5.23 41.414 0.243 7.84 4.74 13.35
12/7/2020 11:30:00 AM 5.23 41.414 0.243 7.85 59.34 13.4
12/7/2020 11:45:00 AM 5.26 41.468 0.243 7.85 6.79 13.45
12/7/2020 12:00:00 PM 5.33 41.594 0.243 7.86 7.28 13.47
12/7/2020 12:15:00 PM 5.38 41.684 0.242 7.86 5.09 13.49
12/7/2020 12:30:00 PM 5.48 41.864 0.242 7.86 9.59 13.48
12/7/2020 12:45:00 PM 5.48 41.864 0.242 7.88 17.6 13.5
12/7/2020 1:00:00 PM 5.58 42.044 0.242 7.88 6.04 13.49
12/7/2020 1:15:00 PM 5.65 42.17 0.242 7.88 7.29 13.46
12/7/2020 1:30:00 PM 5.62 42.116 0.242 7.88 4.99 13.46
12/7/2020 1:45:00 PM 5.62 42.116 0.243 7.88 4.46 13.48
12/7/2020 2:00:00 PM 5.6 42.08 0.243 7.9 5.16 13.45
12/7/2020 2:15:00 PM 5.61 42.098 0.243 7.9 7.95 13.44
12/7/2020 2:30:00 PM 5.59 42.062 0.242 7.9 4.68 13.42
12/7/2020 2:45:00 PM 5.58 42.044 0.242 7.9 5.47 13.38
12/7/2020 3:00:00 PM 5.55 41.99 0.242 7.92 4.57 13.32
12/7/2020 3:15:00 PM 5.51 41.918 0.242 7.92 4.8 13.28
12/7/2020 3:30:00 PM 5.46 41.828 0.242 7.91 4.35 13.14
12/7/2020 3:45:00 PM 5.47 41.846 0.242 7.9 4.2 13.07
12/7/2020 4:00:00 PM 5.39 41.702 0.243 7.88 4.39 12.96
12/7/2020 4:15:00 PM 5.33 41.594 0.244 7.89 4.43 12.89
12/7/2020 4:30:00 PM 5.29 41.522 0.244 7.87 4.59 12.82
12/7/2020 4:45:00 PM 5.2 41.36 0.244 7.85 6.73 12.73
12/7/2020 5:00:00 PM 5.19 41.342 0.244 7.84 5.27 12.64
12/7/2020 5:15:00 PM 5.13 41.234 0.244 7.82 4.44 12.56
12/7/2020 5:30:00 PM 5.14 41.252 0.244 7.8 4.76 12.48
12/7/2020 5:45:00 PM 5.08 41.144 0.243 7.8 5.2 12.42
12/7/2020 6:00:00 PM 5.06 41.108 0.243 7.79 4.54 12.35
12/7/2020 6:15:00 PM 5.01 41.018 0.243 7.78 5.18 12.31
12/7/2020 6:30:00 PM 5.02 41.036 0.245 7.76 6.81 12.26
12/7/2020 6:45:00 PM 4.92 40.856 0.245 7.73 6.69 12.26
12/7/2020 7:00:00 PM 4.88 40.784 0.245 7.73 5.13 12.25
12/7/2020 7:15:00 PM 4.83 40.694 0.245 7.71 5.7 12.23
12/7/2020 7:30:00 PM 4.78 40.604 0.245 7.69 4.72 12.23
12/7/2020 7:45:00 PM 4.76 40.568 0.244 7.69 5.87 12.22
12/7/2020 8:00:00 PM 4.72 40.496 0.245 7.68 5.17 12.22
12/7/2020 8:15:00 PM 4.69 40.442 0.244 7.67 5.24 12.19
12/7/2020 8:30:00 PM 4.66 40.388 0.244 7.66 4.63 12.2
12/7/2020 8:45:00 PM 4.66 40.388 0.245 7.65 4.64 12.18
12/7/2020 9:00:00 PM 4.63 40.334 0.246 7.65 5.46 12.2
12/7/2020 9:15:00 PM 4.58 40.244 0.246 7.63 5.93 12.18
12/7/2020 9:30:00 PM 4.5 40.1 0.246 7.62 4.32 12.22
12/7/2020 9:45:00 PM 4.46 40.028 0.245 7.63 4.84 12.22
12/7/2020 10:00:00 PM 4.48 40.064 0.245 7.62 7.5 12.21
12/7/2020 10:15:00 PM 4.48 40.064 0.245 7.63 5.31 12.19
12/7/2020 10:30:00 PM 4.45 40.01 0.245 7.64 9.67 12.17
12/7/2020 10:45:00 PM 4.51 40.118 0.245 7.62 5.05 12.16
12/7/2020 11:00:00 PM 4.52 40.136 0.244 7.64 5.28 12.15
12/7/2020 11:15:00 PM 4.46 40.028 0.246 7.62 5.83 12.16
12/7/2020 11:30:00 PM 4.45 40.01 0.247 7.62 5.12 12.17
12/7/2020 11:45:00 PM 4.45 40.01 0.246 7.6 6.3 12.16
12/8/2020 12:00:00 AM 4.42 39.956 0.247 7.61 4.91 12.17
12/8/2020 12:15:00 AM 4.39 39.902 0.247 7.59 6.03 12.17
12/8/2020 12:30:00 AM 4.4 39.92 0.247 7.6 6.08 12.17
12/8/2020 12:45:00 AM 4.39 39.902 0.247 7.6 4.94 12.16
12/8/2020 1:00:00 AM 4.35 39.83 0.246 7.61 5.02 12.18
12/8/2020 1:15:00 AM 4.35 39.83 0.246 7.6 5.03 12.17
12/8/2020 1:30:00 AM 4.37 39.866 0.246 7.61 5.58 12.15
12/8/2020 1:45:00 AM 4.33 39.794 0.247 7.6 6.48 12.16
12/8/2020 2:00:00 AM 4.33 39.794 0.248 7.59 5.46 12.2
12/8/2020 2:15:00 AM 4.33 39.794 0.248 7.59 13.94 12.17
12/8/2020 2:30:00 AM 4.29 39.722 0.248 7.6 6.5 12.19
12/8/2020 2:45:00 AM 4.28 39.704 0.248 7.59 5.61 12.19
12/8/2020 3:00:00 AM 4.25 39.65 0.248 7.59 6.54 12.2
12/8/2020 3:15:00 AM 4.24 39.632 0.248 7.59 4.7 12.2
12/8/2020 3:30:00 AM 4.26 39.668 0.248 7.6 6.76 12.19
12/8/2020 3:45:00 AM 4.29 39.722 0.248 7.59 5.85 12.18
12/8/2020 4:00:00 AM 4.26 39.668 0.248 7.56 5.91 12.18
12/8/2020 4:15:00 AM 4.21 39.578 0.249 7.54 5.7 12.2
12/8/2020 4:30:00 AM 4.25 39.65 0.249 7.53 6.76 12.2
12/8/2020 4:45:00 AM 4.24 39.632 0.249 7.51 6.75 12.19
12/8/2020 5:00:00 AM 4.24 39.632 0.249 7.53 6.35 12.2
12/8/2020 5:15:00 AM 4.21 39.578 0.249 7.52 4.77 12.2
12/8/2020 5:30:00 AM 4.23 39.614 0.249 7.53 5.42 12.2
12/8/2020 5:45:00 AM 4.21 39.578 0.249 7.48 5.14 12.2
12/8/2020 6:00:00 AM 4.23 39.614 0.248 7.52 7.15 12.17
12/8/2020 6:15:00 AM 4.19 39.542 0.248 7.5 5.1 12.19
12/8/2020 6:30:00 AM 4.2 39.56 0.249 7.51 5.09 12.19
12/8/2020 6:45:00 AM 4.17 39.506 0.249 7.51 5.44 12.2
12/8/2020 7:00:00 AM 4.09 39.362 0.249 7.5 4.94 12.21
12/8/2020 7:15:00 AM 4.06 39.308 0.249 7.51 4.31 12.24
12/8/2020 7:30:00 AM 4.02 39.236 0.249 7.52 4.93 12.25
12/8/2020 7:45:00 AM 4.03 39.254 0.248 7.51 4.13 12.3
12/8/2020 8:00:00 AM 3.97 39.146 0.248 7.51 5.38 12.38
12/8/2020 8:15:00 AM 3.97 39.146 0.247 7.51 5.77 12.44
12/8/2020 8:30:00 AM 4.02 39.236 0.247 7.51 6.41 12.5
12/8/2020 8:45:00 AM 4.02 39.236 0.247 7.52 6.41 12.62
12/8/2020 9:00:00 AM 4.02 39.236 0.248 7.52 5.11 12.76
12/8/2020 9:15:00 AM 4.03 39.254 0.248 7.53 5.4 12.89
12/8/2020 9:30:00 AM 4.09 39.362 0.247 7.54 4.88 13.02
12/8/2020 9:45:00 AM 4.17 39.506 0.247 7.56 4.35 13.15
12/8/2020 10:00:00 AM 4.19 39.542 0.246 7.58 4.62 13.26
12/8/2020 10:15:00 AM 4.21 39.578 0.246 7.6 5.28 13.34
12/8/2020 10:30:00 AM 4.3 39.74 0.245 7.61 5.29 13.39
12/8/2020 10:45:00 AM 4.38 39.884 0.245 7.62 6.64 13.46
12/8/2020 11:00:00 AM 4.46 40.028 0.245 7.64 4.71 13.5
12/8/2020 11:15:00 AM 4.46 40.028 0.246 7.64 4.5 13.57
12/8/2020 11:30:00 AM 4.56 40.208 0.247 7.63 4.57 13.64
12/8/2020 11:45:00 AM 4.64 40.352 0.246 7.63 4.23 13.66
12/8/2020 12:00:00 PM 4.75 40.55 0.246 7.63 4.12 13.69
12/8/2020 12:15:00 PM 4.77 40.586 0.245 7.64 4.56 13.72
12/8/2020 12:30:00 PM 4.87 40.766 0.244 7.65 4.41 13.73
12/8/2020 12:45:00 PM 4.98 40.964 0.244 7.66 4.87 13.72
12/8/2020 1:00:00 PM 5.05 41.09 0.244 7.66 3.96 13.71
12/8/2020 1:15:00 PM 5.1 41.18 0.244 7.67 4.01 13.69
12/8/2020 1:30:00 PM 5.1 41.18 0.245 7.69 3.61 13.67
12/8/2020 1:45:00 PM 5.17 41.306 0.245 7.69 5.17 13.67
12/8/2020 2:00:00 PM 5.16 41.288 0.246 7.69 4.5 13.64
12/8/2020 2:15:00 PM 5.15 41.27 0.246 7.69 3.85 13.64
12/8/2020 2:30:00 PM 5.15 41.27 0.245 7.71 3.82 13.61
12/8/2020 2:45:00 PM 5.17 41.306 0.245 7.7 4.07 13.58
12/8/2020 3:00:00 PM 5.15 41.27 0.244 7.7 4.47 13.54
12/8/2020 3:15:00 PM 5.12 41.216 0.244 7.69 4.4 13.46
12/8/2020 3:30:00 PM 5.07 41.126 0.244 7.69 4.26 13.37
12/8/2020 3:45:00 PM 5.08 41.144 0.244 7.67 5.71 13.25
12/8/2020 4:00:00 PM 5.05 41.09 0.244 7.66 8.1 13.16
12/8/2020 4:15:00 PM 4.98 40.964 0.245 7.66 13.14 13.07
12/8/2020 4:30:00 PM 4.94 40.892 0.245 7.65 5.99 12.98
12/8/2020 4:45:00 PM 4.89 40.802 0.245 7.65 9.21 12.91
12/8/2020 5:00:00 PM 4.85 40.73 0.245 7.61 4.92 12.83
12/8/2020 5:15:00 PM 4.83 40.694 0.245 7.61 9.37 12.75
12/8/2020 5:30:00 PM 4.81 40.658 0.245 7.6 8.57 12.67
12/8/2020 5:45:00 PM 4.78 40.604 0.245 7.6 5.43 12.61
12/8/2020 6:00:00 PM 4.76 40.568 0.244 7.59 5.39 12.54
12/8/2020 6:15:00 PM 4.7 40.46 0.244 7.56 5.82 12.49
12/8/2020 6:30:00 PM 4.71 40.478 0.246 7.56 4.69 12.46
12/8/2020 6:45:00 PM 4.63 40.334 0.246 7.55 10.05 12.47
12/8/2020 7:00:00 PM 4.58 40.244 0.247 7.55 21.84 12.45
12/8/2020 7:15:00 PM 4.53 40.154 0.246 7.54 19.77 12.44
12/8/2020 7:30:00 PM 4.49 40.082 0.246 7.53 8.16 12.42
12/8/2020 7:45:00 PM 4.43 39.974 0.245 7.53 4.54 12.43
12/8/2020 8:00:00 PM 4.45 40.01 0.246 7.53 8.64 12.39
12/8/2020 8:15:00 PM 4.44 39.992 0.245 7.54 6.53 12.38
12/8/2020 8:30:00 PM 4.4 39.92 0.245 7.53 6.42 12.35
12/8/2020 8:45:00 PM 4.39 39.902 0.245 7.51 5.29 12.36
12/8/2020 9:00:00 PM 4.36 39.848 0.247 7.51 36.81 12.35
12/8/2020 9:15:00 PM 4.34 39.812 0.247 7.51 4.62 12.36
12/8/2020 9:30:00 PM 4.29 39.722 0.247 7.5 4.35 12.38
12/8/2020 9:45:00 PM 4.29 39.722 0.247 7.53 31.87 12.36
12/8/2020 10:00:00 PM 4.26 39.668 0.246 7.5 5.76 12.37
12/8/2020 10:15:00 PM 4.24 39.632 0.246 7.49 11.22 12.37
12/8/2020 10:30:00 PM 4.24 39.632 0.246 7.49 6.21 12.37
12/8/2020 10:45:00 PM 4.26 39.668 0.246 7.49 6.1 12.34
12/8/2020 11:00:00 PM 4.28 39.704 0.246 7.49 6.55 12.32
12/8/2020 11:15:00 PM 4.28 39.704 0.246 7.49 34.27 12.32
12/8/2020 11:30:00 PM 4.25 39.65 0.248 7.49 5.65 12.33
12/8/2020 11:45:00 PM 4.2 39.56 0.248 7.5 19.78 12.32
12/9/2020 12:00:00 AM 4.26 39.668 0.248 7.48 5.62 12.3
12/9/2020 12:15:00 AM 4.18 39.524 0.247 7.48 8.01 12.34
12/9/2020 12:30:00 AM 4.16 39.488 0.247 7.47 6.28 12.33
12/9/2020 12:45:00 AM 4.19 39.542 0.246 7.5 12.74 12.3
12/9/2020 1:00:00 AM 4.16 39.488 0.246 7.48 14.84 12.32
12/9/2020 1:15:00 AM 4.21 39.578 0.246 7.47 6.65 12.3
12/9/2020 1:30:00 AM 4.22 39.596 0.246 7.47 5.46 12.29
12/9/2020 1:45:00 AM 4.16 39.488 0.247 7.47 5.75 12.31
12/9/2020 2:00:00 AM 4.14 39.452 0.248 7.46 6.12 12.32
12/9/2020 2:15:00 AM 4.09 39.362 0.248 7.46 5.73 12.33
12/9/2020 2:30:00 AM 4.06 39.308 0.248 7.46 12.58 12.33
12/9/2020 2:45:00 AM 4.03 39.254 0.248 7.46 12.12 12.36
12/9/2020 3:00:00 AM 4.01 39.218 0.248 7.46 5.78 12.34
12/9/2020 3:15:00 AM 4.04 39.272 0.247 7.47 6.46 12.34
12/9/2020 3:30:00 AM 4.06 39.308 0.247 7.45 4.46 12.34
12/9/2020 3:45:00 AM 4.03 39.254 0.247 7.45 4.59 12.33
12/9/2020 4:00:00 AM 4.03 39.254 0.247 7.46 10.82 12.32
12/9/2020 4:15:00 AM 4.04 39.272 0.248 7.5 19.56 12.34
12/9/2020 4:30:00 AM 4.05 39.29 0.248 7.51 7.33 12.33
12/9/2020 4:45:00 AM 4 39.2 0.249 7.52 5.5 12.33
12/9/2020 5:00:00 AM 3.97 39.146 0.249 7.53 12.15 12.35
12/9/2020 5:15:00 AM 4 39.2 0.248 7.57 19.28 12.35
12/9/2020 5:30:00 AM 3.94 39.092 0.248 7.55 8.17 12.36
12/9/2020 5:45:00 AM 3.99 39.182 0.247 7.54 7.18 12.34
12/9/2020 6:00:00 AM 4.03 39.254 0.247 7.53 7.28 12.33
12/9/2020 6:15:00 AM 4.06 39.308 0.247 7.54 5.45 12.3
12/9/2020 6:30:00 AM 4.06 39.308 0.248 7.54 4.82 12.32
12/9/2020 6:45:00 AM 4 39.2 0.249 7.53 4.36 12.34
12/9/2020 7:00:00 AM 3.99 39.182 0.249 7.52 5.53 12.34
12/9/2020 7:15:00 AM 4.02 39.236 0.249 7.53 4.73 12.34
12/9/2020 7:30:00 AM 4.02 39.236 0.248 7.52 4.56 12.35
12/9/2020 7:45:00 AM 4 39.2 0.247 7.53 4.23 12.38
12/9/2020 8:00:00 AM 3.98 39.164 0.247 7.53 4.56 12.42
12/9/2020 8:15:00 AM 4.06 39.308 0.247 7.55 4.75 12.48
12/9/2020 8:30:00 AM 4.08 39.344 0.247 7.55 4.55 12.56
12/9/2020 8:45:00 AM 4.09 39.362 0.247 7.57 4.32 12.67
12/9/2020 9:00:00 AM 4.09 39.362 0.247 7.54 5 12.78
12/9/2020 9:15:00 AM 4.13 39.434 0.247 7.56 4.57 12.87
12/9/2020 9:30:00 AM 4.19 39.542 0.248 7.6 4.39 12.94
12/9/2020 9:45:00 AM 4.17 39.506 0.247 7.9 3.5 13.01
12/9/2020 10:00:00 AM 4.23 39.614 0.247 10.59 4.21 13.04
12/9/2020 10:15:00 AM 4.24 39.632 0.246 9.49 4.01 13.09
12/9/2020 10:30:00 AM 4.26 39.668 0.246 8.69 4.63 13.1
12/9/2020 10:45:00 AM 4.26 39.668 0.246 8.24 3.68 13.17
12/9/2020 11:00:00 AM 4.33 39.794 0.246 8.22 5.05 13.27
12/9/2020 11:15:00 AM 4.36 39.848 0.246 8.08 3.83 13.4
12/9/2020 11:30:00 AM 4.33 39.794 0.247 8.02 4.83 13.46
12/9/2020 11:45:00 AM 4.37 39.866 0.247 7.99 7.11 13.54
12/9/2020 12:00:00 PM 4.46 40.028 0.246 7.97 5.37 13.63
12/9/2020 12:15:00 PM 4.48 40.064 0.246 7.94 4.55 13.64
12/9/2020 12:30:00 PM 4.51 40.118 0.245 7.92 4.83 13.65
12/9/2020 12:45:00 PM 4.58 40.244 0.245 7.91 5.08 13.67
12/9/2020 1:00:00 PM 4.62 40.316 0.245 7.9 4.63 13.69
12/9/2020 1:15:00 PM 4.63 40.334 0.245 7.89 4.62 13.68
12/9/2020 1:30:00 PM 4.73 40.514 0.245 7.89 5.14 13.7
12/9/2020 1:45:00 PM 4.69 40.442 0.246 7.89 5.52 13.72
12/9/2020 2:00:00 PM 4.84 40.712 0.246 7.89 5.98 13.78
12/9/2020 2:15:00 PM 4.85 40.73 0.246 7.9 4.87 13.82
12/9/2020 2:30:00 PM 4.97 40.946 0.245 7.89 4.57 13.86
12/9/2020 2:45:00 PM 5.01 41.018 0.245 7.89 6.49 13.88
12/9/2020 3:00:00 PM 5.04 41.072 0.245 7.89 5.4 13.88
12/9/2020 3:15:00 PM 5 41 0.244 7.88 5.19 13.82
12/9/2020 3:30:00 PM 5.06 41.108 0.244 7.86 5.41 13.68
12/9/2020 3:45:00 PM 5.1 41.18 0.244 7.87 4.84 13.53
12/9/2020 4:00:00 PM 5.06 41.108 0.245 7.84 5.95 13.4
12/9/2020 4:15:00 PM 5.02 41.036 0.246 7.84 6.6 13.28
12/9/2020 4:30:00 PM 5.03 41.054 0.246 7.82 7.17 13.16
12/9/2020 4:45:00 PM 5.01 41.018 0.246 7.81 5.37 13.05
12/9/2020 5:00:00 PM 4.97 40.946 0.246 7.79 5.03 12.94
12/9/2020 5:15:00 PM 4.92 40.856 0.246 7.78 5.55 12.84
12/9/2020 5:30:00 PM 4.91 40.838 0.245 7.76 5.08 12.74
12/9/2020 5:45:00 PM 4.94 40.892 0.245 7.75 6.29 12.63
12/9/2020 6:00:00 PM 4.91 40.838 0.245 7.73 5.39 12.57
12/9/2020 6:15:00 PM 4.94 40.892 0.245 7.71 4.87 12.51
12/9/2020 6:30:00 PM 4.92 40.856 0.246 7.69 4.54 12.45
12/9/2020 6:45:00 PM 4.91 40.838 0.247 7.69 4.53 12.41
12/9/2020 7:00:00 PM 4.87 40.766 0.247 7.67 4.51 12.4
12/9/2020 7:15:00 PM 4.78 40.604 0.247 7.7 4.97 12.4
12/9/2020 7:30:00 PM 4.81 40.658 0.247 7.67 4.94 12.36
12/9/2020 7:45:00 PM 4.77 40.586 0.246 7.68 4.78 12.35
12/9/2020 8:00:00 PM 4.73 40.514 0.246 7.7 5.04 12.34
12/9/2020 8:15:00 PM 4.75 40.55 0.245 7.7 5.4 12.32
12/9/2020 8:30:00 PM 4.76 40.568 0.245 7.68 4.67 12.29
12/9/2020 8:45:00 PM 4.8 40.64 0.246 7.67 4.86 12.26
12/9/2020 9:00:00 PM 4.74 40.532 0.247 7.68 5.01 12.26
12/9/2020 9:15:00 PM 4.75 40.55 0.247 7.69 4.15 12.27
12/9/2020 9:30:00 PM 4.7 40.46 0.247 7.68 5.11 12.25
12/9/2020 9:45:00 PM 4.72 40.496 0.247 7.66 4.32 12.26
12/9/2020 10:00:00 PM 4.72 40.496 0.247 7.68 4.4 12.26
12/9/2020 10:15:00 PM 4.7 40.46 0.246 7.67 4.65 12.26
12/9/2020 10:30:00 PM 4.7 40.46 0.245 7.65 4.33 12.24
12/9/2020 10:45:00 PM 4.74 40.532 0.245 7.66 5.52 12.22
12/9/2020 11:00:00 PM 4.74 40.532 0.245 7.66 5.05 12.21
12/9/2020 11:15:00 PM 4.76 40.568 0.246 7.65 5.03 12.18
12/9/2020 11:30:00 PM 4.75 40.55 0.247 7.62 4.74 12.2
12/9/2020 11:45:00 PM 4.76 40.568 0.247 7.63 5.13 12.2
12/10/2020 12:00:00 AM 4.73 40.514 0.247 7.62 4.32 12.2
12/10/2020 12:15:00 AM 4.71 40.478 0.247 7.62 6.29 12.2
12/10/2020 12:30:00 AM 4.73 40.514 0.246 7.59 4.28 12.18
12/10/2020 12:45:00 AM 4.73 40.514 0.246 7.6 4.31 12.2
12/10/2020 1:00:00 AM 4.8 40.64 0.246 7.6 5.69 12.16
12/10/2020 1:15:00 AM 4.79 40.622 0.246 7.58 3.77 12.16
12/10/2020 1:30:00 AM 4.79 40.622 0.246 7.59 5.46 12.16
12/10/2020 1:45:00 AM 4.79 40.622 0.247 7.61 4.93 12.15
12/10/2020 2:00:00 AM 4.81 40.658 0.247 7.59 4.49 12.15
12/10/2020 2:15:00 AM 4.78 40.604 0.248 7.59 4.5 12.14
12/10/2020 2:30:00 AM 4.75 40.55 0.248 7.58 3.94 12.14
12/10/2020 2:45:00 AM 4.66 40.388 0.247 7.59 4.44 12.18
12/10/2020 3:00:00 AM 4.59 40.262 0.247 7.61 4.7 12.19
12/10/2020 3:15:00 AM 4.56 40.208 0.247 7.64 4.48 12.17
12/10/2020 3:30:00 AM 4.57 40.226 0.247 7.62 4.48 12.17
12/10/2020 3:45:00 AM 4.54 40.172 0.247 7.64 5.66 12.16
12/10/2020 4:00:00 AM 4.52 40.136 0.247 7.65 5.53 12.16
12/10/2020 4:15:00 AM 4.51 40.118 0.248 7.68 4.71 12.17
12/10/2020 4:30:00 AM 4.48 40.064 0.248 7.66 5.05 12.16
12/10/2020 4:45:00 AM 4.4 39.92 0.249 7.66 5.28 12.2
12/10/2020 5:00:00 AM 4.39 39.902 0.249 7.65 6.45 12.19
12/10/2020 5:15:00 AM 4.33 39.794 0.248 7.64 5.06 12.23
12/10/2020 5:30:00 AM 4.35 39.83 0.248 7.62 4.62 12.22
12/10/2020 5:45:00 AM 4.38 39.884 0.248 7.62 4.38 12.21
12/10/2020 6:00:00 AM 4.4 39.92 0.248 7.63 4.46 12.22
12/10/2020 6:15:00 AM 4.38 39.884 0.247 7.63 5.32 12.2
12/10/2020 6:30:00 AM 4.42 39.956 0.248 7.62 4.65 12.2
12/10/2020 6:45:00 AM 4.38 39.884 0.249 7.62 5.25 12.24
12/10/2020 7:00:00 AM 4.38 39.884 0.249 7.63 5.2 12.22
12/10/2020 7:15:00 AM 4.38 39.884 0.249 7.62 4.65 12.25
12/10/2020 7:30:00 AM 4.41 39.938 0.248 7.63 5 12.26
12/10/2020 7:45:00 AM 4.4 39.92 0.248 7.64 5.36 12.27
12/10/2020 8:00:00 AM 4.39 39.902 0.247 7.64 6.9 12.33
12/10/2020 8:15:00 AM 4.44 39.992 0.247 7.63 5.09 12.38
12/10/2020 8:30:00 AM 4.49 40.082 0.246 7.64 5.35 12.46
12/10/2020 8:45:00 AM 4.51 40.118 0.246 7.64 5.81 12.59
12/10/2020 9:00:00 AM 4.57 40.226 0.247 7.65 5.1 12.7
12/10/2020 9:15:00 AM 4.6 40.28 0.248 7.66 4.83 12.88
12/10/2020 9:30:00 AM 4.64 40.352 0.247 7.66 4.58 13.04
12/10/2020 9:45:00 AM 4.69 40.442 0.247 7.69 4.98 13.19
12/10/2020 10:00:00 AM 4.82 40.676 0.246 7.7 5.69 13.31
12/10/2020 10:15:00 AM 4.88 40.784 0.246 7.71 5.17 13.43
12/10/2020 10:30:00 AM 5.01 41.018 0.245 7.72 4.71 13.53
12/10/2020 10:45:00 AM 5.08 41.144 0.245 7.74 5.38 13.62
12/10/2020 11:00:00 AM 5.19 41.342 0.245 7.76 7.16 13.67
12/10/2020 11:15:00 AM 5.27 41.486 0.245 7.78 4.62 13.71
12/10/2020 11:30:00 AM 5.37 41.666 0.246 7.79 5.26 13.78
12/10/2020 11:45:00 AM 5.46 41.828 0.246 7.8 4.55 13.82
12/10/2020 12:00:00 PM 5.5 41.9 0.246 7.81 4.39 13.85
12/10/2020 12:15:00 PM 5.61 42.098 0.245 7.82 5.19 13.85
12/10/2020 12:30:00 PM 5.7 42.26 0.245 7.83 4.74 13.87
12/10/2020 12:45:00 PM 5.8 42.44 0.245 7.85 5.49 13.86
12/10/2020 1:00:00 PM 5.8 42.44 0.244 7.84 6.33 13.84
12/10/2020 1:15:00 PM 5.88 42.584 0.244 7.85 4.28 13.83
12/10/2020 1:30:00 PM 5.92 42.656 0.244 7.86 4.79 13.81
12/10/2020 1:45:00 PM 5.94 42.692 0.245 7.85 5.57 13.78
12/10/2020 2:00:00 PM 5.95 42.71 0.246 7.87 4.71 13.78
12/10/2020 2:15:00 PM 5.95 42.71 0.246 7.88 5.02 13.74
12/10/2020 2:30:00 PM 5.95 42.71 0.246 7.87 5.22 13.71
12/10/2020 2:45:00 PM 5.94 42.692 0.246 7.87 5.75 13.67
12/10/2020 3:00:00 PM 5.9 42.62 0.245 7.87 5.89 13.64
12/10/2020 3:15:00 PM 5.84 42.512 0.245 7.88 4.6 13.57
12/10/2020 3:30:00 PM 5.82 42.476 0.245 7.86 4.49 13.47
12/10/2020 3:45:00 PM 5.81 42.458 0.244 7.85 5.24 13.34
12/10/2020 4:00:00 PM 5.78 42.404 0.245 7.84 4.79 13.24
12/10/2020 4:15:00 PM 5.75 42.35 0.246 7.84 4.92 13.12
12/10/2020 4:30:00 PM 5.7 42.26 0.246 7.82 5.83 13.02
12/10/2020 4:45:00 PM 5.66 42.188 0.247 7.81 4.22 12.92
12/10/2020 5:00:00 PM 5.59 42.062 0.246 7.81 4.71 12.8
12/10/2020 5:15:00 PM 5.54 41.972 0.246 7.79 5.18 12.71
12/10/2020 5:30:00 PM 5.52 41.936 0.246 7.78 5.83 12.59
12/10/2020 5:45:00 PM 5.46 41.828 0.246 7.76 5.01 12.54
12/10/2020 6:00:00 PM 5.4 41.72 0.246 7.74 4.89 12.48
12/10/2020 6:15:00 PM 5.35 41.63 0.245 7.73 4.56 12.39
12/10/2020 6:30:00 PM 5.32 41.576 0.246 7.71 4.42 12.37
12/10/2020 6:45:00 PM 5.25 41.45 0.247 7.7 4.65 12.33
12/10/2020 7:00:00 PM 5.22 41.396 0.248 7.69 4.55 12.29
12/10/2020 7:15:00 PM 5.14 41.252 0.247 7.67 4.2 12.3
12/10/2020 7:30:00 PM 5.09 41.162 0.247 7.66 4.89 12.27
12/10/2020 7:45:00 PM 5.04 41.072 0.247 7.66 4.59 12.26
12/10/2020 8:00:00 PM 4.99 40.982 0.246 7.65 5.15 12.27
12/10/2020 8:15:00 PM 4.97 40.946 0.246 7.66 4.57 12.25
12/10/2020 8:30:00 PM 4.93 40.874 0.246 7.67 5.12 12.25
12/10/2020 8:45:00 PM 4.89 40.802 0.246 7.66 4.59 12.24
12/10/2020 9:00:00 PM 4.84 40.712 0.247 7.63 5.57 12.24
12/10/2020 9:15:00 PM 4.81 40.658 0.248 7.6 4.74 12.25
12/10/2020 9:30:00 PM 4.78 40.604 0.248 7.59 4.71 12.24
12/10/2020 9:45:00 PM 4.74 40.532 0.248 7.6 6.55 12.25
12/10/2020 10:00:00 PM 4.69 40.442 0.247 7.58 5.79 12.26
12/10/2020 10:15:00 PM 4.69 40.442 0.246 7.58 5.98 12.24
12/10/2020 10:30:00 PM 4.66 40.388 0.246 7.58 5.11 12.24
12/10/2020 10:45:00 PM 4.64 40.352 0.245 7.58 5.72 12.22
12/10/2020 11:00:00 PM 4.65 40.37 0.245 7.59 5.2 12.21
12/10/2020 11:15:00 PM 4.64 40.352 0.246 7.57 5.14 12.21
12/10/2020 11:30:00 PM 4.62 40.316 0.247 7.57 4.53 12.23
12/10/2020 11:45:00 PM 4.63 40.334 0.247 7.57 4.59 12.21
12/11/2020 12:00:00 AM 4.6 40.28 0.247 7.57 5.68 12.22
12/11/2020 12:15:00 AM 4.6 40.28 0.247 7.57 5.35 12.21
12/11/2020 12:30:00 AM 4.58 40.244 0.246 7.59 5.39 12.22
12/11/2020 12:45:00 AM 4.58 40.244 0.246 7.6 6.03 12.19
12/11/2020 1:00:00 AM 4.57 40.226 0.245 7.6 5.97 12.2
12/11/2020 1:15:00 AM 4.6 40.28 0.245 7.61 5.54 12.18
12/11/2020 1:30:00 AM 4.6 40.28 0.245 7.6 4.72 12.17
12/11/2020 1:45:00 AM 4.58 40.244 0.246 7.58 4.63 12.15
12/11/2020 2:00:00 AM 4.56 40.208 0.247 7.6 6.54 12.19
12/11/2020 2:15:00 AM 4.56 40.208 0.248 7.59 5.05 12.18
12/11/2020 2:30:00 AM 4.53 40.154 0.248 7.59 5.06 12.2
12/11/2020 2:45:00 AM 4.48 40.064 0.247 7.58 5.92 12.2
12/11/2020 3:00:00 AM 4.47 40.046 0.247 7.58 7.8 12.2
12/11/2020 3:15:00 AM 4.48 40.064 0.247 7.58 5.4 12.2
12/11/2020 3:30:00 AM 4.48 40.064 0.246 7.57 6.65 12.2
12/11/2020 3:45:00 AM 4.47 40.046 0.246 7.58 8.73 12.18
12/11/2020 4:00:00 AM 4.46 40.028 0.246 7.58 7.25 12.18
12/11/2020 4:15:00 AM 4.44 39.992 0.248 7.59 7.17 12.17
12/11/2020 4:30:00 AM 4.45 40.01 0.248 7.59 5.34 12.18
12/11/2020 4:45:00 AM 4.37 39.866 0.248 7.61 6.19 12.21
12/11/2020 5:00:00 AM 4.36 39.848 0.248 7.58 8.18 12.22
12/11/2020 5:15:00 AM 4.32 39.776 0.248 7.6 6.04 12.23
12/11/2020 5:30:00 AM 4.34 39.812 0.248 7.58 5.37 12.22
12/11/2020 5:45:00 AM 4.31 39.758 0.247 7.63 4.93 12.23
12/11/2020 6:00:00 AM 4.3 39.74 0.247 7.64 4.92 12.22
12/11/2020 6:15:00 AM 4.27 39.686 0.247 7.64 5.45 12.22
12/11/2020 6:30:00 AM 4.29 39.722 0.247 7.66 5.34 12.21
12/11/2020 6:45:00 AM 4.26 39.668 0.249 7.66 9.77 12.24
12/11/2020 7:00:00 AM 4.23 39.614 0.249 7.66 5.81 12.26
12/11/2020 7:15:00 AM 4.22 39.596 0.249 7.66 7.88 12.26
12/11/2020 7:30:00 AM 4.21 39.578 0.248 7.65 5.68 12.29
12/11/2020 7:45:00 AM 4.17 39.506 0.248 7.64 6.42 12.34
12/11/2020 8:00:00 AM 4.22 39.596 0.247 7.65 5.41 12.39
12/11/2020 8:15:00 AM 4.22 39.596 0.247 7.62 5.07 12.5
12/11/2020 8:30:00 AM 4.28 39.704 0.247 7.64 5.78 12.62
12/11/2020 8:45:00 AM 4.34 39.812 0.247 7.64 4.28 12.77
12/11/2020 9:00:00 AM 4.37 39.866 0.247 7.66 4.24 12.93
12/11/2020 9:15:00 AM 4.45 40.01 0.248 7.68 4.74 13.09
12/11/2020 9:30:00 AM 4.53 40.154 0.247 7.68 4.25 13.25
12/11/2020 9:45:00 AM 4.62 40.316 0.247 7.68 5.19 13.36
12/11/2020 10:00:00 AM 4.69 40.442 0.247 7.71 3.99 13.44
12/11/2020 10:15:00 AM 4.8 40.64 0.246 7.74 4.54 13.52
12/11/2020 10:30:00 AM 4.89 40.802 0.246 7.76 3.61 13.6
12/11/2020 10:45:00 AM 4.98 40.964 0.245 7.78 3.88 13.67
12/11/2020 11:00:00 AM 5.14 41.252 0.245 7.79 4.75 13.71
12/11/2020 11:15:00 AM 5.24 41.432 0.245 7.8 4.18 13.75
12/11/2020 11:30:00 AM 5.34 41.612 0.246 7.83 4.81 13.8
12/11/2020 11:45:00 AM 5.45 41.81 0.247 7.83 4.09 13.86
12/11/2020 12:00:00 PM 5.53 41.954 0.246 7.84 4.15 13.91
12/11/2020 12:15:00 PM 5.69 42.242 0.246 7.86 4.57 13.93
12/11/2020 12:30:00 PM 5.77 42.386 0.245 7.87 4.23 13.94
12/11/2020 12:45:00 PM 5.85 42.53 0.245 7.88 3.82 13.96
12/11/2020 1:00:00 PM 5.99 42.782 0.245 7.89 4.47 13.96
12/11/2020 1:15:00 PM 6.03 42.854 0.244 7.91 4.02 13.96
12/11/2020 1:30:00 PM 6.07 42.926 0.244 7.91 5.55 13.93
12/11/2020 1:45:00 PM 6.19 43.142 0.245 7.92 4.3 13.9
12/11/2020 2:00:00 PM 6.25 43.25 0.246 7.93 4.09 13.9
12/11/2020 2:15:00 PM 6.25 43.25 0.246 7.94 5.42 13.9
12/11/2020 2:30:00 PM 6.22 43.196 0.246 7.93 6.52 13.82
12/11/2020 2:45:00 PM 6.26 43.268 0.246 7.95 5.32 13.81
12/11/2020 3:00:00 PM 6.27 43.286 0.245 7.96 4.17 13.77
12/11/2020 3:15:00 PM 6.25 43.25 0.245 7.96 4.49 13.69
12/11/2020 3:30:00 PM 6.27 43.286 0.244 7.96 5.46 13.6
12/11/2020 3:45:00 PM 6.25 43.25 0.244 7.96 6.1 13.44
12/11/2020 4:00:00 PM 6.24 43.232 0.244 7.93 4.11 13.29
12/11/2020 4:15:00 PM 6.2 43.16 0.246 7.92 4.9 13.15
12/11/2020 4:30:00 PM 6.18 43.124 0.246 7.9 4.75 13.02
12/11/2020 4:45:00 PM 6.12 43.016 0.246 7.9 4.85 12.9
12/11/2020 5:00:00 PM 6.09 42.962 0.247 7.89 6.97 12.73
12/11/2020 5:15:00 PM 6.04 42.872 0.246 7.88 5.45 12.6
12/11/2020 5:30:00 PM 5.98 42.764 0.246 7.86 5.03 12.51
12/11/2020 5:45:00 PM 5.93 42.674 0.246 7.84 4.8 12.42
12/11/2020 6:00:00 PM 5.86 42.548 0.246 7.83 5.27 12.36
12/11/2020 6:15:00 PM 5.85 42.53 0.245 7.8 5.1 12.26
12/11/2020 6:30:00 PM 5.8 42.44 0.246 7.79 3.76 12.23
12/11/2020 6:45:00 PM 5.74 42.332 0.247 7.81 3.97 12.19
12/11/2020 7:00:00 PM 5.67 42.206 0.248 7.79 4.03 12.17
12/11/2020 7:15:00 PM 5.64 42.152 0.248 7.78 4.41 12.13
12/11/2020 7:30:00 PM 5.57 42.026 0.248 7.79 4.13 12.11
12/11/2020 7:45:00 PM 5.54 41.972 0.247 7.79 5.32 12.09
12/11/2020 8:00:00 PM 5.48 41.864 0.247 7.79 4.18 12.09
12/11/2020 8:15:00 PM 5.47 41.846 0.247 7.8 5.43 12.07
12/11/2020 8:30:00 PM 5.43 41.774 0.246 7.81 4.22 12.06
12/11/2020 8:45:00 PM 5.38 41.684 0.246 7.8 4.73 12.05
12/11/2020 9:00:00 PM 5.31 41.558 0.247 7.84 4.33 12.06
12/11/2020 9:15:00 PM 5.31 41.558 0.248 7.86 5.26 12.05
12/11/2020 9:30:00 PM 5.28 41.504 0.248 7.83 4.12 12.05
12/11/2020 9:45:00 PM 5.23 41.414 0.248 7.84 5.2 12.05
12/11/2020 10:00:00 PM 5.2 41.36 0.248 7.83 4.33 12.03
12/11/2020 10:15:00 PM 5.19 41.342 0.248 7.83 4.23 12.05
12/11/2020 10:30:00 PM 5.15 41.27 0.247 7.85 4.11 12.04
12/11/2020 10:45:00 PM 5.14 41.252 0.247 7.85 4.4 12.03
12/11/2020 11:00:00 PM 5.15 41.27 0.246 7.85 5.16 11.99
12/11/2020 11:15:00 PM 5.11 41.198 0.246 7.88 4.09 11.99
12/11/2020 11:30:00 PM 5.11 41.198 0.247 7.9 4.12 11.98
12/11/2020 11:45:00 PM 5.09 41.162 0.248 7.9 5.2 11.98
12/12/2020 12:00:00 AM 5.09 41.162 0.248 7.89 4.93 11.98
12/12/2020 12:15:00 AM 5.11 41.198 0.248 7.91 6.82 11.98
12/12/2020 12:30:00 AM 5.07 41.126 0.247 7.91 5.17 11.95
12/12/2020 12:45:00 AM 5.06 41.108 0.247 7.94 4.82 11.96
12/12/2020 1:00:00 AM 5.04 41.072 0.246 7.95 5.49 11.95
12/12/2020 1:15:00 AM 5.06 41.108 0.246 7.99 4.99 11.92
12/12/2020 1:30:00 AM 5.07 41.126 0.246 8 6.24 11.91
12/12/2020 1:45:00 AM 5.06 41.108 0.247 8.02 4.2 11.92
12/12/2020 2:00:00 AM 5.06 41.108 0.248 8.06 5.55 11.92
12/12/2020 2:15:00 AM 5.04 41.072 0.248 8.09 6.55 11.95
12/12/2020 2:30:00 AM 5.02 41.036 0.248 8.07 5.96 11.94
12/12/2020 2:45:00 AM 5 41 0.248 8.07 5.54 11.94
12/12/2020 3:00:00 AM 4.99 40.982 0.247 8.11 5.89 11.94
12/12/2020 3:15:00 AM 5 41 0.247 8.12 5.26 11.93
12/12/2020 3:30:00 AM 4.96 40.928 0.246 8.14 5.19 11.92
12/12/2020 3:45:00 AM 4.97 40.946 0.246 8.12 5.99 11.93
12/12/2020 4:00:00 AM 5.01 41.018 0.246 8.11 6.15 11.92
12/12/2020 4:15:00 AM 5 41 0.248 8.11 5.22 11.92
12/12/2020 4:30:00 AM 4.97 40.946 0.248 8.16 5.62 11.94
12/12/2020 4:45:00 AM 4.97 40.946 0.249 8.16 5.65 11.93
12/12/2020 5:00:00 AM 4.94 40.892 0.248 8.19 6.8 11.94
12/12/2020 5:15:00 AM 4.92 40.856 0.248 8.2 5.6 11.94
12/12/2020 5:30:00 AM 4.94 40.892 0.247 8.22 5.28 11.93
12/12/2020 5:45:00 AM 4.95 40.91 0.247 8.21 5.62 11.94
12/12/2020 6:00:00 AM 4.96 40.928 0.247 8.23 5.55 11.92
12/12/2020 6:15:00 AM 5 41 0.247 8.22 5.51 11.91
12/12/2020 6:30:00 AM 5.03 41.054 0.247 8.23 6.48 11.91
12/12/2020 6:45:00 AM 5.04 41.072 0.248 8.21 5.61 11.92
12/12/2020 7:00:00 AM 5.04 41.072 0.248 8.2 5.89 11.91
12/12/2020 7:15:00 AM 5.04 41.072 0.248 8.2 6.27 11.93
12/12/2020 7:30:00 AM 5.1 41.18 0.248 8.18 5.2 11.91
12/12/2020 7:45:00 AM 5.1 41.18 0.247 8.19 5.84 11.93
12/12/2020 8:00:00 AM 5.1 41.18 0.247 8.19 5.41 11.99
12/12/2020 8:15:00 AM 5.12 41.216 0.246 8.21 5.47 12.08
12/12/2020 8:30:00 AM 5.21 41.378 0.247 8.18 5.63 12.17
12/12/2020 8:45:00 AM 5.25 41.45 0.246 8.17 5.73 12.23
12/12/2020 9:00:00 AM 5.29 41.522 0.247 8.19 6.24 12.38
12/12/2020 9:15:00 AM 5.35 41.63 0.248 8.18 5.42 12.52
12/12/2020 9:30:00 AM 5.41 41.738 0.248 8.19 5.8 12.69
12/12/2020 9:45:00 AM 5.45 41.81 0.247 8.19 4.68 12.83
12/12/2020 10:00:00 AM 5.5 41.9 0.246 8.2 5.63 12.91
12/12/2020 10:15:00 AM 5.55 41.99 0.246 8.22 4.82 12.98
12/12/2020 10:30:00 AM 5.64 42.152 0.246 8.23 4.64 13.08
12/12/2020 10:45:00 AM 5.7 42.26 0.245 8.24 4.57 13.23
12/12/2020 11:00:00 AM 5.8 42.44 0.245 8.26 4.24 13.37
12/12/2020 11:15:00 AM 5.89 42.602 0.245 8.27 4.28 13.43
12/12/2020 11:30:00 AM 5.95 42.71 0.246 8.29 4.69 13.48
12/12/2020 11:45:00 AM 6.02 42.836 0.246 8.3 4.29 13.51
12/12/2020 12:00:00 PM 6.07 42.926 0.246 8.3 3.87 13.54
12/12/2020 12:15:00 PM 6.12 43.016 0.246 8.32 4.55 13.52
12/12/2020 12:30:00 PM 6.19 43.142 0.245 8.34 4.97 13.53
12/12/2020 12:45:00 PM 6.29 43.322 0.245 8.35 4.58 13.55
12/12/2020 1:00:00 PM 6.34 43.412 0.244 8.34 4.62 13.63
12/12/2020 1:15:00 PM 6.45 43.61 0.244 8.36 4.32 13.67
12/12/2020 1:30:00 PM 6.55 43.79 0.244 8.38 4.16 13.74
12/12/2020 1:45:00 PM 6.64 43.952 0.245 8.39 5.66 13.75
12/12/2020 2:00:00 PM 6.69 44.042 0.245 8.41 4.31 13.77
12/12/2020 2:15:00 PM 6.71 44.078 0.245 8.4 4.74 13.77
12/12/2020 2:30:00 PM 6.76 44.168 0.245 8.43 4.34 13.69
12/12/2020 2:45:00 PM 6.77 44.186 0.245 8.45 4.28 13.63
12/12/2020 3:00:00 PM 6.72 44.096 0.244 8.45 4.6 13.49
12/12/2020 3:15:00 PM 6.71 44.078 0.244 8.42 5.18 13.39
12/12/2020 3:30:00 PM 6.72 44.096 0.244 8.45 5.21 13.31
12/12/2020 3:45:00 PM 6.7 44.06 0.244 8.46 4.83 13.21
12/12/2020 4:00:00 PM 6.67 44.006 0.244 8.43 5.19 13.06
12/12/2020 4:15:00 PM 6.64 43.952 0.245 8.42 4.49 12.94
12/12/2020 4:30:00 PM 6.62 43.916 0.246 8.4 4.35 12.82
12/12/2020 4:45:00 PM 6.55 43.79 0.246 8.39 5.14 12.66
12/12/2020 5:00:00 PM 6.57 43.826 0.247 8.38 4.71 12.51
12/12/2020 5:15:00 PM 6.53 43.754 0.246 8.36 5.9 12.39
12/12/2020 5:30:00 PM 6.49 43.682 0.246 8.35 4.83 12.27
12/12/2020 5:45:00 PM 6.46 43.628 0.246 8.31 5.64 12.17
12/12/2020 6:00:00 PM 6.43 43.574 0.246 8.2 4.48 12.09
12/12/2020 6:15:00 PM 6.4 43.52 0.245 8.17 4.47 11.99
12/12/2020 6:30:00 PM 6.38 43.484 0.246 8.14 4.1 11.93
12/12/2020 6:45:00 PM 6.35 43.43 0.247 8.14 4.31 11.88
12/12/2020 7:00:00 PM 6.34 43.412 0.247 8.11 5.33 11.81
12/12/2020 7:15:00 PM 6.32 43.376 0.247 8.07 4.79 11.78
12/12/2020 7:30:00 PM 6.31 43.358 0.248 8 5.27 11.74
12/12/2020 7:45:00 PM 6.29 43.322 0.247 7.92 4.67 11.74
12/12/2020 8:00:00 PM 6.28 43.304 0.247 7.89 4.51 11.7
12/12/2020 8:15:00 PM 6.26 43.268 0.247 7.9 5.28 11.68
12/12/2020 8:30:00 PM 6.28 43.304 0.246 7.93 4.94 11.64
12/12/2020 8:45:00 PM 6.3 43.34 0.246 7.94 4.8 11.61
12/12/2020 9:00:00 PM 6.31 43.358 0.247 7.93 4.53 11.62
12/12/2020 9:15:00 PM 6.3 43.34 0.248 7.93 4.65 11.58
12/12/2020 9:30:00 PM 6.33 43.394 0.248 7.91 5.79 11.59
12/12/2020 9:45:00 PM 6.35 43.43 0.248 7.9 4.85 11.57
12/12/2020 10:00:00 PM 6.38 43.484 0.248 7.9 5.25 11.56
12/12/2020 10:15:00 PM 6.38 43.484 0.247 7.91 4.64 11.55
12/12/2020 10:30:00 PM 6.39 43.502 0.247 7.91 4.53 11.54
12/12/2020 10:45:00 PM 6.39 43.502 0.246 7.9 4.58 11.52
12/12/2020 11:00:00 PM 6.42 43.556 0.246 7.9 5.13 11.5
12/12/2020 11:15:00 PM 6.44 43.592 0.246 7.9 5.29 11.47
12/12/2020 11:30:00 PM 6.41 43.538 0.247 7.9 4.78 11.47
12/12/2020 11:45:00 PM 6.42 43.556 0.248 7.91 5.59 11.46
12/13/2020 12:00:00 AM 6.41 43.538 0.248 7.91 5.68 11.44
12/13/2020 12:15:00 AM 6.39 43.502 0.247 7.9 5.61 11.45
12/13/2020 12:30:00 AM 6.38 43.484 0.247 7.91 6.85 11.43
12/13/2020 12:45:00 AM 6.35 43.43 0.246 7.91 5.14 11.44
12/13/2020 1:00:00 AM 6.35 43.43 0.246 7.91 5.44 11.42
12/13/2020 1:15:00 AM 6.39 43.502 0.245 7.91 5.41 11.43
12/13/2020 1:30:00 AM 6.41 43.538 0.245 7.92 6.24 11.4
12/13/2020 1:45:00 AM 6.4 43.52 0.246 7.92 4.67 11.41
12/13/2020 2:00:00 AM 6.45 43.61 0.247 7.9 5.4 11.4
12/13/2020 2:15:00 AM 6.46 43.628 0.247 7.91 4.81 11.38
12/13/2020 2:30:00 AM 6.46 43.628 0.247 7.9 4.97 11.39
12/13/2020 2:45:00 AM 6.46 43.628 0.247 7.89 5.59 11.37
12/13/2020 3:00:00 AM 6.44 43.592 0.247 7.89 6.58 11.38
12/13/2020 3:15:00 AM 6.41 43.538 0.246 7.89 7.14 11.38
12/13/2020 3:30:00 AM 6.38 43.484 0.246 7.88 5.19 11.35
12/13/2020 3:45:00 AM 6.35 43.43 0.246 7.89 5.44 11.36
12/13/2020 4:00:00 AM 6.34 43.412 0.246 7.9 5.21 11.36
12/13/2020 4:15:00 AM 6.32 43.376 0.247 7.91 5.26 11.36
12/13/2020 4:30:00 AM 6.31 43.358 0.248 7.92 6.52 11.35
12/13/2020 4:45:00 AM 6.28 43.304 0.248 7.93 10.23 11.36
12/13/2020 5:00:00 AM 6.25 43.25 0.248 7.95 6.08 11.36
12/13/2020 5:15:00 AM 6.21 43.178 0.247 7.95 4.92 11.38
12/13/2020 5:30:00 AM 6.2 43.16 0.247 7.94 6.12 11.38
12/13/2020 5:45:00 AM 6.17 43.106 0.247 7.94 5.13 11.37
12/13/2020 6:00:00 AM 6.16 43.088 0.246 7.94 7.22 11.39
12/13/2020 6:15:00 AM 6.16 43.088 0.246 7.94 5.44 11.38
12/13/2020 6:30:00 AM 6.17 43.106 0.246 7.92 5.72 11.38
12/13/2020 6:45:00 AM 6.19 43.142 0.248 7.93 5.06 11.38
12/13/2020 7:00:00 AM 6.2 43.16 0.248 7.93 4.59 11.38
12/13/2020 7:15:00 AM 6.23 43.214 0.248 7.92 4.9 11.39
12/13/2020 7:30:00 AM 6.24 43.232 0.247 7.92 5.31 11.41
12/13/2020 7:45:00 AM 6.24 43.232 0.247 7.92 5.2 11.44
12/13/2020 8:00:00 AM 6.26 43.268 0.246 7.9 6.58 11.48
12/13/2020 8:15:00 AM 6.27 43.286 0.246 7.93 6.19 11.62
12/13/2020 8:30:00 AM 6.29 43.322 0.246 7.96 5.59 11.7
12/13/2020 8:45:00 AM 6.32 43.376 0.246 7.99 5.02 11.83
12/13/2020 9:00:00 AM 6.35 43.43 0.246 8.01 9.49 11.96
12/13/2020 9:15:00 AM 6.43 43.574 0.247 8.02 4.56 12.16
12/13/2020 9:30:00 AM 6.51 43.718 0.247 8.04 4.63 12.37
12/13/2020 9:45:00 AM 6.63 43.934 0.246 8.07 4.33 12.58
12/13/2020 10:00:00 AM 6.72 44.096 0.246 8.1 4.43 12.78
12/13/2020 10:15:00 AM 6.78 44.204 0.245 8.09 4.86 12.91
12/13/2020 10:30:00 AM 6.85 44.33 0.245 8.13 4.36 13.02
12/13/2020 10:45:00 AM 6.94 44.492 0.244 8.16 5.01 13.11
12/13/2020 11:00:00 AM 7.09 44.762 0.244 8.18 4.32 13.22
12/13/2020 11:15:00 AM 7.21 44.978 0.244 8.19 4.56 13.35
12/13/2020 11:30:00 AM 7.31 45.158 0.244 8.19 4.52 13.46
12/13/2020 11:45:00 AM 7.36 45.248 0.245 8.22 4.68 13.48
12/13/2020 12:00:00 PM 7.4 45.32 0.245 8.22 4.1 13.48
12/13/2020 12:15:00 PM 7.44 45.392 0.244 8.24 5.51 13.54
12/13/2020 12:30:00 PM 7.51 45.518 0.244 8.26 4.15 13.56
12/13/2020 12:45:00 PM 7.53 45.554 0.243 8.27 6.04 13.6
12/13/2020 1:00:00 PM 7.61 45.698 0.243 8.28 4.33 13.6
12/13/2020 1:15:00 PM 7.65 45.77 0.243 8.31 5.17 13.62
12/13/2020 1:30:00 PM 7.66 45.788 0.243 8.32 4.72 13.59
12/13/2020 1:45:00 PM 7.65 45.77 0.243 8.32 4.19 13.54
12/13/2020 2:00:00 PM 7.68 45.824 0.244 8.34 5.6 13.53
12/13/2020 2:15:00 PM 7.7 45.86 0.244 8.34 4.06 13.54
12/13/2020 2:30:00 PM 7.69 45.842 0.244 8.38 3.56 13.52
12/13/2020 2:45:00 PM 7.66 45.788 0.244 8.4 5.58 13.47
12/13/2020 3:00:00 PM 7.63 45.734 0.243 8.41 5.06 13.44
12/13/2020 3:15:00 PM 7.6 45.68 0.243 8.41 4.54 13.34
12/13/2020 3:30:00 PM 7.58 45.644 0.243 8.41 4.95 13.24
12/13/2020 3:45:00 PM 7.54 45.572 0.243 8.41 4.76 13.14
12/13/2020 4:00:00 PM 7.5 45.5 0.243 8.4 6.24 12.99
12/13/2020 4:15:00 PM 7.45 45.41 0.244 8.37 4.34 12.84
12/13/2020 4:30:00 PM 7.41 45.338 0.245 8.37 5.05 12.66
12/13/2020 4:45:00 PM 7.37 45.266 0.246 8.35 4.9 12.49
12/13/2020 5:00:00 PM 7.33 45.194 0.246 8.33 5.62 12.32
12/13/2020 5:15:00 PM 7.27 45.086 0.246 8.29 5.83 12.2
12/13/2020 5:30:00 PM 7.2 44.96 0.245 8.28 4.27 12.07
12/13/2020 5:45:00 PM 7.13 44.834 0.245 8.24 4.52 11.97
12/13/2020 6:00:00 PM 7.06 44.708 0.245 8.22 4.08 11.87
12/13/2020 6:15:00 PM 6.99 44.582 0.245 8.21 4.29 11.8
12/13/2020 6:30:00 PM 6.93 44.474 0.245 8.2 4.56 11.72
12/13/2020 6:45:00 PM 6.88 44.384 0.246 8.17 4.26 11.67
12/13/2020 7:00:00 PM 6.83 44.294 0.247 8.16 4.31 11.65
12/13/2020 7:15:00 PM 6.78 44.204 0.247 8.14 4.48 11.6
12/13/2020 7:30:00 PM 6.73 44.114 0.247 8.1 4.7 11.57
12/13/2020 7:45:00 PM 6.67 44.006 0.247 8.1 6.47 11.56
12/13/2020 8:00:00 PM 6.62 43.916 0.247 8.09 5.27 11.55
12/13/2020 8:15:00 PM 6.56 43.808 0.247 8.08 4.47 11.52
12/13/2020 8:30:00 PM 6.51 43.718 0.246 8.07 5.28 11.5
12/13/2020 8:45:00 PM 6.48 43.664 0.246 8.06 5.69 11.5
12/13/2020 9:00:00 PM 6.45 43.61 0.247 8.05 5.83 11.5
12/13/2020 9:15:00 PM 6.43 43.574 0.247 8.04 5.95 11.49
12/13/2020 9:30:00 PM 6.4 43.52 0.248 8.04 4.79 11.49
12/13/2020 9:45:00 PM 6.38 43.484 0.248 8.04 4.68 11.48
12/13/2020 10:00:00 PM 6.37 43.466 0.248 8.03 5 11.48
12/13/2020 10:15:00 PM 6.34 43.412 0.247 8.03 5.4 11.48
12/13/2020 10:30:00 PM 6.32 43.376 0.247 8.04 4.88 11.48
12/13/2020 10:45:00 PM 6.3 43.34 0.246 8.04 5.2 11.48
12/13/2020 11:00:00 PM 6.27 43.286 0.246 8.03 4.59 11.47
12/13/2020 11:15:00 PM 6.25 43.25 0.246 8.04 10.06 11.46
12/13/2020 11:30:00 PM 6.23 43.214 0.247 8.04 4.49 11.46
12/13/2020 11:45:00 PM 6.21 43.178 0.248 8.03 5.53 11.45
12/14/2020 12:00:00 AM 6.19 43.142 0.248 8.04 5.14 11.45
12/14/2020 12:15:00 AM 6.17 43.106 0.248 8.03 5.45 11.45
12/14/2020 12:30:00 AM 6.15 43.07 0.247 8.02 6.28 11.46
12/14/2020 12:45:00 AM 6.14 43.052 0.247 8.03 5.51 11.45
12/14/2020 1:00:00 AM 6.13 43.034 0.246 8.02 5.2 11.45
12/14/2020 1:15:00 AM 6.12 43.016 0.246 8.02 4.44 11.46
12/14/2020 1:30:00 AM 6.12 43.016 0.245 8 6.06 11.44
12/14/2020 1:45:00 AM 6.13 43.034 0.246 7.99 6.78 11.44
12/14/2020 2:00:00 AM 6.13 43.034 0.247 8 6.07 11.46
12/14/2020 2:15:00 AM 6.13 43.034 0.248 8 5.89 11.45
12/14/2020 2:30:00 AM 6.13 43.034 0.248 8 5.8 11.44
12/14/2020 2:45:00 AM 6.13 43.034 0.248 7.99 5.07 11.45
12/14/2020 3:00:00 AM 6.13 43.034 0.247 7.99 4.37 11.43
12/14/2020 3:15:00 AM 6.13 43.034 0.247 7.99 7.6 11.43
12/14/2020 3:30:00 AM 6.14 43.052 0.246 8 5.12 11.44
12/14/2020 3:45:00 AM 6.14 43.052 0.246 8 6.25 11.42
12/14/2020 4:00:00 AM 6.15 43.07 0.246 8 5.4 11.43
12/14/2020 4:15:00 AM 6.16 43.088 0.247 8.01 5.02 11.42
12/14/2020 4:30:00 AM 6.17 43.106 0.248 8.01 4.74 11.42
12/14/2020 4:45:00 AM 6.17 43.106 0.248 8 5.2 11.41
12/14/2020 5:00:00 AM 6.17 43.106 0.248 8 5.24 11.41
12/14/2020 5:15:00 AM 6.18 43.124 0.248 8.01 5.06 11.4
12/14/2020 5:30:00 AM 6.17 43.106 0.247 8 4.92 11.41
12/14/2020 5:45:00 AM 6.17 43.106 0.247 7.99 5.52 11.41
12/14/2020 6:00:00 AM 6.18 43.124 0.247 7.99 6.75 11.4
12/14/2020 6:15:00 AM 6.19 43.142 0.246 8 5.03 11.39
12/14/2020 6:30:00 AM 6.18 43.124 0.246 8 14.08 11.41
12/14/2020 6:45:00 AM 6.18 43.124 0.247 8.01 5.55 11.42
12/14/2020 7:00:00 AM 6.17 43.106 0.247 8.02 5.02 11.42
12/14/2020 7:15:00 AM 6.17 43.106 0.247 8.01 5.03 11.42
12/14/2020 7:30:00 AM 6.17 43.106 0.246 8.04 4.75 11.44
12/14/2020 7:45:00 AM 6.16 43.088 0.245 8.01 5.4 11.46
12/14/2020 8:00:00 AM 6.14 43.052 0.244 8.01 5.35 11.48
12/14/2020 8:15:00 AM 6.13 43.034 0.243 8.03 4.72 11.51
12/14/2020 8:30:00 AM 6.12 43.016 0.242 8.03 5.1 11.54
12/14/2020 8:45:00 AM 6.12 43.016 0.242 8.05 7.07 11.55
12/14/2020 9:00:00 AM 6.11 42.998 0.242 8.05 6.2 11.6
12/14/2020 9:15:00 AM 6.1 42.98 0.243 8.04 6.88 11.64
12/14/2020 9:30:00 AM 6.07 42.926 0.242 8.06 5.43 11.67
12/14/2020 9:45:00 AM 6.03 42.854 0.241 8.04 5.96 11.74
12/14/2020 10:00:00 AM 5.99 42.782 0.24 8.05 6.03 11.76
12/14/2020 10:15:00 AM 5.95 42.71 0.24 8.03 6.41 11.8
12/14/2020 10:30:00 AM 5.92 42.656 0.24 8.03 7.27 11.84
12/14/2020 10:45:00 AM 5.88 42.584 0.241 8.04 6.7 11.88
12/14/2020 11:00:00 AM 5.81 42.458 0.242 8.05 7.37 11.91
12/14/2020 11:15:00 AM 5.71 42.278 0.243 8.05 8.1 11.97
12/14/2020 11:30:00 AM 5.6 42.08 0.243 8.05 7.46 12.06
12/14/2020 11:45:00 AM 5.55 41.99 0.245 8.07 11.27 12.13
12/14/2020 12:00:00 PM 5.5 41.9 0.246 8.05 10.76 12.23
12/14/2020 12:15:00 PM 5.48 41.864 0.246 8.07 9.48 12.25
12/14/2020 12:30:00 PM 5.42 41.756 0.245 8.07 10.19 12.3
12/14/2020 12:45:00 PM 5.38 41.684 0.243 8.08 11.48 12.35
12/14/2020 1:00:00 PM 5.33 41.594 0.242 8.08 12.22 12.39
12/14/2020 1:15:00 PM 5.31 41.558 0.24 8.1 15.66 12.47
12/14/2020 1:30:00 PM 5.34 41.612 0.239 8.1 10.8 12.55
12/14/2020 1:45:00 PM 5.35 41.63 0.238 8.1 12.14 12.57
12/14/2020 2:00:00 PM 5.41 41.738 0.238 8.09 11.22 12.55
12/14/2020 2:15:00 PM 5.44 41.792 0.237 8.1 14.95 12.57
12/14/2020 2:30:00 PM 5.51 41.918 0.236 8.11 11.93 12.64
12/14/2020 2:45:00 PM 5.56 42.008 0.236 8.11 12.74 12.77
12/14/2020 3:00:00 PM 5.64 42.152 0.236 8.13 12.28 12.87
12/14/2020 3:15:00 PM 5.68 42.224 0.236 8.12 12.15 12.84
12/14/2020 3:30:00 PM 5.68 42.224 0.235 8.13 12.16 12.8
12/14/2020 3:45:00 PM 5.7 42.26 0.235 8.11 12.44 12.73
12/14/2020 4:00:00 PM 5.7 42.26 0.235 8.12 12.99 12.68
12/14/2020 4:15:00 PM 5.67 42.206 0.234 8.1 13.24 12.64
12/14/2020 4:30:00 PM 5.65 42.17 0.234 8.1 13.35 12.57
12/14/2020 4:45:00 PM 5.66 42.188 0.234 8.09 13.53 12.5
12/14/2020 5:00:00 PM 5.58 42.044 0.234 8.08 21.04 12.43
12/14/2020 5:15:00 PM 5.56 42.008 0.234 8.08 20.15 12.36
12/14/2020 5:30:00 PM 5.54 41.972 0.235 8.07 20.13 12.31
12/14/2020 5:45:00 PM 5.48 41.864 0.235 8.07 24.73 12.27
12/14/2020 6:00:00 PM 5.45 41.81 0.235 8.04 21.03 12.24
12/14/2020 6:15:00 PM 5.43 41.774 0.235 8.06 28.73 12.23
12/14/2020 6:30:00 PM 5.37 41.666 0.234 8.05 24.7 12.21
12/14/2020 6:45:00 PM 5.31 41.558 0.234 8.04 26.61 12.2
12/14/2020 7:00:00 PM 5.31 41.558 0.234 8.03 32.15 12.21
12/14/2020 7:15:00 PM 5.27 41.486 0.235 8.03 33.61 12.2
12/14/2020 7:30:00 PM 5.22 41.396 0.235 8.02 39.19 12.21
12/14/2020 7:45:00 PM 5.21 41.378 0.235 8.02 53.36 12.21
12/14/2020 8:00:00 PM 5.23 41.414 0.236 8.02 54.17 12.22
12/14/2020 8:15:00 PM 5.21 41.378 0.236 8.03 35.63 12.23
12/14/2020 8:30:00 PM 5.21 41.378 0.236 8.02 33.29 12.24
12/14/2020 8:45:00 PM 5.17 41.306 0.236 8.01 35.29 12.26
12/14/2020 9:00:00 PM 5.19 41.342 0.236 8.01 39.07 12.27
12/14/2020 9:15:00 PM 5.14 41.252 0.236 8.04 37.98 12.28
12/14/2020 9:30:00 PM 5.14 41.252 0.235 8.04 30.71 12.27
12/14/2020 9:45:00 PM 5.12 41.216 0.235 8.05 32.38 12.27
12/14/2020 10:00:00 PM 5.14 41.252 0.235 8.05 27.28 12.26
12/14/2020 10:15:00 PM 5.09 41.162 0.235 8.03 29.91 12.27
12/14/2020 10:30:00 PM 5.02 41.036 0.234 8.03 28.15 12.27
12/14/2020 10:45:00 PM 5.02 41.036 0.234 8.04 26.34 12.27
12/14/2020 11:00:00 PM 5 41 0.234 8.04 25.01 12.25
12/14/2020 11:15:00 PM 4.99 40.982 0.233 8.04 24.2 12.26
12/14/2020 11:30:00 PM 4.99 40.982 0.233 8.04 27.58 12.26
12/14/2020 11:45:00 PM 4.95 40.91 0.232 8.03 23.3 12.25
12/15/2020 12:00:00 AM 4.96 40.928 0.231 8.04 24.29 12.25
12/15/2020 12:15:00 AM 4.92 40.856 0.23 8.03 20.57 12.25
12/15/2020 12:30:00 AM 4.9 40.82 0.229 8.02 20.79 12.25
12/15/2020 12:45:00 AM 4.9 40.82 0.228 7.99 21.44 12.26
12/15/2020 1:00:00 AM 4.93 40.874 0.229 7.99 25.78 12.24
12/15/2020 1:15:00 AM 4.9 40.82 0.228 8.03 25.92 12.27
12/15/2020 1:30:00 AM 4.88 40.784 0.219 8.03 22.34 12.27
12/15/2020 1:45:00 AM 4.85 40.73 0.228 8.02 20.86 12.26
12/15/2020 2:00:00 AM 4.85 40.73 0.229 8.01 21.08 12.28
12/15/2020 2:15:00 AM 4.83 40.694 0.229 8.02 19.45 12.27
12/15/2020 2:30:00 AM 4.82 40.676 0.229 8.03 18.5 12.28
12/15/2020 2:45:00 AM 4.78 40.604 0.229 8.01 27.54 12.3
12/15/2020 3:00:00 AM 4.78 40.604 0.229 8.01 18.75 12.3
12/15/2020 3:15:00 AM 4.78 40.604 0.229 8.01 18.75 12.29
12/15/2020 3:30:00 AM 4.74 40.532 0.229 8.01 20.1 12.3
12/15/2020 3:45:00 AM 4.71 40.478 0.229 8 17.52 12.31
12/15/2020 4:00:00 AM 4.68 40.424 0.228 8.01 19.42 12.32
12/15/2020 4:15:00 AM 4.67 40.406 0.228 8.03 17.85 12.32
12/15/2020 4:30:00 AM 4.62 40.316 0.228 8.01 18.01 12.32
12/15/2020 4:45:00 AM 4.62 40.316 0.227 8.01 16.89 12.34
12/15/2020 5:00:00 AM 4.58 40.244 0.223 8.02 17.01 12.34
12/15/2020 5:15:00 AM 4.57 40.226 0.224 8.01 16.47 12.33
12/15/2020 5:30:00 AM 4.53 40.154 0.222 8.01 17.56 12.35
12/15/2020 5:45:00 AM 4.56 40.208 0.22 7.99 16.99 12.35
12/15/2020 6:00:00 AM 4.53 40.154 0.222 8 16.82 12.36
12/15/2020 6:15:00 AM 4.47 40.046 0.226 8 16.42 12.37
12/15/2020 6:30:00 AM 4.46 40.028 0.227 7.99 16.52 12.38
12/15/2020 6:45:00 AM 4.43 39.974 0.227 7.99 18.83 12.38
12/15/2020 7:00:00 AM 4.38 39.884 0.226 7.99 16.71 12.41
12/15/2020 7:15:00 AM 4.4 39.92 0.226 7.99 15.3 12.4
12/15/2020 7:30:00 AM 4.42 39.956 0.226 7.99 14.48 12.41
12/15/2020 7:45:00 AM 4.4 39.92 0.226 7.97 15.71 12.43
12/15/2020 8:00:00 AM 4.43 39.974 0.226 7.98 16.15 12.46
12/15/2020 8:15:00 AM 4.4 39.92 0.226 7.99 13.44 12.52
12/15/2020 8:30:00 AM 4.42 39.956 0.227 7.99 13.26 12.62
12/15/2020 8:45:00 AM 4.47 40.046 0.227 8 14.51 12.71
12/15/2020 9:00:00 AM 4.47 40.046 0.226 8 12.28 12.81
12/15/2020 9:15:00 AM 4.55 40.19 0.226 8.01 11.47 12.86
12/15/2020 9:30:00 AM 4.53 40.154 0.225 8 12.47 12.95
12/15/2020 9:45:00 AM 4.59 40.262 0.225 8.01 12.49 13.04
12/15/2020 10:00:00 AM 4.64 40.352 0.225 8.02 11.42 13.11
12/15/2020 10:15:00 AM 4.73 40.514 0.226 8.03 11.48 13.17
12/15/2020 10:30:00 AM 4.75 40.55 0.225 8.02 10.81 13.26
12/15/2020 10:45:00 AM 4.8 40.64 0.225 8.02 10.78 13.31
12/15/2020 11:00:00 AM 4.89 40.802 0.226 8.04 10.01 13.35
12/15/2020 11:15:00 AM 4.93 40.874 0.226 8.05 10.36 13.42
12/15/2020 11:30:00 AM 4.99 40.982 0.225 8.06 10.24 13.45
12/15/2020 11:45:00 AM 5.02 41.036 0.224 8.07 12.12 13.49
12/15/2020 12:00:00 PM 5.08 41.144 0.224 8.07 10.07 13.51
12/15/2020 12:15:00 PM 5.15 41.27 0.225 8.08 9.15 13.53
12/15/2020 12:30:00 PM 5.16 41.288 0.225 8.08 9.22 13.55
12/15/2020 12:45:00 PM 5.15 41.27 0.224 8.09 11.46 13.58
12/15/2020 1:00:00 PM 5.18 41.324 0.225 8.08 8.72 13.62
12/15/2020 1:15:00 PM 5.26 41.468 0.226 8.1 8.38 13.64
12/15/2020 1:30:00 PM 5.25 41.45 0.227 8.04 8.69 13.66
12/15/2020 1:45:00 PM 5.25 41.45 0.227 8.1 9.15 13.66
12/15/2020 2:00:00 PM 5.27 41.486 0.227 8.11 8.94 13.66
12/15/2020 2:15:00 PM 5.27 41.486 0.227 8.11 9.14 13.69
12/15/2020 2:30:00 PM 5.26 41.468 0.227 8.12 9.44 13.68
12/15/2020 2:45:00 PM 5.27 41.486 0.227 8.13 17.79 13.63
12/15/2020 3:00:00 PM 5.23 41.414 0.227 8.14 9.08 13.61
12/15/2020 3:15:00 PM 5.21 41.378 0.228 8.16 10.03 13.57
12/15/2020 3:30:00 PM 5.2 41.36 0.229 8.16 9.23 13.49
12/15/2020 3:45:00 PM 5.2 41.36 0.23 8.14 9.13 13.47
12/15/2020 4:00:00 PM 5.17 41.306 0.231 8.14 9.01 13.4
12/15/2020 4:15:00 PM 5.13 41.234 0.231 8.14 8.8 13.31
12/15/2020 4:30:00 PM 5.1 41.18 0.231 8.15 8.77 13.2
12/15/2020 4:45:00 PM 5.07 41.126 0.232 8.13 18.75 13.1
12/15/2020 5:00:00 PM 5 41 0.231 8.1 9.05 12.99
12/15/2020 5:15:00 PM 5 41 0.232 8.1 10.09 12.92
12/15/2020 5:30:00 PM 4.94 40.892 0.23 8.09 8.75 12.86
12/15/2020 5:45:00 PM 4.93 40.874 0.227 8.08 8.49 12.78
12/15/2020 6:00:00 PM 4.85 40.73 0.227 8.09 8.87 12.75
12/15/2020 6:15:00 PM 4.81 40.658 0.227 8.08 9.05 12.73
12/15/2020 6:30:00 PM 4.79 40.622 0.226 8.07 9.29 12.69
12/15/2020 6:45:00 PM 4.76 40.568 0.223 8.08 8.47 12.65
12/15/2020 7:00:00 PM 4.72 40.496 0.229 8.07 9.81 12.62
12/15/2020 7:15:00 PM 4.68 40.424 0.229 8.06 11.29 12.61
12/15/2020 7:30:00 PM 4.69 40.442 0.233 8.07 9.1 12.59
12/15/2020 7:45:00 PM 4.65 40.37 0.233 8.06 8.54 12.57
12/15/2020 8:00:00 PM 4.64 40.352 0.233 8.05 9.23 12.57
12/15/2020 8:15:00 PM 4.63 40.334 0.233 8.04 8.54 12.57
12/15/2020 8:30:00 PM 4.62 40.316 0.235 8.04 8.9 12.55
12/15/2020 8:45:00 PM 4.57 40.226 0.235 8.03 7.38 12.54
12/15/2020 9:00:00 PM 4.59 40.262 0.236 8.02 7.25 12.54
12/15/2020 9:15:00 PM 4.56 40.208 0.236 8.02 7.79 12.55
12/15/2020 9:30:00 PM 4.53 40.154 0.236 8.02 8.04 12.54
12/15/2020 9:45:00 PM 4.52 40.136 0.237 8.01 8.57 12.55
12/15/2020 10:00:00 PM 4.51 40.118 0.237 8.01 8.17 12.51
12/15/2020 10:15:00 PM 4.47 40.046 0.236 8 8.88 12.52
12/15/2020 10:30:00 PM 4.46 40.028 0.237 8.02 8.59 12.52
12/15/2020 10:45:00 PM 4.47 40.046 0.238 8.02 7.79 12.51
12/15/2020 11:00:00 PM 4.42 39.956 0.239 8.02 8.97 12.5
12/15/2020 11:15:00 PM 4.4 39.92 0.24 8 8.56 12.52
12/15/2020 11:30:00 PM 4.42 39.956 0.24 8.01 8.64 12.52
12/15/2020 11:45:00 PM 4.37 39.866 0.24 8.01 7.76 12.53
12/16/2020 12:00:00 AM 4.39 39.902 0.241 8 7.85 12.51
12/16/2020 12:15:00 AM 4.36 39.848 0.24 8 7.98 12.53
12/16/2020 12:30:00 AM 4.34 39.812 0.24 8.01 8.11 12.54
12/16/2020 12:45:00 AM 4.35 39.83 0.24 8.01 7.12 12.52
12/16/2020 1:00:00 AM 4.33 39.794 0.24 8.01 8.41 12.52
12/16/2020 1:15:00 AM 4.32 39.776 0.241 8.01 8.91 12.53
12/16/2020 1:30:00 AM 4.3 39.74 0.242 8.02 9.07 12.54
12/16/2020 1:45:00 AM 4.25 39.65 0.242 8 6.83 12.55
12/16/2020 2:00:00 AM 4.21 39.578 0.242 8 7.32 12.54
12/16/2020 2:15:00 AM 4.19 39.542 0.243 7.99 6.98 12.55
12/16/2020 2:30:00 AM 4.15 39.47 0.243 7.99 7.65 12.56
12/16/2020 2:45:00 AM 4.12 39.416 0.243 7.98 9.24 12.55
12/16/2020 3:00:00 AM 4.07 39.326 0.243 7.98 7.22 12.58
12/16/2020 3:15:00 AM 4.08 39.344 0.242 7.99 9.17 12.57
12/16/2020 3:30:00 AM 4.06 39.308 0.243 7.98 7.32 12.57
12/16/2020 3:45:00 AM 4.02 39.236 0.243 7.98 7.36 12.58
12/16/2020 4:00:00 AM 4.03 39.254 0.244 7.99 7.85 12.59
12/16/2020 4:15:00 AM 3.98 39.164 0.245 7.95 9.14 12.61
12/16/2020 4:30:00 AM 3.98 39.164 0.245 7.96 6.58 12.59
12/16/2020 4:45:00 AM 3.94 39.092 0.245 7.95 6.29 12.6
12/16/2020 5:00:00 AM 3.9 39.02 0.245 7.94 6.63 12.61
12/16/2020 5:15:00 AM 3.91 39.038 0.244 7.96 7.26 12.61
12/16/2020 5:30:00 AM 3.93 39.074 0.244 7.95 5.99 12.6
12/16/2020 5:45:00 AM 3.91 39.038 0.244 7.91 6.93 12.61
12/16/2020 6:00:00 AM 3.87 38.966 0.245 7.93 7.16 12.63
12/16/2020 6:15:00 AM 3.83 38.894 0.246 7.94 6.36 12.65
12/16/2020 6:30:00 AM 3.82 38.876 0.247 7.91 6.14 12.64
12/16/2020 6:45:00 AM 3.82 38.876 0.247 7.92 6.89 12.66
12/16/2020 7:00:00 AM 3.77 38.786 0.247 7.9 5.49 12.67
12/16/2020 7:15:00 AM 3.81 38.858 0.247 7.92 5.85 12.65
12/16/2020 7:30:00 AM 3.77 38.786 0.247 7.92 5.81 12.66
12/16/2020 7:45:00 AM 3.8 38.84 0.246 7.89 7.16 12.65
12/16/2020 8:00:00 AM 3.86 38.948 0.246 7.91 6.71 12.66
12/16/2020 8:15:00 AM 3.82 38.876 0.246 7.91 6.29 12.7
12/16/2020 8:30:00 AM 3.82 38.876 0.247 7.91 6.41 12.73
12/16/2020 8:45:00 AM 3.81 38.858 0.247 7.91 6.54 12.79
12/16/2020 9:00:00 AM 3.82 38.876 0.247 7.92 10.39 12.84
12/16/2020 9:15:00 AM 3.82 38.876 0.247 7.91 5.21 12.86
12/16/2020 9:30:00 AM 3.85 38.93 0.246 7.91 6.01 12.93
12/16/2020 9:45:00 AM 3.84 38.912 0.246 7.91 5.39 12.98
12/16/2020 10:00:00 AM 3.81 38.858 0.245 7.91 5.87 13.06
12/16/2020 10:15:00 AM 3.86 38.948 0.245 7.92 6.73 13.09
12/16/2020 10:30:00 AM 3.85 38.93 0.245 7.93 5.74 13.14
12/16/2020 10:45:00 AM 3.85 38.93 0.245 7.93 5.81 13.21
12/16/2020 11:00:00 AM 3.87 38.966 0.246 7.94 5.74 13.26
12/16/2020 11:15:00 AM 3.88 38.984 0.246 7.96 6.57 13.29
12/16/2020 11:30:00 AM 3.78 38.804 0.246 7.95 6.28 13.33
12/16/2020 11:45:00 AM 3.78 38.804 0.245 7.96 6.52 13.36
12/16/2020 12:00:00 PM 3.68 38.624 0.245 7.96 5.45 13.42
12/16/2020 12:15:00 PM 3.67 38.606 0.244 7.95 7.23 13.51
12/16/2020 12:30:00 PM 3.64 38.552 0.244 7.96 6.35 13.62
12/16/2020 12:45:00 PM 3.69 38.642 0.243 7.98 5.25 13.69
12/16/2020 1:00:00 PM 3.67 38.606 0.244 7.97 7.29 13.72
12/16/2020 1:15:00 PM 3.62 38.516 0.244 7.98 5.36 13.74
12/16/2020 1:30:00 PM 3.62 38.516 0.245 7.96 4.83 13.71
12/16/2020 1:45:00 PM 3.55 38.39 0.244 7.99 5.86 13.68
12/16/2020 2:00:00 PM 3.47 38.246 0.244 7.99 4.94 13.65
12/16/2020 2:15:00 PM 3.33 37.994 0.243 7.93 5.81 13.63
12/16/2020 2:30:00 PM 3.28 37.904 0.242 7.97 5.47 13.58
12/16/2020 2:45:00 PM 3.14 37.652 0.242 7.98 6.38 13.52
12/16/2020 3:00:00 PM 2.99 37.382 0.241 7.99 8.01 13.51
12/16/2020 3:15:00 PM 2.86 37.148 0.241 7.97 4.93 13.49
12/16/2020 3:30:00 PM 2.73 36.914 0.241 7.98 5.68 13.44
12/16/2020 3:45:00 PM 2.62 36.716 0.241 7.97 5.29 13.4
12/16/2020 4:00:00 PM 2.41 36.338 0.241 7.96 5.14 13.37
12/16/2020 4:15:00 PM 2.07 35.726 0.241 7.95 5.78 13.37
12/16/2020 4:30:00 PM 1.92 35.456 0.24 7.95 5.96 13.33
12/16/2020 4:45:00 PM 1.85 35.33 0.24 7.94 5.6 13.33
12/16/2020 5:00:00 PM 1.61 34.898 0.239 7.93 6.7 13.29
12/16/2020 5:15:00 PM 1.47 34.646 0.238 7.92 5.82 13.27
12/16/2020 5:30:00 PM 1.53 34.754 0.238 7.94 6.52 13.28
12/16/2020 5:45:00 PM 1.64 34.952 0.237 7.94 6.22 13.22
12/16/2020 6:00:00 PM 1.82 35.276 0.238 7.94 6.78 13.21
12/16/2020 6:15:00 PM 1.96 35.528 0.239 7.94 8.77 13.2
12/16/2020 6:30:00 PM 2.02 35.636 0.239 7.91 7.37 13.18
12/16/2020 6:45:00 PM 2.21 35.978 0.24 7.92 6.62 13.17
12/16/2020 7:00:00 PM 2.31 36.158 0.24 7.93 7.14 13.14
12/16/2020 7:15:00 PM 2.32 36.176 0.24 7.93 6.38 13.12
12/16/2020 7:30:00 PM 2.2 35.96 0.239 7.91 6.36 13.14
12/16/2020 7:45:00 PM 2.19 35.942 0.239 7.91 6.82 13.11
12/16/2020 8:00:00 PM 2.29 36.122 0.239 7.92 6.22 13.07
12/16/2020 8:15:00 PM 2.3 36.14 0.238 7.91 6.56 13.05
12/16/2020 8:30:00 PM 2.32 36.176 0.239 7.92 7.71 13.07
12/16/2020 8:45:00 PM 2.35 36.23 0.24 7.91 8.81 13.08
12/16/2020 9:00:00 PM 2.43 36.374 0.24 7.89 9.69 13.05
12/16/2020 9:15:00 PM 2.42 36.356 0.24 7.91 7.04 13.08
12/16/2020 9:30:00 PM 2.34 36.212 0.24 7.9 5.32 13.08
12/16/2020 9:45:00 PM 2.33 36.194 0.24 7.89 6.14 13.07
12/16/2020 10:00:00 PM 2.38 36.284 0.239 7.89 6.57 13.02
12/16/2020 10:15:00 PM 2.29 36.122 0.239 7.89 6.42 13.06
12/16/2020 10:30:00 PM 2.08 35.744 0.24 7.88 6.29 13.08
12/16/2020 10:45:00 PM 1.86 35.348 0.24 7.89 5.19 13.06
12/16/2020 11:00:00 PM 1.64 34.952 0.239 7.89 8.5 13.09
12/16/2020 11:15:00 PM 1.62 34.916 0.239 7.96 5.48 13.1
12/16/2020 11:30:00 PM 1.7 35.06 0.239 7.95 5.62 13.08
12/16/2020 11:45:00 PM 1.72 35.096 0.238 7.93 8.67 13.07
12/17/2020 12:00:00 AM 1.72 35.096 0.238 7.93 7.75 13.12
12/17/2020 12:15:00 AM 1.74 35.132 0.238 7.95 7.52 13.09
12/17/2020 12:30:00 AM 1.91 35.438 0.237 7.95 6.76 13.05
12/17/2020 12:45:00 AM 1.99 35.582 0.237 7.94 7.39 12.99
12/17/2020 1:00:00 AM 2.04 35.672 0.238 7.93 8.19 12.99
12/17/2020 1:15:00 AM 2.06 35.708 0.238 7.92 7.12 13
12/17/2020 1:30:00 AM 2.07 35.726 0.238 7.92 8.78 13.02
12/17/2020 1:45:00 AM 2.11 35.798 0.238 7.93 7.13 12.99
12/17/2020 2:00:00 AM 2.26 36.068 0.238 7.92 7.1 12.99
12/17/2020 2:15:00 AM 2.32 36.176 0.238 7.94 7.38 12.98
12/17/2020 2:30:00 AM 2.46 36.428 0.238 7.95 6.93 12.96
12/17/2020 2:45:00 AM 2.53 36.554 0.238 7.96 11.5 12.97
12/17/2020 3:00:00 AM 2.53 36.554 0.238 7.98 13.24 12.97
12/17/2020 3:15:00 AM 2.69 36.842 0.239 7.98 7.89 12.98
12/17/2020 3:30:00 AM 2.67 36.806 0.239 7.98 7.81 13.01
12/17/2020 3:45:00 AM 2.82 37.076 0.24 7.99 9.99 13
12/17/2020 4:00:00 AM 2.87 37.166 0.241 7.99 7.28 12.98
12/17/2020 4:15:00 AM 2.88 37.184 0.241 7.99 7.84 12.99
12/17/2020 4:30:00 AM 2.87 37.166 0.241 8.01 8.2 12.99
12/17/2020 4:45:00 AM 2.9 37.22 0.241 8.01 7.61 13
12/17/2020 5:00:00 AM 2.84 37.112 0.241 8.01 8.71 13.02
12/17/2020 5:15:00 AM 2.87 37.166 0.241 8.01 6.8 13
12/17/2020 5:30:00 AM 2.89 37.202 0.24 8 16.26 12.99
12/17/2020 5:45:00 AM 2.86 37.148 0.24 8 8.03 12.98
12/17/2020 6:00:00 AM 2.8 37.04 0.241 8.01 8.66 12.99
12/17/2020 6:15:00 AM 2.81 37.058 0.242 7.98 7.15 13.01
12/17/2020 6:30:00 AM 2.79 37.022 0.242 7.98 6.82 13
12/17/2020 6:45:00 AM 2.74 36.932 0.241 7.98 7.42 13.02
12/17/2020 7:00:00 AM 2.71 36.878 0.241 7.98 8.08 13.02
12/17/2020 7:15:00 AM 2.63 36.734 0.24 7.99 6.29 13.07
12/17/2020 7:30:00 AM 2.62 36.716 0.24 7.99 7.38 13.09
12/17/2020 7:45:00 AM 2.58 36.644 0.24 7.99 6.56 13.12
12/17/2020 8:00:00 AM 2.45 36.41 0.24 7.99 7.25 13.21
12/17/2020 8:15:00 AM 2.52 36.536 0.24 8 8.26 13.23
12/17/2020 8:30:00 AM 2.49 36.482 0.24 8 7.93 13.34
12/17/2020 8:45:00 AM 2.49 36.482 0.24 7.99 6.64 13.41
12/17/2020 9:00:00 AM 2.51 36.518 0.24 7.98 7.43 13.49
12/17/2020 9:15:00 AM 2.4 36.32 0.24 7.98 7.89 13.63
12/17/2020 9:30:00 AM 2.59 36.662 0.239 7.99 8.45 13.66
12/17/2020 9:45:00 AM 2.65 36.77 0.239 7.99 6.89 13.72
12/17/2020 10:00:00 AM 2.62 36.716 0.239 8 7.36 13.8
12/17/2020 10:15:00 AM 2.71 36.878 0.238 8 7.81 13.86
12/17/2020 10:30:00 AM 2.66 36.788 0.238 8.01 7.88 13.92
12/17/2020 10:45:00 AM 2.73 36.914 0.239 8.02 8.81 13.97
12/17/2020 11:00:00 AM 2.72 36.896 0.239 8.02 8.79 14.06
12/17/2020 11:15:00 AM 2.71 36.878 0.238 8.03 9.25 14.1
12/17/2020 11:30:00 AM 2.69 36.842 0.238 8.04 10.01 14.15
12/17/2020 11:45:00 AM 2.73 36.914 0.238 8.03 8.8 14.17
12/17/2020 12:00:00 PM 2.77 36.986 0.237 8.04 9.24 14.22
12/17/2020 12:15:00 PM 2.78 37.004 0.237 8.04 15.84 14.24
12/17/2020 12:30:00 PM 2.72 36.896 0.237 8.05 9.12 14.27
12/17/2020 12:45:00 PM 2.72 36.896 0.237 8.06 12.15 14.31
12/17/2020 1:00:00 PM 2.66 36.788 0.238 8.04 12.81 14.31
12/17/2020 1:15:00 PM 2.53 36.554 0.239 8.05 10.27 14.35
12/17/2020 1:30:00 PM 2.65 36.77 0.239 8.04 9.13 14.35
12/17/2020 1:45:00 PM 2.52 36.536 0.239 8.05 10.19 14.36
12/17/2020 2:00:00 PM 2.52 36.536 0.24 8.02 10.27 14.34
12/17/2020 2:15:00 PM 2.5 36.5 0.24 8.04 10.37 14.34
12/17/2020 2:30:00 PM 2.48 36.464 0.24 8.05 13.26 14.31
12/17/2020 2:45:00 PM 2.42 36.356 0.24 8.04 10.46 14.31
12/17/2020 3:00:00 PM 2.41 36.338 0.24 8.03 10.05 14.3
12/17/2020 3:15:00 PM 2.4 36.32 0.24 8.02 12.32 14.22
12/17/2020 3:30:00 PM 2.29 36.122 0.239 8.02 9.91 14.21
12/17/2020 3:45:00 PM 2.28 36.104 0.239 8.02 9.96 14.18
12/17/2020 4:00:00 PM 2.24 36.032 0.239 8.01 8.99 14.14
12/17/2020 4:15:00 PM 2.21 35.978 0.238 7.99 10.63 14.09
12/17/2020 4:30:00 PM 2.19 35.942 0.238 7.99 9.4 14.02
12/17/2020 4:45:00 PM 2.15 35.87 0.237 7.97 8.55 14.01
12/17/2020 5:00:00 PM 2.17 35.906 0.237 7.97 11.02 13.91
12/17/2020 5:15:00 PM 2.09 35.762 0.236 7.96 10.34 13.9
12/17/2020 5:30:00 PM 2.12 35.816 0.236 7.95 9.65 13.82
12/17/2020 5:45:00 PM 2.17 35.906 0.236 7.95 8.71 13.74
12/17/2020 6:00:00 PM 2.08 35.744 0.236 7.94 7.19 13.74
12/17/2020 6:15:00 PM 2.13 35.834 0.237 7.92 9.77 13.7
12/17/2020 6:30:00 PM 2.1 35.78 0.236 7.93 7.55 13.69
12/17/2020 6:45:00 PM 2.1 35.78 0.236 7.95 7.01 13.65
12/17/2020 7:00:00 PM 2.06 35.708 0.236 7.96 6.39 13.62
12/17/2020 7:15:00 PM 2.13 35.834 0.236 7.97 6.31 13.62
12/17/2020 7:30:00 PM 2.16 35.888 0.236 7.97 6.22 13.59
12/17/2020 7:45:00 PM 2.16 35.888 0.236 7.96 6.36 13.56
12/17/2020 8:00:00 PM 2.2 35.96 0.236 7.96 5.77 13.56
12/17/2020 8:15:00 PM 2.2 35.96 0.236 7.95 6.88 13.52
12/17/2020 8:30:00 PM 2.2 35.96 0.237 7.95 5.8 13.52
12/17/2020 8:45:00 PM 2.25 36.05 0.238 7.91 5.49 13.51
12/17/2020 9:00:00 PM 2.23 36.014 0.238 7.92 5.41 13.51
12/17/2020 9:15:00 PM 2.24 36.032 0.238 7.9 6.59 13.5
12/17/2020 9:30:00 PM 2.27 36.086 0.238 7.9 6.42 13.49
12/17/2020 9:45:00 PM 2.36 36.248 0.238 7.91 7.44 13.45
12/17/2020 10:00:00 PM 2.29 36.122 0.237 7.92 5.31 13.45
12/17/2020 10:15:00 PM 2.35 36.23 0.238 7.93 5.45 13.43
12/17/2020 10:30:00 PM 2.36 36.248 0.237 7.93 5.93 13.42
12/17/2020 10:45:00 PM 2.34 36.212 0.237 7.92 5.84 13.43
12/17/2020 11:00:00 PM 2.36 36.248 0.225 7.91 6.03 13.41
12/17/2020 11:15:00 PM 2.33 36.194 0.239 7.88 5.57 13.43
12/17/2020 11:30:00 PM 2.36 36.248 0.24 7.86 5.6 13.39
12/17/2020 11:45:00 PM 2.38 36.284 0.24 7.88 5.05 13.4
12/18/2020 12:00:00 AM 2.41 36.338 0.24 7.88 6.73 13.39
12/18/2020 12:15:00 AM 2.47 36.446 0.24 7.88 6.25 13.36
12/18/2020 12:30:00 AM 2.43 36.374 0.24 7.88 5.89 13.36
12/18/2020 12:45:00 AM 2.5 36.5 0.24 7.85 5.47 13.35
12/18/2020 1:00:00 AM 2.47 36.446 0.239 7.84 5.21 13.35
12/18/2020 1:15:00 AM 2.43 36.374 0.24 7.84 5.09 13.36
12/18/2020 1:30:00 AM 2.41 36.338 0.241 7.82 5.02 13.37
12/18/2020 1:45:00 AM 2.36 36.248 0.241 7.83 5.19 13.39
12/18/2020 2:00:00 AM 2.35 36.23 0.241 7.81 5.23 13.4
12/18/2020 2:15:00 AM 2.33 36.194 0.241 7.82 5.41 13.4
12/18/2020 2:30:00 AM 2.29 36.122 0.24 7.82 6.14 13.43
12/18/2020 2:45:00 AM 2.32 36.176 0.241 7.8 5.46 13.44
12/18/2020 3:00:00 AM 2.25 36.05 0.241 7.8 5.34 13.43
12/18/2020 3:15:00 AM 2.24 36.032 0.24 7.8 6.84 13.45
12/18/2020 3:30:00 AM 2.34 36.212 0.241 7.77 4.85 13.4
12/18/2020 3:45:00 AM 2.21 35.978 0.241 7.77 5.4 13.45
12/18/2020 4:00:00 AM 2.25 36.05 0.243 7.78 6.29 13.43
12/18/2020 4:15:00 AM 2.27 36.086 0.243 7.77 5.46 13.44
12/18/2020 4:30:00 AM 2.29 36.122 0.243 7.79 6.18 13.44
12/18/2020 4:45:00 AM 2.2 35.96 0.243 7.78 5.67 13.45
12/18/2020 5:00:00 AM 2.23 36.014 0.243 7.78 7.14 13.43
12/18/2020 5:15:00 AM 2.25 36.05 0.243 7.77 5.23 13.43
12/18/2020 5:30:00 AM 2.26 36.068 0.242 7.77 5.98 13.42
12/18/2020 5:45:00 AM 2.23 36.014 0.241 7.77 4.89 13.41
12/18/2020 6:00:00 AM 2.24 36.032 0.241 7.77 5.17 13.44
12/18/2020 6:15:00 AM 2.26 36.068 0.242 7.76 5.28 13.43
12/18/2020 6:30:00 AM 2.3 36.14 0.243 7.77 5.94 13.41
12/18/2020 6:45:00 AM 2.26 36.068 0.242 7.75 5.14 13.42
12/18/2020 7:00:00 AM 2.22 35.996 0.241 7.75 5.17 13.44
12/18/2020 7:15:00 AM 2.19 35.942 0.241 7.75 5.2 13.44
12/18/2020 7:30:00 AM 2.25 36.05 0.241 7.73 6.07 13.43
12/18/2020 7:45:00 AM 2.19 35.942 0.24 7.75 6.72 13.46
12/18/2020 8:00:00 AM 2.23 36.014 0.24 7.73 8.24 13.47
12/18/2020 8:15:00 AM 2.29 36.122 0.239 7.74 6.86 13.51
12/18/2020 8:30:00 AM 2.21 35.978 0.24 7.75 9.37 13.6
12/18/2020 8:45:00 AM 2.27 36.086 0.241 7.75 7.62 13.66
12/18/2020 9:00:00 AM 2.29 36.122 0.241 7.72 7.34 13.75
12/18/2020 9:15:00 AM 2.27 36.086 0.241 7.72 7.02 13.81
12/18/2020 9:30:00 AM 2.31 36.158 0.24 7.71 7.07 13.92
12/18/2020 9:45:00 AM 2.24 36.032 0.239 7.73 7.8 14.02
12/18/2020 10:00:00 AM 2.26 36.068 0.24 7.73 6.49 14.13
12/18/2020 10:15:00 AM 2.32 36.176 0.24 7.73 6.57 14.22
12/18/2020 10:30:00 AM 2.3 36.14 0.241 7.75 7.72 14.31
12/18/2020 10:45:00 AM 2.38 36.284 0.242 7.76 6.67 14.34
12/18/2020 11:00:00 AM 2.47 36.446 0.244 7.78 9.43 14.38
12/18/2020 11:15:00 AM 2.53 36.554 0.246 7.78 7.62 14.43
12/18/2020 11:30:00 AM 2.49 36.482 0.247 7.79 7.57 14.49
12/18/2020 11:45:00 AM 2.62 36.716 0.247 7.77 11.11 14.5
12/18/2020 12:00:00 PM 2.68 36.824 0.248 7.79 6.63 14.54
12/18/2020 12:15:00 PM 2.73 36.914 0.249 7.8 6.46 14.57
12/18/2020 12:30:00 PM 2.77 36.986 0.25 7.8 9.34 14.6
12/18/2020 12:45:00 PM 2.77 36.986 0.252 7.81 7.02 14.62
12/18/2020 1:00:00 PM 2.86 37.148 0.253 7.82 6.62 14.58
12/18/2020 1:15:00 PM 2.87 37.166 0.256 7.83 7.68 14.58
12/18/2020 1:30:00 PM 2.84 37.112 0.259 7.86 7.77 14.59
12/18/2020 1:45:00 PM 2.83 37.094 0.261 7.86 7.9 14.57
12/18/2020 2:00:00 PM 2.86 37.148 0.261 7.86 7.36 14.53
12/18/2020 2:15:00 PM 2.94 37.292 0.261 7.86 6.52 14.53
12/18/2020 2:30:00 PM 2.86 37.148 0.261 7.86 6.98 14.53
12/18/2020 2:45:00 PM 2.85 37.13 0.261 7.87 6.15 14.51
12/18/2020 3:00:00 PM 2.82 37.076 0.261 7.86 7.03 14.48
12/18/2020 3:15:00 PM 2.76 36.968 0.261 7.86 7.99 14.41
12/18/2020 3:30:00 PM 2.75 36.95 0.261 7.86 8.77 14.34
12/18/2020 3:45:00 PM 2.75 36.95 0.262 7.87 9.55 14.31
12/18/2020 4:00:00 PM 2.77 36.986 0.262 7.86 7.43 14.24
12/18/2020 4:15:00 PM 2.71 36.878 0.262 7.86 6.23 14.21
12/18/2020 4:30:00 PM 2.63 36.734 0.262 7.85 5.77 14.13
12/18/2020 4:45:00 PM 2.63 36.734 0.261 7.84 5.79 14.06
12/18/2020 5:00:00 PM 2.54 36.572 0.261 7.84 6.11 13.98
12/18/2020 5:15:00 PM 2.54 36.572 0.26 7.84 9.89 13.9
12/18/2020 5:30:00 PM 2.44 36.392 0.259 7.81 6.9 13.86
12/18/2020 5:45:00 PM 2.43 36.374 0.258 7.82 6.93 13.81
12/18/2020 6:00:00 PM 2.4 36.32 0.257 7.8 7.45 13.75
12/18/2020 6:15:00 PM 2.35 36.23 0.257 7.8 6.84 13.72
12/18/2020 6:30:00 PM 2.3 36.14 0.258 7.79 7 13.69
12/18/2020 6:45:00 PM 2.21 35.978 0.257 7.78 5.44 13.69
12/18/2020 7:00:00 PM 2.21 35.978 0.257 7.78 5.26 13.68
12/18/2020 7:15:00 PM 2.17 35.906 0.256 7.78 5.71 13.67
12/18/2020 7:30:00 PM 2.11 35.798 0.255 7.77 8.05 13.66
12/18/2020 7:45:00 PM 2.04 35.672 0.254 7.77 5.01 13.67
12/18/2020 8:00:00 PM 2.08 35.744 0.253 7.76 6.79 13.64
12/18/2020 8:15:00 PM 2.1 35.78 0.252 7.75 4.75 13.63
12/18/2020 8:30:00 PM 2.09 35.762 0.252 7.76 6.27 13.61
12/18/2020 8:45:00 PM 2.09 35.762 0.253 7.75 4.96 13.6
12/18/2020 9:00:00 PM 2.03 35.654 0.254 7.75 4.94 13.6
12/18/2020 9:15:00 PM 2.05 35.69 0.254 7.74 6.05 13.59
12/18/2020 9:30:00 PM 2.05 35.69 0.253 7.73 4.86 13.61
12/18/2020 9:45:00 PM 1.99 35.582 0.253 7.72 5.3 13.6
12/18/2020 10:00:00 PM 1.9 35.42 0.252 7.68 5.69 13.6
12/18/2020 10:15:00 PM 1.94 35.492 0.251 6.6 4.26 13.62
12/18/2020 10:30:00 PM 1.94 35.492 0.251 7.53 4.32 13.59
12/18/2020 10:45:00 PM 1.9 35.42 0.251 7.61 4.83 13.57
12/18/2020 11:00:00 PM 1.9 35.42 0.252 7.52 4.9 13.58
12/18/2020 11:15:00 PM 1.82 35.276 0.253 7.67 4.42 13.59
12/18/2020 11:30:00 PM 1.83 35.294 0.253 7.68 4.42 13.6
12/18/2020 11:45:00 PM 1.74 35.132 0.253 7.68 9.31 13.64
12/19/2020 12:00:00 AM 1.79 35.222 0.252 7.69 5.49 13.62
12/19/2020 12:15:00 AM 1.79 35.222 0.252 7.7 4.94 13.61
12/19/2020 12:30:00 AM 1.74 35.132 0.251 7.69 5.01 13.62
12/19/2020 12:45:00 AM 1.8 35.24 0.251 7.69 4.14 13.61
12/19/2020 1:00:00 AM 1.81 35.258 0.251 7.66 7.68 13.58
12/19/2020 1:15:00 AM 1.81 35.258 0.251 7.67 5.12 13.56
12/19/2020 1:30:00 AM 1.76 35.168 0.252 7.68 4.77 13.58
12/19/2020 1:45:00 AM 1.71 35.078 0.253 7.66 4.18 13.58
12/19/2020 2:00:00 AM 1.66 34.988 0.253 7.67 4.81 13.61
12/19/2020 2:15:00 AM 1.61 34.898 0.253 7.68 3.95 13.61
12/19/2020 2:30:00 AM 1.63 34.934 0.253 7.66 4.27 13.61
12/19/2020 2:45:00 AM 1.58 34.844 0.253 7.68 4.42 13.63
12/19/2020 3:00:00 AM 1.59 34.862 0.253 7.68 4.57 13.63
12/19/2020 3:15:00 AM 1.59 34.862 0.252 7.67 4.13 13.58
12/19/2020 3:30:00 AM 1.58 34.844 0.252 7.68 4.63 13.58
12/19/2020 3:45:00 AM 1.63 34.934 0.253 7.67 4.93 13.56
12/19/2020 4:00:00 AM 1.62 34.916 0.254 7.69 4.33 13.6
12/19/2020 4:15:00 AM 1.56 34.808 0.255 7.7 6.05 13.59
12/19/2020 4:30:00 AM 1.59 34.862 0.255 7.69 4.71 13.56
12/19/2020 4:45:00 AM 1.57 34.826 0.255 7.74 4.93 13.59
12/19/2020 5:00:00 AM 1.56 34.808 0.254 7.75 4.38 13.57
12/19/2020 5:15:00 AM 1.56 34.808 0.254 7.78 4.19 13.56
12/19/2020 5:30:00 AM 1.56 34.808 0.253 7.76 5.37 13.58
12/19/2020 5:45:00 AM 1.58 34.844 0.253 7.79 4.11 13.55
12/19/2020 6:00:00 AM 1.65 34.97 0.253 7.81 4.73 13.55
12/19/2020 6:15:00 AM 1.57 34.826 0.254 7.83 4.58 13.53
12/19/2020 6:30:00 AM 1.54 34.772 0.256 7.82 4.26 13.54
12/19/2020 6:45:00 AM 1.57 34.826 0.256 7.82 4.18 13.54
12/19/2020 7:00:00 AM 1.54 34.772 0.256 7.84 5.01 13.54
12/19/2020 7:15:00 AM 1.44 34.592 0.255 7.83 5.19 13.58
12/19/2020 7:30:00 AM 1.48 34.664 0.255 7.82 8.38 13.55
12/19/2020 7:45:00 AM 1.52 34.736 0.254 7.81 7.76 13.58
12/19/2020 8:00:00 AM 1.53 34.754 0.254 7.75 7.79 13.63
12/19/2020 8:15:00 AM 1.57 34.826 0.253 7.74 9.96 13.67
12/19/2020 8:30:00 AM 1.57 34.826 0.253 7.76 8.23 13.74
12/19/2020 8:45:00 AM 1.58 34.844 0.255 7.75 8.51 13.86
12/19/2020 9:00:00 AM 1.62 34.916 0.256 7.82 11.11 13.97
12/19/2020 9:15:00 AM 1.64 34.952 0.255 7.81 8.84 14.1
12/19/2020 9:30:00 AM 1.57 34.826 0.255 7.79 8.36 14.19
12/19/2020 9:45:00 AM 1.71 35.078 0.254 7.81 10.81 14.28
12/19/2020 10:00:00 AM 1.78 35.204 0.253 7.81 8.86 14.36
12/19/2020 10:15:00 AM 1.21 34.178 0.255 7.79 9.31 14.74
12/19/2020 10:30:00 AM 1.7 35.06 0.254 7.81 10.3 14.64
12/19/2020 10:45:00 AM 1.89 35.402 0.254 7.8 10.94 14.64
12/19/2020 11:00:00 AM 1.87 35.366 0.255 7.81 12.19 14.74
12/19/2020 11:15:00 AM 1.83 35.294 0.256 7.83 9.66 14.82
12/19/2020 11:30:00 AM 1.78 35.204 0.257 7.85 9.45 14.9
12/19/2020 11:45:00 AM 1.7 35.06 0.256 7.86 10.33 15.02
12/19/2020 12:00:00 PM 1.67 35.006 0.256 7.85 7.99 15.12
12/19/2020 12:15:00 PM 1.65 34.97 0.256 7.86 12.53 15.15
12/19/2020 12:30:00 PM 1.63 34.934 0.256 7.86 9.57 15.18
12/19/2020 12:45:00 PM 1.69 35.042 0.256 7.87 13.3 15.17
12/19/2020 1:00:00 PM 1.76 35.168 0.256 7.87 9.75 15.16
12/19/2020 1:15:00 PM 1.87 35.366 0.256 7.89 10.23 15.1
12/19/2020 1:30:00 PM 1.97 35.546 0.257 7.87 8.86 15.09
12/19/2020 1:45:00 PM 2.04 35.672 0.258 7.87 8.38 15.06
12/19/2020 2:00:00 PM 2.02 35.636 0.258 7.87 8.22 15.08
12/19/2020 2:15:00 PM 2.02 35.636 0.258 7.87 7.82 15.06
12/19/2020 2:30:00 PM 2.06 35.708 0.258 7.88 9.41 15.06
12/19/2020 2:45:00 PM 2.15 35.87 0.257 7.88 8.51 14.99
12/19/2020 3:00:00 PM 2.2 35.96 0.257 7.87 8.64 14.96
12/19/2020 3:15:00 PM 2.17 35.906 0.258 7.89 10.84 14.91
12/19/2020 3:30:00 PM 2.21 35.978 0.258 7.89 8.76 14.86
12/19/2020 3:45:00 PM 2.17 35.906 0.259 7.89 10.51 14.76
12/19/2020 4:00:00 PM 2.25 36.05 0.26 7.9 8.4 14.67
12/19/2020 4:15:00 PM 2.19 35.942 0.261 7.9 9.59 14.55
12/19/2020 4:30:00 PM 2.13 35.834 0.262 7.88 8.07 14.48
12/19/2020 4:45:00 PM 2.16 35.888 0.262 7.87 6.97 14.33
12/19/2020 5:00:00 PM 2.14 35.852 0.262 7.86 8.51 14.26
12/19/2020 5:15:00 PM 2.08 35.744 0.263 7.86 6.4 14.17
12/19/2020 5:30:00 PM 2.12 35.816 0.263 7.84 7.97 14.06
12/19/2020 5:45:00 PM 2.11 35.798 0.262 7.83 7.41 13.99
12/19/2020 6:00:00 PM 2.06 35.708 0.262 7.82 6.04 13.94
12/19/2020 6:15:00 PM 1.94 35.492 0.263 7.8 6.71 13.95
12/19/2020 6:30:00 PM 1.91 35.438 0.264 7.79 5.75 13.92
12/19/2020 6:45:00 PM 1.87 35.366 0.264 7.78 5.36 13.92
12/19/2020 7:00:00 PM 1.87 35.366 0.264 7.79 6.09 13.88
12/19/2020 7:15:00 PM 1.81 35.258 0.264 7.78 6.78 13.88
12/19/2020 7:30:00 PM 1.79 35.222 0.264 7.76 5.84 13.86
12/19/2020 7:45:00 PM 1.85 35.33 0.263 7.75 5.45 13.82
12/19/2020 8:00:00 PM 1.85 35.33 0.262 7.74 4.32 13.8
12/19/2020 8:15:00 PM 1.9 35.42 0.262 7.73 4.8 13.75
12/19/2020 8:30:00 PM 1.91 35.438 0.261 7.73 5.46 13.74
12/19/2020 8:45:00 PM 1.94 35.492 0.262 7.71 5.13 13.72
12/19/2020 9:00:00 PM 1.93 35.474 0.263 7.71 7.63 13.71
12/19/2020 9:15:00 PM 1.95 35.51 0.262 7.7 5.38 13.69
12/19/2020 9:30:00 PM 1.89 35.402 0.263 7.7 4.57 13.71
12/19/2020 9:45:00 PM 1.96 35.528 0.262 7.7 4.71 13.67
12/19/2020 10:00:00 PM 2.03 35.654 0.261 7.69 4.22 13.64
12/19/2020 10:15:00 PM 1.98 35.564 0.261 7.67 4.82 13.64
12/19/2020 10:30:00 PM 2.02 35.636 0.26 7.68 5.94 13.6
12/19/2020 10:45:00 PM 2.02 35.636 0.259 7.66 4.89 13.58
12/19/2020 11:00:00 PM 2.03 35.654 0.26 7.67 4.64 13.59
12/19/2020 11:15:00 PM 1.99 35.582 0.261 7.67 3.85 13.58
12/19/2020 11:30:00 PM 2.03 35.654 0.261 7.64 4.88 13.58
12/19/2020 11:45:00 PM 2.05 35.69 0.261 7.63 4.34 13.58
12/20/2020 12:00:00 AM 2.05 35.69 0.261 7.64 4.21 13.54
12/20/2020 12:15:00 AM 2.03 35.654 0.26 7.72 4.58 13.58
12/20/2020 12:30:00 AM 2.05 35.69 0.259 7.71 4.32 13.59
12/20/2020 12:45:00 AM 2.02 35.636 0.259 7.71 3.89 13.6
12/20/2020 1:00:00 AM 2.05 35.69 0.258 7.68 4.14 13.58
12/20/2020 1:15:00 AM 2.03 35.654 0.258 7.68 4.48 13.56
12/20/2020 1:30:00 AM 2.03 35.654 0.259 7.7 4.51 13.56
12/20/2020 1:45:00 AM 2.05 35.69 0.26 7.72 4.51 13.57
12/20/2020 2:00:00 AM 2.04 35.672 0.26 7.73 4.45 13.56
12/20/2020 2:15:00 AM 2.05 35.69 0.261 7.73 4.09 13.55
12/20/2020 2:30:00 AM 2.04 35.672 0.26 7.73 4.01 13.56
12/20/2020 2:45:00 AM 2.04 35.672 0.26 7.74 4.19 13.56
12/20/2020 3:00:00 AM 2 35.6 0.26 7.74 6.42 13.56
12/20/2020 3:15:00 AM 2.03 35.654 0.259 7.74 4.22 13.54
12/20/2020 3:30:00 AM 2.01 35.618 0.258 7.74 4.62 13.53
12/20/2020 3:45:00 AM 2.07 35.726 0.259 7.73 4.31 13.52
12/20/2020 4:00:00 AM 2.05 35.69 0.26 7.71 4.42 13.51
12/20/2020 4:15:00 AM 2.04 35.672 0.261 7.71 4.17 13.52
12/20/2020 4:30:00 AM 2.01 35.618 0.261 7.5 4.24 13.53
12/20/2020 4:45:00 AM 2.02 35.636 0.261 7.62 4.83 13.51
12/20/2020 5:00:00 AM 2.07 35.726 0.261 7.57 4.58 13.5
12/20/2020 5:15:00 AM 2.04 35.672 0.26 7.63 4.88 13.51
12/20/2020 5:30:00 AM 1.98 35.564 0.261 7.67 4.16 13.49
12/20/2020 5:45:00 AM 2.12 35.816 0.26 7.66 4.05 13.46
12/20/2020 6:00:00 AM 2.06 35.708 0.26 7.67 4.67 13.46
12/20/2020 6:15:00 AM 2.04 35.672 0.261 7.68 4.66 13.46
12/20/2020 6:30:00 AM 2.1 35.78 0.262 7.67 4.36 13.44
12/20/2020 6:45:00 AM 2.07 35.726 0.263 7.68 5.55 13.43
12/20/2020 7:00:00 AM 2 35.6 0.263 7.67 4.83 13.46
12/20/2020 7:15:00 AM 2.05 35.69 0.262 7.65 4.6 13.45
12/20/2020 7:30:00 AM 2.09 35.762 0.261 7.63 5.56 13.43
12/20/2020 7:45:00 AM 2.1 35.78 0.261 7.64 5.85 13.42
12/20/2020 8:00:00 AM 2.12 35.816 0.26 7.66 6.26 13.42
12/20/2020 8:15:00 AM 2.13 35.834 0.26 7.68 5.45 13.49
12/20/2020 8:30:00 AM 2.15 35.87 0.26 7.66 7.44 13.55
12/20/2020 8:45:00 AM 2.2 35.96 0.261 7.66 5.63 13.65
12/20/2020 9:00:00 AM 2.17 35.906 0.261 7.66 6.43 13.75
12/20/2020 9:15:00 AM 2.27 36.086 0.26 7.69 7.11 13.83
12/20/2020 9:30:00 AM 2.4 36.32 0.259 7.69 6.53 13.93
12/20/2020 9:45:00 AM 2.31 36.158 0.258 7.7 5.54 14.05
12/20/2020 10:00:00 AM 2.42 36.356 0.257 7.69 6.37 14.05
12/20/2020 10:15:00 AM 2.47 36.446 0.256 7.7 9.31 14.16
12/20/2020 10:30:00 AM 2.59 36.662 0.255 7.7 6.44 14.26
12/20/2020 10:45:00 AM 2.65 36.77 0.255 7.7 6.56 14.31
12/20/2020 11:00:00 AM 2.72 36.896 0.254 7.72 6.58 14.38
12/20/2020 11:15:00 AM 2.82 37.076 0.255 7.71 7.05 14.45
12/20/2020 11:30:00 AM 2.91 37.238 0.255 7.71 5.39 14.52
12/20/2020 11:45:00 AM 2.91 37.238 0.254 7.74 5.97 14.53
12/20/2020 12:00:00 PM 2.93 37.274 0.252 7.76 5.83 14.56
12/20/2020 12:15:00 PM 3.06 37.508 0.251 7.75 5.93 14.53
12/20/2020 12:30:00 PM 3.05 37.49 0.25 7.75 5.63 14.56
12/20/2020 12:45:00 PM 3.08 37.544 0.25 7.74 6.22 14.6
12/20/2020 1:00:00 PM 3.19 37.742 0.249 7.74 4.72 14.55
12/20/2020 1:15:00 PM 3.25 37.85 0.249 7.75 6.1 14.54
12/20/2020 1:30:00 PM 3.27 37.886 0.25 7.8 5.76 14.56
12/20/2020 1:45:00 PM 3.23 37.814 0.25 7.8 6.42 14.56
12/20/2020 2:00:00 PM 3.34 38.012 0.25 7.8 5.58 14.5
12/20/2020 2:15:00 PM 3.29 37.922 0.249 7.82 6.52 14.5
12/20/2020 2:30:00 PM 3.37 38.066 0.248 7.81 7.82 14.47
12/20/2020 2:45:00 PM 3.37 38.066 0.248 7.81 6.25 14.44
12/20/2020 3:00:00 PM 3.35 38.03 0.248 7.79 6.14 14.4
12/20/2020 3:15:00 PM 3.41 38.138 0.248 7.78 5.43 14.35
12/20/2020 3:30:00 PM 3.35 38.03 0.248 7.78 6.89 14.3
12/20/2020 3:45:00 PM 3.27 37.886 0.249 7.78 5.77 14.21
12/20/2020 4:00:00 PM 3.28 37.904 0.25 7.77 6.72 14.09
12/20/2020 4:15:00 PM 3.23 37.814 0.251 7.87 8.13 14.02
12/20/2020 4:30:00 PM 3.16 37.688 0.251 7.9 9.04 13.95
12/20/2020 4:45:00 PM 3.09 37.562 0.251 7.88 5.97 13.85
12/20/2020 5:00:00 PM 2.98 37.364 0.251 7.88 5.5 13.73
12/20/2020 5:15:00 PM 3.05 37.49 0.251 7.86 6.12 13.64
12/20/2020 5:30:00 PM 3 37.4 0.251 7.86 5.34 13.56
12/20/2020 5:45:00 PM 2.92 37.256 0.251 7.84 5.4 13.5
12/20/2020 6:00:00 PM 2.97 37.346 0.251 7.85 5.83 13.43
12/20/2020 6:15:00 PM 2.99 37.382 0.252 7.84 5.39 13.37
12/20/2020 6:30:00 PM 2.91 37.238 0.252 7.86 5.91 13.32
12/20/2020 6:45:00 PM 2.9 37.22 0.253 7.86 5.85 13.33
12/20/2020 7:00:00 PM 2.83 37.094 0.253 7.87 7.44 13.3
12/20/2020 7:15:00 PM 2.91 37.238 0.253 7.87 5.75 13.27
12/20/2020 7:30:00 PM 2.85 37.13 0.253 7.88 6.01 13.25
12/20/2020 7:45:00 PM 2.8 37.04 0.252 7.86 6.21 13.26
12/20/2020 8:00:00 PM 2.81 37.058 0.252 7.89 4.54 13.2
12/20/2020 8:15:00 PM 2.8 37.04 0.251 7.89 4.9 13.22
12/20/2020 8:30:00 PM 2.8 37.04 0.251 7.88 5.4 13.19
12/20/2020 8:45:00 PM 2.77 36.986 0.252 7.89 5.88 13.19
12/20/2020 9:00:00 PM 2.76 36.968 0.251 7.89 4.94 13.17
12/20/2020 9:15:00 PM 2.77 36.986 0.252 7.88 6.16 13.14
12/20/2020 9:30:00 PM 2.76 36.968 0.252 7.86 5.53 13.17
12/20/2020 9:45:00 PM 2.82 37.076 0.253 7.86 5.48 13.15
12/20/2020 10:00:00 PM 2.73 36.914 0.252 7.86 5.47 13.13
12/20/2020 10:15:00 PM 2.77 36.986 0.251 7.86 7.35 13.11
12/20/2020 10:30:00 PM 2.77 36.986 0.251 7.86 5.43 13.12
12/20/2020 10:45:00 PM 2.78 37.004 0.25 7.86 6.02 13.08
12/20/2020 11:00:00 PM 2.8 37.04 0.252 7.85 5.33 13.09
12/20/2020 11:15:00 PM 2.78 37.004 0.252 7.85 6.32 13.11
12/20/2020 11:30:00 PM 2.86 37.148 0.253 7.85 5.51 13.05
12/20/2020 11:45:00 PM 2.81 37.058 0.253 7.85 6.43 13.06
12/21/2020 12:00:00 AM 2.89 37.202 0.253 7.85 5.49 13.03
12/21/2020 12:15:00 AM 2.87 37.166 0.252 7.83 5.15 13.04
12/21/2020 12:30:00 AM 2.86 37.148 0.251 7.84 6.69 13.02
12/21/2020 12:45:00 AM 2.93 37.274 0.251 7.85 6.37 13
12/21/2020 1:00:00 AM 2.92 37.256 0.251 7.84 8.96 12.98
12/21/2020 1:15:00 AM 2.97 37.346 0.251 7.83 5.72 12.97
12/21/2020 1:30:00 AM 2.91 37.238 0.244 7.84 7.94 12.99
12/21/2020 1:45:00 AM 2.98 37.364 0.246 7.86 5.71 12.95
12/21/2020 2:00:00 AM 2.96 37.328 0.246 7.89 6.99 12.94
12/21/2020 2:15:00 AM 2.99 37.382 0.244 7.88 5.93 12.93
12/21/2020 2:30:00 AM 3.04 37.472 0.254 7.89 6.74 12.92
12/21/2020 2:45:00 AM 3.08 37.544 0.238 7.89 7.86 12.89
12/21/2020 3:00:00 AM 3.03 37.454 0.253 7.9 6.9 12.9
12/21/2020 3:15:00 AM 3.06 37.508 0.252 7.9 5.65 12.87
12/21/2020 3:30:00 AM 3.05 37.49 0.252 7.89 8.32 12.87
12/21/2020 3:45:00 AM 3.11 37.598 0.253 7.91 5.71 12.86
12/21/2020 4:00:00 AM 3.11 37.598 0.254 7.9 5.85 12.84
12/21/2020 4:15:00 AM 3.09 37.562 0.254 7.91 5.76 12.83
12/21/2020 4:30:00 AM 3.1 37.58 0.254 7.91 7.11 12.83
12/21/2020 4:45:00 AM 3.14 37.652 0.254 7.91 6.23 12.8
12/21/2020 5:00:00 AM 3.1 37.58 0.254 7.91 6.95 12.82
12/21/2020 5:15:00 AM 3.13 37.634 0.254 7.92 9.47 12.79
12/21/2020 5:30:00 AM 3.14 37.652 0.253 7.21 9.05 12.81
12/21/2020 5:45:00 AM 3.19 37.742 0.252 7.61 5.28 12.76
12/21/2020 6:00:00 AM 3.24 37.832 0.252 7.84 6.42 12.75
12/21/2020 6:15:00 AM 3.23 37.814 0.253 7.87 5.78 12.74
12/21/2020 6:30:00 AM 3.23 37.814 0.253 7.88 5.93 12.73
12/21/2020 6:45:00 AM 3.21 37.778 0.254 7.86 5.59 12.76
12/21/2020 7:00:00 AM 3.22 37.796 0.253 7.88 5.39 12.73
12/21/2020 7:15:00 AM 3.26 37.868 0.253 7.88 5.9 12.73
12/21/2020 7:30:00 AM 3.26 37.868 0.252 7.89 6.09 12.7
12/21/2020 7:45:00 AM 3.25 37.85 0.251 7.85 9.2 12.73
12/21/2020 8:00:00 AM 3.24 37.832 0.251 7.88 6.68 12.76
12/21/2020 8:15:00 AM 3.31 37.958 0.251 7.87 7.34 12.79
12/21/2020 8:30:00 AM 3.33 37.994 0.251 7.86 7.74 12.84
12/21/2020 8:45:00 AM 3.39 38.102 0.252 7.88 7.14 12.93
12/21/2020 9:00:00 AM 3.38 38.084 0.252 7.89 18.72 13.03
12/21/2020 9:15:00 AM 3.41 38.138 0.251 7.9 7.28 13.13
12/21/2020 9:30:00 AM 3.42 38.156 0.25 7.91 7.54 13.23
12/21/2020 9:45:00 AM 3.52 38.336 0.249 7.89 6.4 13.36
12/21/2020 10:00:00 AM 3.58 38.444 0.249 7.92 6.81 13.5
12/21/2020 10:15:00 AM 3.62 38.516 0.249 7.92 8.88 13.6
12/21/2020 10:30:00 AM 3.68 38.624 0.249 7.95 6.91 13.66
12/21/2020 10:45:00 AM 3.78 38.804 0.249 7.96 6.3 13.73
12/21/2020 11:00:00 AM 3.84 38.912 0.249 7.96 7.3 13.82
12/21/2020 11:15:00 AM 3.92 39.056 0.25 7.97 6.73 13.89
12/21/2020 11:30:00 AM 3.97 39.146 0.25 8 7.57 13.99
12/21/2020 11:45:00 AM 4.09 39.362 0.249 8.01 5.78 14.03
12/21/2020 12:00:00 PM 4.2 39.56 0.248 8.02 6.27 14.08
12/21/2020 12:15:00 PM 4.32 39.776 0.247 8.03 6.24 14.07
12/21/2020 12:30:00 PM 4.36 39.848 0.247 8.03 7.12 14.1
12/21/2020 12:45:00 PM 4.39 39.902 0.247 8.04 7.37 14.08
12/21/2020 1:00:00 PM 4.45 40.01 0.247 8.04 7.67 14.04
12/21/2020 1:15:00 PM 4.46 40.028 0.248 8.05 8.48 14.03
12/21/2020 1:30:00 PM 4.49 40.082 0.248 8.05 6.76 14.04
12/21/2020 1:45:00 PM 4.56 40.208 0.248 8.05 7.04 14.03
12/21/2020 2:00:00 PM 4.63 40.334 0.248 8.06 7.43 14.07
12/21/2020 2:15:00 PM 4.67 40.406 0.247 8.06 8.24 14.07
12/21/2020 2:30:00 PM 4.69 40.442 0.247 8.06 14.03 13.96
12/21/2020 2:45:00 PM 4.67 40.406 0.247 8.07 9.72 13.89
12/21/2020 3:00:00 PM 4.68 40.424 0.246 8.06 8.52 13.86
12/21/2020 3:15:00 PM 4.63 40.334 0.247 8.05 7.53 13.8
12/21/2020 3:30:00 PM 4.65 40.37 0.247 8.05 7.56 13.69
12/21/2020 3:45:00 PM 4.65 40.37 0.249 8.06 8.55 13.6
12/21/2020 4:00:00 PM 4.62 40.316 0.249 8.05 9.16 13.53
12/21/2020 4:15:00 PM 4.61 40.298 0.25 8.02 6.06 13.44
12/21/2020 4:30:00 PM 4.57 40.226 0.25 8.02 6.54 13.34
12/21/2020 4:45:00 PM 4.53 40.154 0.25 8.01 7.7 13.2
12/21/2020 5:00:00 PM 4.48 40.064 0.25 8.02 7.84 13.06
12/21/2020 5:15:00 PM 4.45 40.01 0.25 7.99 7.39 12.95
12/21/2020 5:30:00 PM 4.41 39.938 0.25 7.95 8.27 12.89
12/21/2020 5:45:00 PM 4.38 39.884 0.25 7.91 7.48 12.82
12/21/2020 6:00:00 PM 4.36 39.848 0.247 7.9 6.28 12.74
12/21/2020 6:15:00 PM 4.33 39.794 0.252 7.91 7.09 12.71
12/21/2020 6:30:00 PM 4.3 39.74 0.246 7.91 6.98 12.64
12/21/2020 6:45:00 PM 4.29 39.722 0.25 7.9 7.03 12.6
12/21/2020 7:00:00 PM 4.26 39.668 0.253 7.91 6.86 12.57
12/21/2020 7:15:00 PM 4.22 39.596 0.253 7.92 6.64 12.55
12/21/2020 7:30:00 PM 4.22 39.596 0.253 7.92 7.49 12.54
12/21/2020 7:45:00 PM 4.2 39.56 0.245 7.88 8.27 12.52
12/21/2020 8:00:00 PM 4.19 39.542 0.249 7.83 8.25 12.5
12/21/2020 8:15:00 PM 4.2 39.56 0.252 7.87 7.68 12.49
12/21/2020 8:30:00 PM 4.22 39.596 0.253 7.88 7.89 12.46
12/21/2020 8:45:00 PM 4.2 39.56 0.252 7.89 7.49 12.45
12/21/2020 9:00:00 PM 4.21 39.578 0.252 7.89 8.97 12.44
12/21/2020 9:15:00 PM 4.22 39.596 0.252 7.88 7.53 12.42
12/21/2020 9:30:00 PM 4.22 39.596 0.252 7.86 7.7 12.42
12/21/2020 9:45:00 PM 4.23 39.614 0.252 7.84 8.02 12.41
12/21/2020 10:00:00 PM 4.23 39.614 0.251 7.86 8.5 12.38
12/21/2020 10:15:00 PM 4.22 39.596 0.251 7.87 7.92 12.37
12/21/2020 10:30:00 PM 4.25 39.65 0.25 7.89 10.4 12.37
12/21/2020 10:45:00 PM 4.26 39.668 0.251 7.89 8.69 12.36
12/21/2020 11:00:00 PM 4.28 39.704 0.252 7.85 8.78 12.34
12/21/2020 11:15:00 PM 4.28 39.704 0.252 7.86 9.17 12.32
12/21/2020 11:30:00 PM 4.29 39.722 0.252 7.86 9.42 12.32
12/21/2020 11:45:00 PM 4.27 39.686 0.252 7.86 9.92 12.33
12/22/2020 12:00:00 AM 4.28 39.704 0.252 7.86 11.54 12.33
12/22/2020 12:15:00 AM 4.3 39.74 0.252 7.88 9.97 12.3
12/22/2020 12:30:00 AM 4.29 39.722 0.251 7.87 10.26 12.3
12/22/2020 12:45:00 AM 4.28 39.704 0.25 7.9 10.62 12.31
12/22/2020 1:00:00 AM 4.29 39.722 0.251 7.88 10.79 12.29
12/22/2020 1:15:00 AM 4.3 39.74 0.252 7.89 10.29 12.29
12/22/2020 1:30:00 AM 4.29 39.722 0.252 7.88 10.35 12.28
12/22/2020 1:45:00 AM 4.28 39.704 0.253 7.88 12.77 12.28
12/22/2020 2:00:00 AM 4.27 39.686 0.253 7.86 11.15 12.28
12/22/2020 2:15:00 AM 4.28 39.704 0.253 7.85 10.35 12.27
12/22/2020 2:30:00 AM 4.28 39.704 0.253 7.75 8.47 12.27
12/22/2020 2:45:00 AM 4.28 39.704 0.253 7.79 9.78 12.26
12/22/2020 3:00:00 AM 4.28 39.704 0.252 7.82 11.14 12.26
12/22/2020 3:15:00 AM 4.26 39.668 0.252 7.84 11.92 12.24
12/22/2020 3:30:00 AM 4.28 39.704 0.253 7.78 10.62 12.24
12/22/2020 3:45:00 AM 4.27 39.686 0.254 7.78 10.13 12.25
12/22/2020 4:00:00 AM 4.28 39.704 0.254 7.81 15.05 12.23
12/22/2020 4:15:00 AM 4.26 39.668 0.254 7.8 13.49 12.24
12/22/2020 4:30:00 AM 4.25 39.65 0.254 7.73 10.12 12.25
12/22/2020 4:45:00 AM 4.25 39.65 0.254 7.76 10.24 12.24
12/22/2020 5:00:00 AM 4.23 39.614 0.254 7.8 15.79 12.24
12/22/2020 5:15:00 AM 4.2 39.56 0.25 7.68 22.59 12.25
12/22/2020 5:30:00 AM 4.21 39.578 0.252 7.64 10.72 12.26
12/22/2020 5:45:00 AM 4.19 39.542 0.252 7.53 10.11 12.26
12/22/2020 6:00:00 AM 4.17 39.506 0.252 7.71 17.45 12.26
12/22/2020 6:15:00 AM 4.15 39.47 0.253 7.56 9.28 12.26
12/22/2020 6:30:00 AM 4.12 39.416 0.24 7.66 23.71 12.27
12/22/2020 6:45:00 AM 4.09 39.362 0.237 7.64 11.24 12.29
12/22/2020 7:00:00 AM 4.05 39.29 0.237 7.69 8.69 12.3
12/22/2020 7:15:00 AM 4.02 39.236 0.236 7.74 12.31 12.3
12/22/2020 7:30:00 AM 4.02 39.236 0.237 7.7 9.2 12.33
12/22/2020 7:45:00 AM 4 39.2 0.236 7.59 14.2 12.34
12/22/2020 8:00:00 AM 4.03 39.254 0.237 7.66 10.3 12.41
12/22/2020 8:15:00 AM 4.05 39.29 0.238 7.64 8.15 12.48
12/22/2020 8:30:00 AM 4.09 39.362 0.238 7.62 7.92 12.59
12/22/2020 8:45:00 AM 4.1 39.38 0.237 7.75 11.6 12.7
12/22/2020 9:00:00 AM 4.12 39.416 0.238 7.78 9.22 12.83
12/22/2020 9:15:00 AM 4.18 39.524 0.237 7.71 7.12 12.97
12/22/2020 9:30:00 AM 4.24 39.632 0.237 7.71 7.79 13.11
12/22/2020 9:45:00 AM 4.33 39.794 0.236 7.44 9.62 13.23
12/22/2020 10:00:00 AM 4.36 39.848 0.236 7.76 11.72 13.28
12/22/2020 10:15:00 AM 4.39 39.902 0.235 7.8 6.74 13.32
12/22/2020 10:30:00 AM 4.4 39.92 0.235 7.84 6.89 13.34
12/22/2020 10:45:00 AM 4.42 39.956 0.236 7.85 9.23 13.36
12/22/2020 11:00:00 AM 4.45 40.01 0.236 7.74 8.43 13.4
12/22/2020 11:15:00 AM 4.51 40.118 0.236 7.82 7.95 13.44
12/22/2020 11:30:00 AM 4.58 40.244 0.236 7.85 7.84 13.52
12/22/2020 11:45:00 AM 4.65 40.37 0.235 7.88 7.2 13.62
12/22/2020 12:00:00 PM 4.72 40.496 0.235 7.9 8.84 13.65
12/22/2020 12:15:00 PM 4.73 40.514 0.235 7.93 11.24 13.64
12/22/2020 12:30:00 PM 4.76 40.568 0.235 7.93 25.08 13.6
12/22/2020 12:45:00 PM 4.74 40.532 0.236 7.92 7.46 13.56
12/22/2020 1:00:00 PM 4.77 40.586 0.236 7.96 7.31 13.55
12/22/2020 1:15:00 PM 4.77 40.586 0.237 7.97 7.68 13.58
12/22/2020 1:30:00 PM 4.82 40.676 0.237 7.99 7.87 13.64
12/22/2020 1:45:00 PM 4.88 40.784 0.238 8.04 10.43 13.69
12/22/2020 2:00:00 PM 4.91 40.838 0.238 8.03 8.84 13.77
12/22/2020 2:15:00 PM 4.93 40.874 0.238 8.03 8.28 13.77
12/22/2020 2:30:00 PM 4.93 40.874 0.238 8.02 6.57 13.64
12/22/2020 2:45:00 PM 4.92 40.856 0.238 7.98 7.58 13.54
12/22/2020 3:00:00 PM 4.89 40.802 0.237 7.98 8.24 13.45
12/22/2020 3:15:00 PM 4.88 40.784 0.238 7.95 7.71 13.37
12/22/2020 3:30:00 PM 4.88 40.784 0.239 7.75 7.38 13.37
12/22/2020 3:45:00 PM 4.88 40.784 0.239 7.7 7.01 13.39
12/22/2020 4:00:00 PM 4.86 40.748 0.24 7.71 6.82 13.36
12/22/2020 4:15:00 PM 4.82 40.676 0.24 7.79 7.94 13.28
12/22/2020 4:30:00 PM 4.77 40.586 0.24 7.83 7.74 13.19
12/22/2020 4:45:00 PM 4.74 40.532 0.239 7.68 8.84 13.11
12/22/2020 5:00:00 PM 4.7 40.46 0.239 7.57 8.43 12.99
12/22/2020 5:15:00 PM 4.67 40.406 0.239 7.59 8.43 12.9
12/22/2020 5:30:00 PM 4.64 40.352 0.249 7.64 8.87 12.81
12/22/2020 5:45:00 PM 4.6 40.28 0.25 7.57 9.08 12.78
12/22/2020 6:00:00 PM 4.56 40.208 0.25 7.49 8.64 12.73
12/22/2020 6:15:00 PM 4.53 40.154 0.25 7.52 11.59 12.7
12/22/2020 6:30:00 PM 4.5 40.1 0.248 7.73 8.48 12.68
12/22/2020 6:45:00 PM 4.47 40.046 0.251 7.75 8.71 12.66
12/22/2020 7:00:00 PM 4.44 39.992 0.25 7.76 10.74 12.64
12/22/2020 7:15:00 PM 4.43 39.974 0.249 7.78 9.58 12.62
12/22/2020 7:30:00 PM 4.42 39.956 0.252 7.7 9.12 12.59
12/22/2020 7:45:00 PM 4.4 39.92 0.252 7.8 10.83 12.6
12/22/2020 8:00:00 PM 4.4 39.92 0.253 7.83 9.03 12.6
12/22/2020 8:15:00 PM 4.39 39.902 0.245 7.82 9.96 12.59
12/22/2020 8:30:00 PM 4.37 39.866 0.248 7.74 10.28 12.57
12/22/2020 8:45:00 PM 4.36 39.848 0.248 7.72 9.82 12.59
12/22/2020 9:00:00 PM 4.34 39.812 0.253 7.8 10.06 12.58
12/22/2020 9:15:00 PM 4.33 39.794 0.254 7.85 10.86 12.58
12/22/2020 9:30:00 PM 4.31 39.758 0.246 7.77 10.29 12.6
12/22/2020 9:45:00 PM 4.31 39.758 0.251 7.84 11.26 12.59
12/22/2020 10:00:00 PM 4.3 39.74 0.251 7.81 12.13 12.58
12/22/2020 10:15:00 PM 4.29 39.722 0.254 7.76 13.23 12.58
12/22/2020 10:30:00 PM 4.29 39.722 0.256 7.77 13.11 12.58
12/22/2020 10:45:00 PM 4.28 39.704 0.257 7.88 12.87 12.59
12/22/2020 11:00:00 PM 4.26 39.668 0.257 7.88 12.77 12.57
12/22/2020 11:15:00 PM 4.25 39.65 0.258 7.89 13.88 12.6
12/22/2020 11:30:00 PM 4.23 39.614 0.258 7.91 14.04 12.59
12/22/2020 11:45:00 PM 4.21 39.578 0.257 7.86 15.1 12.59
12/23/2020 12:00:00 AM 4.18 39.524 0.256 7.78 14.74 12.61
12/23/2020 12:15:00 AM 4.15 39.47 0.255 7.79 14.48 12.59
12/23/2020 12:30:00 AM 4.13 39.434 0.255 7.86 19.08 12.61
12/23/2020 12:45:00 AM 4.11 39.398 0.256 7.88 15.77 12.61
12/23/2020 1:00:00 AM 4.08 39.344 0.257 7.81 15.98 12.61
12/23/2020 1:15:00 AM 4.05 39.29 0.257 7.88 15.97 12.62
12/23/2020 1:30:00 AM 4.03 39.254 0.257 7.97 15.85 12.62
12/23/2020 1:45:00 AM 3.99 39.182 0.256 8.01 19.3 12.63
12/23/2020 2:00:00 AM 3.97 39.146 0.256 7.98 14.26 12.64
12/23/2020 2:15:00 AM 3.94 39.092 0.254 7.98 15.92 12.62
12/23/2020 2:30:00 AM 3.91 39.038 0.253 7.97 18.25 12.64
12/23/2020 2:45:00 AM 3.89 39.002 0.253 7.92 14.85 12.65
12/23/2020 3:00:00 AM 3.86 38.948 0.253 7.91 16.51 12.64
12/23/2020 3:15:00 AM 3.84 38.912 0.254 7.96 18.8 12.67
12/23/2020 3:30:00 AM 3.81 38.858 0.254 7.89 14.63 12.67
12/23/2020 3:45:00 AM 3.78 38.804 0.255 7.95 15.05 12.68
12/23/2020 4:00:00 AM 3.76 38.768 0.255 7.85 13.85 12.68
12/23/2020 4:15:00 AM 3.73 38.714 0.242 7.95 15.47 12.7
12/23/2020 4:30:00 AM 3.71 38.678 0.248 7.94 13.87 12.69
12/23/2020 4:45:00 AM 3.67 38.606 0.248 7.94 12.88 12.71
12/23/2020 5:00:00 AM 3.64 38.552 0.252 7.98 14.46 12.7
12/23/2020 5:15:00 AM 3.63 38.534 0.234 8 14.54 12.71
12/23/2020 5:30:00 AM 3.62 38.516 0.246 7.98 14.3 12.72
12/23/2020 5:45:00 AM 3.59 38.462 0.244 7.95 15.9 12.73
12/23/2020 6:00:00 AM 3.57 38.426 0.231 7.83 17.08 12.73
12/23/2020 6:15:00 AM 3.56 38.408 0.255 7.95 17.65 12.74
12/23/2020 6:30:00 AM 3.54 38.372 0.254 8.03 14.15 12.74
12/23/2020 6:45:00 AM 3.52 38.336 0.254 7.96 11.79 12.76
12/23/2020 7:00:00 AM 3.5 38.3 0.253 7.96 12.48 12.77
12/23/2020 7:15:00 AM 3.48 38.264 0.253 7.85 11.53 12.79
12/23/2020 7:30:00 AM 3.46 38.228 0.253 7.85 12.6 12.8
12/23/2020 7:45:00 AM 3.45 38.21 0.253 7.84 12.73 12.82
12/23/2020 8:00:00 AM 3.44 38.192 0.254 7.83 13.31 12.87
12/23/2020 8:15:00 AM 3.42 38.156 0.254 7.9 14.3 12.95
12/23/2020 8:30:00 AM 3.43 38.174 0.254 7.9 11.51 13.01
12/23/2020 8:45:00 AM 3.44 38.192 0.253 7.95 10.79 13.12
12/23/2020 9:00:00 AM 3.44 38.192 0.253 7.96 10.44 13.24
12/23/2020 9:15:00 AM 3.47 38.246 0.253 7.96 9.78 13.32
12/23/2020 9:30:00 AM 3.5 38.3 0.253 7.93 9.16 13.44
12/23/2020 9:45:00 AM 3.54 38.372 0.252 7.98 9.69 13.54
12/23/2020 10:00:00 AM 3.61 38.498 0.252 7.98 8.7 13.63
12/23/2020 10:15:00 AM 3.65 38.57 0.251 7.94 9.07 13.72
12/23/2020 10:30:00 AM 3.71 38.678 0.252 7.85 8.86 13.81
12/23/2020 10:45:00 AM 3.75 38.75 0.252 7.89 7.97 13.87
12/23/2020 11:00:00 AM 3.83 38.894 0.252 7.9 8.26 13.95
12/23/2020 11:15:00 AM 3.92 39.056 0.251 7.98 8.02 14.01
12/23/2020 11:30:00 AM 4 39.2 0.251 7.98 7.95 14.05
12/23/2020 11:45:00 AM 4.07 39.326 0.251 8.03 9.77 14.09
12/23/2020 12:00:00 PM 4.14 39.452 0.25 8.08 8.69 14.12
12/23/2020 12:15:00 PM 4.21 39.578 0.25 8.06 8.42 14.14
12/23/2020 12:30:00 PM 4.26 39.668 0.25 8.14 8.02 14.15
12/23/2020 12:45:00 PM 4.32 39.776 0.25 8.18 7.93 14.15
12/23/2020 1:00:00 PM 4.38 39.884 0.25 8.19 7.27 14.17
12/23/2020 1:15:00 PM 4.39 39.902 0.251 8.18 7.9 14.2
12/23/2020 1:30:00 PM 4.43 39.974 0.251 8.2 7.79 14.19
12/23/2020 1:45:00 PM 4.44 39.992 0.251 8.21 7.01 14.18
12/23/2020 2:00:00 PM 4.5 40.1 0.251 8.21 7.03 14.18
12/23/2020 2:15:00 PM 4.51 40.118 0.25 8.23 7.59 14.2
12/23/2020 2:30:00 PM 4.51 40.118 0.25 8.26 7.56 14.16
12/23/2020 2:45:00 PM 4.53 40.154 0.25 8.34 7.42 14.14
12/23/2020 3:00:00 PM 4.52 40.136 0.25 8.49 8.05 14.1
12/23/2020 3:15:00 PM 4.51 40.118 0.251 8.49 7.69 14.07
12/23/2020 3:30:00 PM 4.51 40.118 0.252 8.52 8.83 14
12/23/2020 3:45:00 PM 4.49 40.082 0.253 8.52 8.23 13.95
12/23/2020 4:00:00 PM 4.45 40.01 0.253 8.56 7.57 13.86
12/23/2020 4:15:00 PM 4.42 39.956 0.254 8.52 8.35 13.72
12/23/2020 4:30:00 PM 4.39 39.902 0.253 8.65 7.96 13.64
12/23/2020 4:45:00 PM 4.36 39.848 0.253 8.51 8.04 13.51
12/23/2020 5:00:00 PM 4.32 39.776 0.252 8.49 7.32 13.43
12/23/2020 5:15:00 PM 4.28 39.704 0.252 8.49 9.28 13.32
12/23/2020 5:30:00 PM 4.25 39.65 0.238 8.48 8.21 13.24
12/23/2020 5:45:00 PM 4.21 39.578 0.254 8.46 8.59 13.19
12/23/2020 6:00:00 PM 4.19 39.542 0.254 8.41 8.41 13.12
12/23/2020 6:15:00 PM 4.16 39.488 0.252 8.44 9.52 13.09
12/23/2020 6:30:00 PM 4.15 39.47 0.255 8.41 8.25 13.05
12/23/2020 6:45:00 PM 4.13 39.434 0.255 8.4 8 13.02
12/23/2020 7:00:00 PM 4.11 39.398 0.255 8.39 7.64 12.99
12/23/2020 7:15:00 PM 4.1 39.38 0.246 8.38 8.28 12.96
12/23/2020 7:30:00 PM 4.1 39.38 0.237 8.4 7.94 12.96
12/23/2020 7:45:00 PM 4.11 39.398 0.252 8.34 8.31 12.92
12/23/2020 8:00:00 PM 4.12 39.416 0.252 8.35 8.6 12.9
12/23/2020 8:15:00 PM 4.13 39.434 0.247 8.33 8.43 12.88
12/23/2020 8:30:00 PM 4.14 39.452 0.253 8.32 7.85 12.86
12/23/2020 8:45:00 PM 4.16 39.488 0.242 8.32 9.01 12.86
12/23/2020 9:00:00 PM 4.17 39.506 0.237 8.32 8.46 12.83
12/23/2020 9:15:00 PM 4.18 39.524 0.237 8.33 8.21 12.83
12/23/2020 9:30:00 PM 4.18 39.524 0.245 8.35 9.39 12.81
12/23/2020 9:45:00 PM 4.18 39.524 0.252 8.34 8.06 12.79
12/23/2020 10:00:00 PM 4.21 39.578 0.237 8.32 11.56 12.77
12/23/2020 10:15:00 PM 4.22 39.596 0.252 8.32 10.49 12.76
12/23/2020 10:30:00 PM 4.23 39.614 0.254 8.31 7.88 12.76
12/23/2020 10:45:00 PM 4.24 39.632 0.253 8.28 8.64 12.74
12/23/2020 11:00:00 PM 4.25 39.65 0.249 8.29 9.16 12.72
12/23/2020 11:15:00 PM 4.23 39.614 0.249 8.28 9.04 12.72
12/23/2020 11:30:00 PM 4.25 39.65 0.249 8.26 8.22 12.73
12/23/2020 11:45:00 PM 4.23 39.614 0.254 8.26 8.73 12.72
12/24/2020 12:00:00 AM 4.24 39.632 0.239 8.23 8.76 12.71
12/24/2020 12:15:00 AM 4.22 39.596 0.231 8.25 8.73 12.7
12/24/2020 12:30:00 AM 4.22 39.596 0.233 8.27 9.72 12.69
12/24/2020 12:45:00 AM 4.23 39.614 0.253 8.29 9.11 12.69
12/24/2020 1:00:00 AM 4.24 39.632 0.254 8.27 8.98 12.67
12/24/2020 1:15:00 AM 4.24 39.632 0.254 8.27 8.18 12.67
12/24/2020 1:30:00 AM 4.24 39.632 0.242 8.28 9.07 12.66
12/24/2020 1:45:00 AM 4.26 39.668 0.255 8.21 8.4 12.65
12/24/2020 2:00:00 AM 4.27 39.686 0.254 8.04 8.52 12.65
12/24/2020 2:15:00 AM 4.28 39.704 0.254 8.15 10.12 12.62
12/24/2020 2:30:00 AM 4.29 39.722 0.254 8.21 9.74 12.62
12/24/2020 2:45:00 AM 4.3 39.74 0.253 8.24 8.38 12.61
12/24/2020 3:00:00 AM 4.31 39.758 0.253 8.25 7.94 12.59
12/24/2020 3:15:00 AM 4.33 39.794 0.254 8.23 8.15 12.59
12/24/2020 3:30:00 AM 4.34 39.812 0.255 8.25 7.98 12.58
12/24/2020 3:45:00 AM 4.33 39.794 0.255 8.22 8.65 12.57
12/24/2020 4:00:00 AM 4.33 39.794 0.256 8.25 7.68 12.56
12/24/2020 4:15:00 AM 4.32 39.776 0.256 8.28 7.08 12.56
12/24/2020 4:30:00 AM 4.32 39.776 0.242 8.29 7.9 12.55
12/24/2020 4:45:00 AM 4.3 39.74 0.241 8.3 7.36 12.55
12/24/2020 5:00:00 AM 4.29 39.722 0.253 8.28 7.19 12.55
12/24/2020 5:15:00 AM 4.29 39.722 0.248 8.31 8.76 12.55
12/24/2020 5:30:00 AM 4.3 39.74 0.254 8.31 8.18 12.53
12/24/2020 5:45:00 AM 4.3 39.74 0.255 8.3 8.32 12.52
12/24/2020 6:00:00 AM 4.32 39.776 0.255 8.31 6.35 12.52
12/24/2020 6:15:00 AM 4.33 39.794 0.256 8.31 7.45 12.49
12/24/2020 6:30:00 AM 4.35 39.83 0.255 8.31 6.04 12.49
12/24/2020 6:45:00 AM 4.35 39.83 0.255 8.3 7.41 12.5
12/24/2020 7:00:00 AM 4.35 39.83 0.254 8.31 7.78 12.49
12/24/2020 7:15:00 AM 4.38 39.884 0.254 8.28 6.42 12.48
12/24/2020 7:30:00 AM 4.4 39.92 0.253 8.27 6.25 12.46
12/24/2020 7:45:00 AM 4.42 39.956 0.253 8.29 6.89 12.47
12/24/2020 8:00:00 AM 4.44 39.992 0.253 8.27 6.4 12.45
12/24/2020 8:15:00 AM 4.46 40.028 0.253 8.27 6.82 12.5
12/24/2020 8:30:00 AM 4.48 40.064 0.253 8.3 6.59 12.53
12/24/2020 8:45:00 AM 4.49 40.082 0.253 8.3 7.13 12.54
12/24/2020 9:00:00 AM 4.51 40.118 0.252 8.3 7.34 12.59
12/24/2020 9:15:00 AM 4.53 40.154 0.252 8.3 5.8 12.61
12/24/2020 9:30:00 AM 4.56 40.208 0.251 8.31 6.36 12.68
12/24/2020 9:45:00 AM 4.61 40.298 0.251 8.33 6.84 12.77
12/24/2020 10:00:00 AM 4.67 40.406 0.251 8.34 5.93 12.88
12/24/2020 10:15:00 AM 4.73 40.514 0.251 8.34 6.23 12.98
12/24/2020 10:30:00 AM 4.8 40.64 0.251 8.33 6.1 13.04
12/24/2020 10:45:00 AM 4.84 40.712 0.251 8.33 5.53 13.05
12/24/2020 11:00:00 AM 4.88 40.784 0.251 8.35 6.09 13.06
12/24/2020 11:15:00 AM 4.93 40.874 0.251 8.36 6.08 13.07
12/24/2020 11:30:00 AM 4.98 40.964 0.25 8.37 6.15 13.14
12/24/2020 11:45:00 AM 5.02 41.036 0.25 8.39 7.25 13.14
12/24/2020 12:00:00 PM 5.08 41.144 0.249 8.38 7.19 13.11
12/24/2020 12:15:00 PM 5.14 41.252 0.249 8.37 10.25 13.13
12/24/2020 12:30:00 PM 5.2 41.36 0.249 8.38 8.96 13.13
12/24/2020 12:45:00 PM 5.25 41.45 0.25 8.39 11.57 13.13
12/24/2020 1:00:00 PM 5.3 41.54 0.249 8.39 12.81 13.03
12/24/2020 1:15:00 PM 5.34 41.612 0.247 8.4 14.44 12.96
12/24/2020 1:30:00 PM 5.39 41.702 0.246 8.4 17.7 12.88
12/24/2020 1:45:00 PM 5.45 41.81 0.245 8.4 25.37 12.81
12/24/2020 2:00:00 PM 5.5 41.9 0.246 8.38 33.37 12.72
12/24/2020 2:15:00 PM 5.57 42.026 0.246 8.37 46.77 12.64
12/24/2020 2:30:00 PM 5.62 42.116 0.244 8.36 66.47 12.56
12/24/2020 2:45:00 PM 5.64 42.152 0.242 8.37 68.27 12.48
12/24/2020 3:00:00 PM 5.65 42.17 0.239 8.36 73.43 12.45
12/24/2020 3:15:00 PM 5.68 42.224 0.237 8.35 84.35 12.38
12/24/2020 3:30:00 PM 5.7 42.26 0.235 8.34 93.71 12.35
12/24/2020 3:45:00 PM 5.72 42.296 0.233 8.33 94.13 12.32
12/24/2020 4:00:00 PM 5.76 42.368 0.231 8.32 101 12.29
12/24/2020 4:15:00 PM 5.8 42.44 0.221 8.34 105.8 12.28
12/24/2020 4:30:00 PM 5.84 42.512 0.229 8.32 103.9 12.24
12/24/2020 4:45:00 PM 5.89 42.602 0.228 8.32 117.8 12.22
12/24/2020 5:00:00 PM 5.94 42.692 0.229 8.32 128 12.2
12/24/2020 5:15:00 PM 6 42.8 0.229 8.31 147.6 12.15
12/24/2020 5:30:00 PM 6.09 42.962 0.229 8.31 172.1 12.1
12/24/2020 5:45:00 PM 6.21 43.178 0.228 8.29 225.3 12.02
12/24/2020 6:00:00 PM 6.28 43.304 0.223 8.29 360.7 11.94
12/24/2020 6:15:00 PM 6.16 43.088 0.222 8.3 416.4 11.89
12/24/2020 6:30:00 PM 5.93 42.674 0.221 8.31 372.3 11.98
12/24/2020 6:45:00 PM 5.87 42.566 0.219 8.33 286.6 12.06
12/24/2020 7:00:00 PM 5.86 42.548 0.215 8.34 303.7 12.08
12/24/2020 7:15:00 PM 5.84 42.512 0.214 8.32 260.8 12.09
12/24/2020 7:30:00 PM 5.89 42.602 0.214 8.33 296.8 12.09
12/24/2020 7:45:00 PM 5.79 42.422 0.216 8.34 266.6 12.11
12/24/2020 8:00:00 PM 5.78 42.404 0.217 8.33 219.3 12.11
12/24/2020 8:15:00 PM 5.75 42.35 0.218 8.34 186.5 12.09
12/24/2020 8:30:00 PM 5.83 42.494 0.218 8.35 227.7 12.02
12/24/2020 8:45:00 PM 5.77 42.386 0.22 8.34 193.1 12.08
12/24/2020 9:00:00 PM 5.86 42.548 0.218 8.34 274.2 11.99
12/24/2020 9:15:00 PM 5.89 42.602 0.218 8.34 265.3 12
12/24/2020 9:30:00 PM 5.94 42.692 0.211 8.32 268.5 11.96
12/24/2020 9:45:00 PM 5.87 42.566 0.189 8.34 236.6 12.02
12/24/2020 10:00:00 PM 5.8 42.44 0.187 8.35 164.2 12.03
12/24/2020 10:15:00 PM 5.75 42.35 0.222 8.35 118.9 12.06
12/24/2020 10:30:00 PM 5.82 42.476 0.217 8.32 162.4 12.1
12/24/2020 10:45:00 PM 5.69 42.242 0.222 8.34 95.41 12.12
12/24/2020 11:00:00 PM 5.68 42.224 0.222 8.33 91.66 12.13
12/24/2020 11:15:00 PM 5.85 42.53 0.216 8.34 112.7 12.08
12/24/2020 11:30:00 PM 5.73 42.314 0.22 8.37 92.23 12.11
12/24/2020 11:45:00 PM 5.86 42.548 0.218 8.37 158.7 12.06
12/25/2020 12:00:00 AM 5.76 42.368 0.224 8.37 110.1 12.07
12/25/2020 12:15:00 AM 5.86 42.548 0.174 8.38 100.2 12.05
12/25/2020 12:30:00 AM 5.94 42.692 0.189 8.38 116.9 12.03
12/25/2020 12:45:00 AM 6.05 42.89 0.188 8.38 122.3 11.99
12/25/2020 1:00:00 AM 6.42 43.556 0.205 8.34 294.6 11.84
12/25/2020 1:15:00 AM 6.58 43.844 0.184 8.34 339.6 11.79
12/25/2020 1:30:00 AM 6.5 43.7 0.202 8.33 297.2 11.81
12/25/2020 1:45:00 AM 6.3 43.34 0.206 8.34 259.3 11.9
12/25/2020 2:00:00 AM 6.11 42.998 0.162 8.35 184.6 11.95
12/25/2020 2:15:00 AM 5.94 42.692 0.183 8.36 123.8 12.04
12/25/2020 2:30:00 AM 5.81 42.458 0.182 8.38 75.53 12.07
12/25/2020 2:45:00 AM 6.03 42.854 0.181 8.4 76.2 12
12/25/2020 3:00:00 AM 5.83 42.494 0.186 8.39 97.25 12.11
12/25/2020 3:15:00 AM 5.66 42.188 0.176 8.37 63.23 12.13
12/25/2020 3:30:00 AM 5.67 42.206 0.173 8.37 90.78 12.1
12/25/2020 3:45:00 AM 5.53 41.954 0.174 8.35 53.75 12.15
12/25/2020 4:00:00 AM 5.48 41.864 0.173 8.37 47.5 12.22
12/25/2020 4:15:00 AM 5.53 41.954 0.172 8.39 49.26 12.17
12/25/2020 4:30:00 AM 5.5 41.9 0.173 8.39 48.72 12.17
12/25/2020 4:45:00 AM 5.49 41.882 0.174 8.39 76.66 12.22
12/25/2020 5:00:00 AM 5.66 42.188 0.186 8.39 61.1 12.15
12/25/2020 5:15:00 AM 5.44 41.792 0.227 8.39 43.86 12.22
12/25/2020 5:30:00 AM 5.38 41.684 0.228 8.39 45.12 12.25
12/25/2020 5:45:00 AM 5.47 41.846 0.226 8.38 85.09 12.23
12/25/2020 6:00:00 AM 5.46 41.828 0.225 8.39 40.45 12.22
12/25/2020 6:15:00 AM 5.42 41.756 0.227 8.39 61.83 12.22
12/25/2020 6:30:00 AM 5.41 41.738 0.227 8.4 42.31 12.26
12/25/2020 6:45:00 AM 5.38 41.684 0.227 8.39 35.21 12.27
12/25/2020 7:00:00 AM 5.4 41.72 0.226 8.39 33.43 12.25
12/25/2020 7:15:00 AM 5.31 41.558 0.229 8.38 35.79 12.29
12/25/2020 7:30:00 AM 5.5 41.9 0.223 8.38 72.07 12.22
12/25/2020 7:45:00 AM 5.44 41.792 0.225 8.38 52.38 12.2
12/25/2020 8:00:00 AM 5.47 41.846 0.224 8.37 53.14 12.21
12/25/2020 8:15:00 AM 5.38 41.684 0.226 8.39 49.05 12.14
12/25/2020 8:30:00 AM 5.54 41.972 0.222 8.39 78.37 12.16
12/25/2020 8:45:00 AM 5.45 41.81 0.224 8.39 73.73 12.17
12/25/2020 9:00:00 AM 5.6 42.08 0.218 8.41 102.3 12.15
12/25/2020 9:15:00 AM 5.53 41.954 0.22 8.39 69.32 12.09
12/25/2020 9:30:00 AM 5.7 42.26 0.217 8.38 108.7 12.1
12/25/2020 9:45:00 AM 5.33 41.594 0.227 8.38 44.18 12.07
12/25/2020 10:00:00 AM 5.87 42.566 0.208 8.37 96.89 11.92
12/25/2020 10:15:00 AM 5.79 42.422 0.211 8.39 77.69 12.02
12/25/2020 10:30:00 AM 5.78 42.404 0.21 8.4 77.01 12.03
12/25/2020 10:45:00 AM 5.7 42.26 0.212 8.4 63.57 12.07
12/25/2020 11:00:00 AM 5.83 42.494 0.208 8.39 82.93 12.02
12/25/2020 11:15:00 AM 6.25 43.25 0.193 8.39 98.71 11.77
12/25/2020 11:30:00 AM 6.32 43.376 0.194 8.37 140 11.46
12/25/2020 11:45:00 AM 6.9 44.42 0.175 8.33 210.1 11.17
12/25/2020 12:00:00 PM 6.95 44.51 0.174 8.26 221.9 11.11
12/25/2020 12:15:00 PM 6.89 44.402 0.177 8.24 191.2 11.16
12/25/2020 12:30:00 PM 6.8 44.24 0.179 8.24 177.5 11.25
12/25/2020 12:45:00 PM 6.74 44.132 0.182 8.23 169.2 11.32
12/25/2020 1:00:00 PM 6.68 44.024 0.183 8.22 162.9 11.38
12/25/2020 1:15:00 PM 6.51 43.718 0.189 8.22 143.1 11.45
12/25/2020 1:30:00 PM 6.45 43.61 0.192 8.23 137.8 11.53
12/25/2020 1:45:00 PM 6.43 43.574 0.193 8.22 134.3 11.58
12/25/2020 2:00:00 PM 6.32 43.376 0.197 8.23 124.4 11.62
12/25/2020 2:15:00 PM 6.29 43.322 0.198 8.22 116.8 11.66
12/25/2020 2:30:00 PM 6.23 43.214 0.201 8.22 109.8 11.71
12/25/2020 2:45:00 PM 6.18 43.124 0.202 8.22 102.2 11.76
12/25/2020 3:00:00 PM 6.05 42.89 0.205 8.23 98.83 11.83
12/25/2020 3:15:00 PM 6.04 42.872 0.205 8.23 94.9 11.85
12/25/2020 3:30:00 PM 5.97 42.746 0.208 8.23 90.56 11.89
12/25/2020 3:45:00 PM 5.87 42.566 0.21 8.22 78.45 11.94
12/25/2020 4:00:00 PM 5.84 42.512 0.211 8.2 79.16 11.98
12/25/2020 4:15:00 PM 5.78 42.404 0.212 8.23 77.02 12.01
12/25/2020 4:30:00 PM 5.78 42.404 0.212 8.24 72.92 12
12/25/2020 4:45:00 PM 5.87 42.566 0.21 8.24 68.63 11.98
12/25/2020 5:00:00 PM 5.71 42.278 0.214 8.25 69.23 12.01
12/25/2020 5:15:00 PM 5.72 42.296 0.213 8.24 64.26 12.02
12/25/2020 5:30:00 PM 5.67 42.206 0.215 8.23 66.07 12.01
12/25/2020 5:45:00 PM 5.68 42.224 0.214 8.24 62.4 12.02
12/25/2020 6:00:00 PM 5.61 42.098 0.216 8.23 60.24 12.05
12/25/2020 6:15:00 PM 5.59 42.062 0.216 8.23 56.79 12.05
12/25/2020 6:30:00 PM 5.64 42.152 0.214 8.24 64.42 12.04
12/25/2020 6:45:00 PM 5.63 42.134 0.214 8.23 62.18 12.06
12/25/2020 7:00:00 PM 5.55 41.99 0.215 8.24 59.34 12.06
12/25/2020 7:15:00 PM 5.51 41.918 0.215 8.24 56.97 12.09
12/25/2020 7:30:00 PM 5.48 41.864 0.216 8.23 58.9 12.1
12/25/2020 7:45:00 PM 5.45 41.81 0.216 8.23 54.44 12.12
12/25/2020 8:00:00 PM 5.4 41.72 0.216 8.23 65.47 12.13
12/25/2020 8:15:00 PM 5.38 41.684 0.217 8.18 53.96 12.14
12/25/2020 8:30:00 PM 5.37 41.666 0.216 8.24 50.6 12.13
12/25/2020 8:45:00 PM 5.32 41.576 0.216 8.24 54.97 12.15
12/25/2020 9:00:00 PM 5.29 41.522 0.216 8.23 48.78 12.18
12/25/2020 9:15:00 PM 5.27 41.486 0.215 8.24 49.21 12.18
12/25/2020 9:30:00 PM 5.23 41.414 0.216 8.24 53.04 12.19
12/25/2020 9:45:00 PM 5.19 41.342 0.217 8.23 48.61 12.21
12/25/2020 10:00:00 PM 5.15 41.27 0.217 8.23 49.5 12.22
12/25/2020 10:15:00 PM 5.12 41.216 0.217 8.24 48.01 12.23
12/25/2020 10:30:00 PM 5.1 41.18 0.217 8.25 45.94 12.25
12/25/2020 10:45:00 PM 5.06 41.108 0.218 8.23 44.55 12.26
12/25/2020 11:00:00 PM 5.03 41.054 0.218 8.24 42.89 12.27
12/25/2020 11:15:00 PM 5 41 0.217 8.24 46.31 12.28
12/25/2020 11:30:00 PM 4.95 40.91 0.219 8.24 39.62 12.3
12/25/2020 11:45:00 PM 4.92 40.856 0.219 8.23 40.89 12.3
12/26/2020 12:00:00 AM 4.9 40.82 0.218 8.23 42.63 12.32
12/26/2020 12:15:00 AM 4.85 40.73 0.219 8.22 46.68 12.33
12/26/2020 12:30:00 AM 4.82 40.676 0.219 8.22 38.63 12.34
12/26/2020 12:45:00 AM 4.79 40.622 0.219 8.23 36.87 12.36
12/26/2020 1:00:00 AM 4.75 40.55 0.219 8.23 39.68 12.38
12/26/2020 1:15:00 AM 4.72 40.496 0.219 8.24 38.04 12.39
12/26/2020 1:30:00 AM 4.68 40.424 0.22 8.24 36.74 12.41
12/26/2020 1:45:00 AM 4.66 40.388 0.219 8.24 37.02 12.42
12/26/2020 2:00:00 AM 4.63 40.334 0.22 8.23 35.02 12.43
12/26/2020 2:15:00 AM 4.6 40.28 0.221 8.23 34.44 12.45
12/26/2020 2:30:00 AM 4.57 40.226 0.22 8.23 34.92 12.45
12/26/2020 2:45:00 AM 4.54 40.172 0.22 8.22 35.68 12.47
12/26/2020 3:00:00 AM 4.51 40.118 0.221 8.23 32.88 12.48
12/26/2020 3:15:00 AM 4.48 40.064 0.221 8.22 35.07 12.5
12/26/2020 3:30:00 AM 4.45 40.01 0.22 8.24 34.34 12.51
12/26/2020 3:45:00 AM 4.42 39.956 0.221 8.23 33.09 12.53
12/26/2020 4:00:00 AM 4.39 39.902 0.221 8.22 31.26 12.53
12/26/2020 4:15:00 AM 4.37 39.866 0.222 8.22 32.12 12.55
12/26/2020 4:30:00 AM 4.35 39.83 0.222 8.22 31.21 12.57
12/26/2020 4:45:00 AM 4.33 39.794 0.222 8.23 31.84 12.59
12/26/2020 5:00:00 AM 4.3 39.74 0.221 8.22 30.12 12.59
12/26/2020 5:15:00 AM 4.29 39.722 0.222 8.23 30.52 12.6
12/26/2020 5:30:00 AM 4.28 39.704 0.223 8.22 28.05 12.62
12/26/2020 5:45:00 AM 4.25 39.65 0.223 8.21 28.18 12.63
12/26/2020 6:00:00 AM 4.21 39.578 0.223 8.22 30.43 12.63
12/26/2020 6:15:00 AM 4.18 39.524 0.223 8.21 28.12 12.65
12/26/2020 6:30:00 AM 4.19 39.542 0.224 8.21 26.84 12.65
12/26/2020 6:45:00 AM 4.13 39.434 0.223 8.2 31.56 12.68
12/26/2020 7:00:00 AM 4.11 39.398 0.223 8.22 25.5 12.69
12/26/2020 7:15:00 AM 4.09 39.362 0.223 8.22 27.31 12.69
12/26/2020 7:30:00 AM 4.06 39.308 0.223 8.21 27.07 12.72
12/26/2020 7:45:00 AM 4.01 39.218 0.222 8.22 28.47 12.72
12/26/2020 8:00:00 AM 4.06 39.308 0.224 8.22 25.45 12.74
12/26/2020 8:15:00 AM 4.05 39.29 0.224 8.21 29.61 12.74
12/26/2020 8:30:00 AM 4.03 39.254 0.224 8.22 24.09 12.75
12/26/2020 8:45:00 AM 4.04 39.272 0.224 8.19 25.56 12.78
12/26/2020 9:00:00 AM 4.04 39.272 0.224 8.21 23.87 12.8
12/26/2020 9:15:00 AM 4.04 39.272 0.224 8.2 22.53 12.82
12/26/2020 9:30:00 AM 4.03 39.254 0.224 8.2 23.82 12.83
12/26/2020 9:45:00 AM 3.99 39.182 0.224 8.22 22.12 12.83
12/26/2020 10:00:00 AM 3.96 39.128 0.223 8.22 23.67 12.85
12/26/2020 10:15:00 AM 4 39.2 0.224 8.22 22.87 12.87
12/26/2020 10:30:00 AM 4.02 39.236 0.224 8.22 23.96 12.88
12/26/2020 10:45:00 AM 4.07 39.326 0.224 8.21 22.28 12.9
12/26/2020 11:00:00 AM 4.05 39.29 0.224 8.2 22.89 12.89
12/26/2020 11:15:00 AM 4.07 39.326 0.224 8.21 20.66 12.89
12/26/2020 11:30:00 AM 4.13 39.434 0.225 8.22 20.74 12.9
12/26/2020 11:45:00 AM 4.14 39.452 0.224 8.23 23.21 12.9
12/26/2020 12:00:00 PM 4.14 39.452 0.224 8.22 22.69 12.91
12/26/2020 12:15:00 PM 4.13 39.434 0.224 8.22 20.31 12.92
12/26/2020 12:30:00 PM 4.19 39.542 0.225 8.23 20.96 12.9
12/26/2020 12:45:00 PM 4.25 39.65 0.226 8.23 18.99 12.9
12/26/2020 1:00:00 PM 4.24 39.632 0.225 8.21 19.34 12.92
12/26/2020 1:15:00 PM 4.25 39.65 0.225 8.21 19.5 12.91
12/26/2020 1:30:00 PM 4.24 39.632 0.225 8.22 20.16 12.89
12/26/2020 1:45:00 PM 4.22 39.596 0.224 8.21 21.64 12.91
12/26/2020 2:00:00 PM 4.23 39.614 0.225 8.22 20.77 12.89
12/26/2020 2:15:00 PM 4.23 39.614 0.226 8.22 18.65 12.89
12/26/2020 2:30:00 PM 4.21 39.578 0.225 8.21 18.29 12.9
12/26/2020 2:45:00 PM 4.2 39.56 0.225 8.21 21.34 12.89
12/26/2020 3:00:00 PM 4.2 39.56 0.225 8.18 18.25 12.89
12/26/2020 3:15:00 PM 4.19 39.542 0.225 8.19 20.58 12.89
12/26/2020 3:30:00 PM 4.2 39.56 0.225 8.19 20.07 12.88
12/26/2020 3:45:00 PM 4.19 39.542 0.225 8.19 18.12 12.85
12/26/2020 4:00:00 PM 4.21 39.578 0.226 8.18 17.67 12.85
12/26/2020 4:15:00 PM 4.22 39.596 0.226 8.2 18.05 12.84
12/26/2020 4:30:00 PM 4.21 39.578 0.225 8.06 19.14 12.83
12/26/2020 4:45:00 PM 4.23 39.614 0.226 8.15 18.5 12.81
12/26/2020 5:00:00 PM 4.22 39.596 0.225 8.15 18.44 12.8
12/26/2020 5:15:00 PM 4.22 39.596 0.225 8.15 18.11 12.8
12/26/2020 5:30:00 PM 4.22 39.596 0.225 8.15 18.96 12.8
12/26/2020 5:45:00 PM 4.23 39.614 0.226 8.16 17.05 12.8
12/26/2020 6:00:00 PM 4.22 39.596 0.225 8.17 21.74 12.79
12/26/2020 6:15:00 PM 4.23 39.614 0.226 8.16 17.41 12.78
12/26/2020 6:30:00 PM 4.23 39.614 0.226 8.16 18.17 12.77
12/26/2020 6:45:00 PM 4.21 39.578 0.226 8.17 16.59 12.78
12/26/2020 7:00:00 PM 4.19 39.542 0.225 8.16 17.87 12.79
12/26/2020 7:15:00 PM 4.17 39.506 0.226 8.16 16.19 12.79
12/26/2020 7:30:00 PM 4.14 39.452 0.226 8.17 16.51 12.8
12/26/2020 7:45:00 PM 4.12 39.416 0.226 8.17 16.39 12.8
12/26/2020 8:00:00 PM 4.11 39.398 0.226 8.16 16.16 12.81
12/26/2020 8:15:00 PM 4.09 39.362 0.227 8.16 15.95 12.81
12/26/2020 8:30:00 PM 4.06 39.308 0.226 8.16 19.74 12.82
12/26/2020 8:45:00 PM 4.05 39.29 0.227 8.16 16.29 12.8
12/26/2020 9:00:00 PM 4.04 39.272 0.228 8.15 17.44 12.81
12/26/2020 9:15:00 PM 4.01 39.218 0.227 8.16 16.36 12.8
12/26/2020 9:30:00 PM 4.01 39.218 0.228 8.14 17.84 12.82
12/26/2020 9:45:00 PM 3.99 39.182 0.227 8.15 19.18 12.83
12/26/2020 10:00:00 PM 3.98 39.164 0.227 8.15 18.44 12.83
12/26/2020 10:15:00 PM 3.97 39.146 0.227 8.16 16.41 12.85
12/26/2020 10:30:00 PM 3.96 39.128 0.227 8.17 17.83 12.85
12/26/2020 10:45:00 PM 3.94 39.092 0.227 8.16 17.57 12.85
12/26/2020 11:00:00 PM 3.94 39.092 0.227 8.16 17.91 12.87
12/26/2020 11:15:00 PM 3.92 39.056 0.228 8.17 16.85 12.86
12/26/2020 11:30:00 PM 3.9 39.02 0.225 8.16 16.8 12.87
12/26/2020 11:45:00 PM 3.9 39.02 0.226 8.17 18.07 12.87
12/27/2020 12:00:00 AM 3.87 38.966 0.229 8.16 18.7 12.87
12/27/2020 12:15:00 AM 3.87 38.966 0.228 8.18 17.03 12.87
12/27/2020 12:30:00 AM 3.86 38.948 0.228 8.16 16.37 12.89
12/27/2020 12:45:00 AM 3.86 38.948 0.229 8.17 16.1 12.88
12/27/2020 1:00:00 AM 3.83 38.894 0.227 8.17 16.46 12.9
12/27/2020 1:15:00 AM 3.82 38.876 0.228 8.17 15.09 12.89
12/27/2020 1:30:00 AM 3.81 38.858 0.228 8.16 16.23 12.9
12/27/2020 1:45:00 AM 3.79 38.822 0.227 8.17 17.53 12.92
12/27/2020 2:00:00 AM 3.77 38.786 0.221 8.17 14.82 12.92
12/27/2020 2:15:00 AM 3.75 38.75 0.224 8.16 17.99 12.93
12/27/2020 2:30:00 AM 3.73 38.714 0.229 8.17 21.65 12.94
12/27/2020 2:45:00 AM 3.73 38.714 0.229 8.18 21.66 12.95
12/27/2020 3:00:00 AM 3.69 38.642 0.227 8.18 15.55 12.96
12/27/2020 3:15:00 AM 3.68 38.624 0.228 8.16 16.94 12.94
12/27/2020 3:30:00 AM 3.65 38.57 0.218 8.16 16.73 12.98
12/27/2020 3:45:00 AM 3.62 38.516 0.227 8.16 16.63 13
12/27/2020 4:00:00 AM 3.62 38.516 0.219 8.16 15.62 13
12/27/2020 4:15:00 AM 3.61 38.498 0.223 8.15 15.11 13.01
12/27/2020 4:30:00 AM 3.59 38.462 0.228 8.15 17.19 13
12/27/2020 4:45:00 AM 3.56 38.408 0.227 8.15 17.59 13.01
12/27/2020 5:00:00 AM 3.55 38.39 0.227 8.15 16.34 13.03
12/27/2020 5:15:00 AM 3.53 38.354 0.218 8.14 16.19 13.03
12/27/2020 5:30:00 AM 3.51 38.318 0.225 8.16 15.5 13.04
12/27/2020 5:45:00 AM 3.5 38.3 0.23 8.16 15.92 13.06
12/27/2020 6:00:00 AM 3.47 38.246 0.228 8.15 15.74 13.07
12/27/2020 6:15:00 AM 3.45 38.21 0.226 8.15 14.94 13.07
12/27/2020 6:30:00 AM 3.44 38.192 0.218 8.15 14.8 13.08
12/27/2020 6:45:00 AM 3.41 38.138 0.227 8.15 15.2 13.1
12/27/2020 7:00:00 AM 3.38 38.084 0.228 8.15 15.45 13.11
12/27/2020 7:15:00 AM 3.38 38.084 0.227 8.14 15.22 13.11
12/27/2020 7:30:00 AM 3.38 38.084 0.227 8.14 14.04 13.13
12/27/2020 7:45:00 AM 3.34 38.012 0.227 8.14 16.03 13.15
12/27/2020 8:00:00 AM 3.33 37.994 0.227 8.14 16.05 13.16
12/27/2020 8:15:00 AM 3.34 38.012 0.228 8.16 16.8 13.17
12/27/2020 8:30:00 AM 3.32 37.976 0.228 8.14 13.95 13.2
12/27/2020 8:45:00 AM 3.32 37.976 0.228 8.16 17.64 13.22
12/27/2020 9:00:00 AM 3.33 37.994 0.228 8.15 13.53 13.23
12/27/2020 9:15:00 AM 3.36 38.048 0.228 8.16 15.36 13.25
12/27/2020 9:30:00 AM 3.39 38.102 0.228 8.15 14.23 13.27
12/27/2020 9:45:00 AM 3.44 38.192 0.228 8.15 14.37 13.28
12/27/2020 10:00:00 AM 3.46 38.228 0.228 8.15 16.02 13.3
12/27/2020 10:15:00 AM 3.5 38.3 0.228 8.14 12.72 13.3
12/27/2020 10:30:00 AM 3.56 38.408 0.228 8.15 14.47 13.29
12/27/2020 10:45:00 AM 3.58 38.444 0.228 8.14 13.86 13.3
12/27/2020 11:00:00 AM 3.6 38.48 0.228 8.15 12.09 13.31
12/27/2020 11:15:00 AM 3.65 38.57 0.228 8.12 12.83 13.31
12/27/2020 11:30:00 AM 3.73 38.714 0.229 8.14 13.22 13.3
12/27/2020 11:45:00 AM 3.72 38.696 0.227 8.15 13 13.3
12/27/2020 12:00:00 PM 3.79 38.822 0.228 8.15 13.53 13.29
12/27/2020 12:15:00 PM 3.87 38.966 0.228 8.15 17.76 13.29
12/27/2020 12:30:00 PM 3.86 38.948 0.227 8.14 14.62 13.28
12/27/2020 12:45:00 PM 3.89 39.002 0.227 8.15 13 13.3
12/27/2020 1:00:00 PM 3.95 39.11 0.228 8.14 13.94 13.29
12/27/2020 1:15:00 PM 3.96 39.128 0.227 8.15 11.76 13.26
12/27/2020 1:30:00 PM 3.99 39.182 0.227 8.15 12.14 13.28
12/27/2020 1:45:00 PM 4.05 39.29 0.228 8.15 11.49 13.25
12/27/2020 2:00:00 PM 4.07 39.326 0.228 8.14 10.86 13.24
12/27/2020 2:15:00 PM 4.08 39.344 0.228 8.15 11.44 13.22
12/27/2020 2:30:00 PM 4.11 39.398 0.228 8.15 11.99 13.22
12/27/2020 2:45:00 PM 4.11 39.398 0.228 8.13 11.24 13.2
12/27/2020 3:00:00 PM 4.14 39.452 0.228 8.13 11.01 13.18
12/27/2020 3:15:00 PM 4.11 39.398 0.228 8.12 10.53 13.18
12/27/2020 3:30:00 PM 4.11 39.398 0.228 8.12 11.59 13.17
12/27/2020 3:45:00 PM 4.09 39.362 0.228 8.14 10.75 13.17
12/27/2020 4:00:00 PM 4.1 39.38 0.228 8.15 14.05 13.15
12/27/2020 4:15:00 PM 4.11 39.398 0.228 8.14 10.65 13.14
12/27/2020 4:30:00 PM 4.09 39.362 0.227 8.14 10.73 13.1
12/27/2020 4:45:00 PM 4.1 39.38 0.228 8.14 10.58 13.08
12/27/2020 5:00:00 PM 4.1 39.38 0.228 8.14 11.02 13.06
12/27/2020 5:15:00 PM 4.11 39.398 0.229 8.14 11.63 13.06
12/27/2020 5:30:00 PM 4.11 39.398 0.229 8.13 10.79 13.03
12/27/2020 5:45:00 PM 4.1 39.38 0.228 8.14 11.12 13.04
12/27/2020 6:00:00 PM 4.11 39.398 0.228 8.13 10.72 13.01
12/27/2020 6:15:00 PM 4.12 39.416 0.228 8.14 11.57 13
12/27/2020 6:30:00 PM 4.12 39.416 0.228 8.14 11.57 12.99
12/27/2020 6:45:00 PM 4.14 39.452 0.229 8.13 11.43 12.98
12/27/2020 7:00:00 PM 4.14 39.452 0.229 8.13 13.01 12.99
12/27/2020 7:15:00 PM 4.14 39.452 0.217 8.12 12.12 12.98
12/27/2020 7:30:00 PM 4.14 39.452 0.229 8.14 14.05 12.98
12/27/2020 7:45:00 PM 4.13 39.434 0.229 8.12 11.95 12.97
12/27/2020 8:00:00 PM 4.13 39.434 0.228 8.12 10.85 12.98
12/27/2020 8:15:00 PM 4.13 39.434 0.229 8.13 12.27 12.97
12/27/2020 8:30:00 PM 4.12 39.416 0.229 8.12 11.77 12.96
12/27/2020 8:45:00 PM 4.09 39.362 0.228 8.13 12.68 12.97
12/27/2020 9:00:00 PM 4.1 39.38 0.229 8.14 12.93 12.95
12/27/2020 9:15:00 PM 4.08 39.344 0.229 8.13 13.02 12.96
12/27/2020 9:30:00 PM 4.06 39.308 0.229 8.14 12.03 12.96
12/27/2020 9:45:00 PM 4.08 39.344 0.229 8.14 12.3 12.95
12/27/2020 10:00:00 PM 4.07 39.326 0.229 8.13 13.59 12.96
12/27/2020 10:15:00 PM 4.08 39.344 0.229 8.13 12.49 12.96
12/27/2020 10:30:00 PM 4.07 39.326 0.229 8.12 11.35 12.95
12/27/2020 10:45:00 PM 4.05 39.29 0.228 8.12 13.46 12.94
12/27/2020 11:00:00 PM 4.06 39.308 0.228 8.13 12.88 12.95
12/27/2020 11:15:00 PM 4.05 39.29 0.228 8.12 12.26 12.95
12/27/2020 11:30:00 PM 4.04 39.272 0.228 8.01 13.01 12.95
12/27/2020 11:45:00 PM 4.06 39.308 0.229 8.08 11.75 12.93
12/28/2020 12:00:00 AM 4.06 39.308 0.23 8.09 14.74 12.94
12/28/2020 12:15:00 AM 4.06 39.308 0.23 8.11 14.71 12.94
12/28/2020 12:30:00 AM 4.04 39.272 0.229 8.11 13.8 12.94
12/28/2020 12:45:00 AM 4.06 39.308 0.229 8.1 16.04 12.94
12/28/2020 1:00:00 AM 4.06 39.308 0.23 8.09 12.92 12.94
12/28/2020 1:15:00 AM 4.05 39.29 0.229 8.12 12.71 12.92
12/28/2020 1:30:00 AM 4.03 39.254 0.228 8.11 12.96 12.93
12/28/2020 1:45:00 AM 4.02 39.236 0.229 8.08 14.36 12.92
12/28/2020 2:00:00 AM 4.04 39.272 0.229 8.11 12.74 12.93
12/28/2020 2:15:00 AM 4.03 39.254 0.23 8.08 15.31 12.92
12/28/2020 2:30:00 AM 4.02 39.236 0.229 8.1 13.49 12.93
12/28/2020 2:45:00 AM 4.01 39.218 0.229 8.1 13.94 12.92
12/28/2020 3:00:00 AM 4.01 39.218 0.23 8.12 12.66 12.93
12/28/2020 3:15:00 AM 4 39.2 0.229 8.11 13.41 12.93
12/28/2020 3:30:00 AM 3.99 39.182 0.229 8.12 13.17 12.93
12/28/2020 3:45:00 AM 3.99 39.182 0.229 8.11 14.56 12.92
12/28/2020 4:00:00 AM 3.99 39.182 0.229 8.13 11.85 12.92
12/28/2020 4:15:00 AM 3.97 39.146 0.229 8.13 16.01 12.92
12/28/2020 4:30:00 AM 3.99 39.182 0.229 8.13 12.57 12.94
12/28/2020 4:45:00 AM 3.99 39.182 0.229 8.12 13.68 12.92
12/28/2020 5:00:00 AM 3.99 39.182 0.229 8.13 12.8 12.93
12/28/2020 5:15:00 AM 4 39.2 0.23 8.14 15.28 12.93
12/28/2020 5:30:00 AM 3.99 39.182 0.231 8.15 15.03 12.92
12/28/2020 5:45:00 AM 4 39.2 0.229 8.13 14.5 12.92
12/28/2020 6:00:00 AM 4 39.2 0.228 8.13 12.53 12.91
12/28/2020 6:15:00 AM 4.01 39.218 0.229 8.14 15.55 12.92
12/28/2020 6:30:00 AM 4.01 39.218 0.229 8.14 12.83 12.93
12/28/2020 6:45:00 AM 4.01 39.218 0.228 8.12 12.48 12.92
12/28/2020 7:00:00 AM 4.03 39.254 0.229 8.13 13.91 12.91
12/28/2020 7:15:00 AM 4.03 39.254 0.229 8.14 12.8 12.92
12/28/2020 7:30:00 AM 4.03 39.254 0.229 8.13 13.25 12.9
12/28/2020 7:45:00 AM 4.03 39.254 0.229 8.13 12.99 12.92
12/28/2020 8:00:00 AM 4.02 39.236 0.229 8.14 14.01 12.93
12/28/2020 8:15:00 AM 4.02 39.236 0.229 8.12 11.84 12.93
12/28/2020 8:30:00 AM 4.02 39.236 0.228 8.14 13.46 12.96
12/28/2020 8:45:00 AM 4.02 39.236 0.228 8.12 11.85 12.97
12/28/2020 9:00:00 AM 4.0